Darstellungsparameter: Aktuell verwendete Einstellungen:
Skalierung der Graphiken ... ?
xyx+y,   Skalierungsfaktor:      Skalierung: Modus: x, Faktor: 1
Darstellungszeitraum ... ?
Vom - - bis: - -   Zeitraum: 13.03.2020 - 10.04.2020
Min/Max/Avg-Anzeige ... ?
Zeige MMA aktuell
Zeige MMA Monat
Zeige MMA alles
Zeige --A aktuell
Zeige --A Monat
Zeige --A alles
Keine MMA-Anzeige
MMA:
Average (ber die Originaldaten)
MMA-Basis: 13.03.2020 - 10.04.2020
Quicknavigation für Darstellung... ?
Tage:      1T, 2T, 3T, 5T -1T -2T -3T -5T +1T +2T +3T +5T
Wochen: 1W, 2W, 3W -1W -2W -3W +1W +2W +3W
Monate: 1M, 3M, 6M -1M -3M -6M +1M +3M +6M
Jahre:    1J, 3J, 5J, 10J -1J -3J -5J -10J +1J +3J +5J +10J
Nutze für die Darstellung ... ?
Originaldaten oder Mittelwerte auf ...
Stundenbasis Tagesbasis Wochenbasis
Monatsbasis Jahresbasis      Datenbasis: Original-Daten
Darstellen als:
Statistik (Auto) Statistik J:M      Darstellung:
Zur Graphik,    zurück zur Übersicht aller Sensoren.
 
Tabellarische Datenbersicht: ?
 
Sensor: Nr:Datum:Temp:Feuchte:
Aussen-T/F 1 13-03-2020 00:09:17 6.5 C 32 %
2 13-03-2020 00:19:17 6.5 C 32 %
3 13-03-2020 00:29:17 6.1 C 32 %
4 13-03-2020 00:39:17 6.2 C 32 %
5 13-03-2020 00:49:17 6 C 32 %
6 13-03-2020 00:59:17 5.9 C 33 %
7 13-03-2020 01:09:17 5.4 C 33 %
8 13-03-2020 01:19:17 5.4 C 33 %
9 13-03-2020 01:29:17 5.1 C 34 %
10 13-03-2020 01:39:17 5.2 C 34 %
11 13-03-2020 01:49:17 5.2 C 33 %
12 13-03-2020 01:59:17 5.2 C 33 %
13 13-03-2020 02:09:17 4.8 C 35 %
14 13-03-2020 02:19:17 5 C 34 %
15 13-03-2020 02:29:17 5.1 C 34 %
16 13-03-2020 02:39:18 5.1 C 34 %
17 13-03-2020 02:49:17 5.1 C 34 %
18 13-03-2020 02:59:17 5.1 C 34 %
19 13-03-2020 03:09:17 5 C 34 %
20 13-03-2020 03:19:17 5.2 C 34 %
21 13-03-2020 03:29:17 5.2 C 34 %
22 13-03-2020 03:39:18 5.1 C 34 %
23 13-03-2020 03:49:17 5.1 C 34 %
24 13-03-2020 03:59:17 5.2 C 34 %
25 13-03-2020 04:09:17 5 C 34 %
Sensor: Nr:Datum:Temp:Feuchte:
Aussen-T/F 26 13-03-2020 04:19:17 4.9 C 35 %
27 13-03-2020 04:29:17 5.1 C 35 %
28 13-03-2020 04:39:17 5.1 C 35 %
29 13-03-2020 04:49:17 5 C 34 %
30 13-03-2020 04:59:17 5.2 C 34 %
31 13-03-2020 05:09:17 5.2 C 34 %
32 13-03-2020 05:19:17 5.6 C 34 %
33 13-03-2020 05:29:17 5.4 C 34 %
34 13-03-2020 05:39:17 5.4 C 34 %
35 13-03-2020 05:49:18 5.4 C 34 %
36 13-03-2020 05:59:18 5.4 C 34 %
37 13-03-2020 06:09:18 5.6 C 34 %
38 13-03-2020 06:19:17 5.7 C 34 %
39 13-03-2020 06:29:17 5.4 C 34 %
40 13-03-2020 06:39:17 5.4 C 35 %
41 13-03-2020 06:49:17 5.3 C 34 %
42 13-03-2020 06:59:17 5.4 C 35 %
43 13-03-2020 07:09:17 5.3 C 35 %
44 13-03-2020 07:19:17 5.4 C 35 %
45 13-03-2020 07:29:17 5.6 C 35 %
46 13-03-2020 07:39:17 5.7 C 35 %
47 13-03-2020 07:49:18 5.7 C 35 %
48 13-03-2020 07:59:18 5.7 C 35 %
49 13-03-2020 08:09:17 5.8 C 35 %
50 13-03-2020 08:19:17 6 C 35 %
Sensor: Nr:Datum:Temp:Feuchte:
Aussen-T/F 51 13-03-2020 08:29:17 5.9 C 35 %
52 13-03-2020 08:39:18 6 C 35 %
53 13-03-2020 08:49:17 6.2 C 35 %
54 13-03-2020 08:59:17 6.4 C 34 %
55 13-03-2020 09:09:17 6.5 C 35 %
56 13-03-2020 09:19:17 6.9 C 34 %
57 13-03-2020 09:29:17 7.1 C 33 %
58 13-03-2020 09:39:18 7.1 C 33 %
59 13-03-2020 09:49:17 6.6 C 34 %
60 13-03-2020 09:59:17 7.1 C 33 %
61 13-03-2020 10:09:18 7.5 C 33 %
62 13-03-2020 10:19:17 8.5 C 32 %
63 13-03-2020 10:29:17 8.1 C 32 %
64 13-03-2020 10:39:18 8 C 32 %
65 13-03-2020 10:49:17 7.6 C 33 %
66 13-03-2020 10:59:17 7.4 C 35 %
67 13-03-2020 11:09:17 8.9 C 33 %
68 13-03-2020 11:19:17 9.1 C 31 %
69 13-03-2020 11:29:17 8 C 32 %
70 13-03-2020 11:39:17 7.3 C 35 %
71 13-03-2020 11:49:18 7.4 C 35 %
72 13-03-2020 11:59:18 8.2 C 33 %
73 13-03-2020 12:09:18 8.9 C 32 %
74 13-03-2020 12:19:18 9.7 C 29 %
75 13-03-2020 12:29:18 9 C 30 %
Sensor: Nr:Datum:Temp:Feuchte:
Aussen-T/F 76 13-03-2020 12:39:18 9.6 C 30 %
77 13-03-2020 12:49:18 9 C 31 %
78 13-03-2020 12:59:18 8.8 C 31 %
79 13-03-2020 13:09:18 8.4 C 32 %
80 13-03-2020 13:19:18 8.6 C 33 %
81 13-03-2020 13:29:18 9.5 C 31 %
82 13-03-2020 13:39:18 9.9 C 30 %
83 13-03-2020 13:49:17 9.7 C 30 %
84 13-03-2020 13:59:17 9.6 C 30 %
85 13-03-2020 14:09:18 9.3 C 30 %
86 13-03-2020 14:19:18 9.4 C 30 %
87 13-03-2020 14:29:18 8.9 C 32 %
88 13-03-2020 14:39:18 9.5 C 31 %
89 13-03-2020 14:49:18 10.3 C 28 %
90 13-03-2020 14:59:18 10.1 C 28 %
91 13-03-2020 15:09:18 9.5 C 29 %
92 13-03-2020 15:19:17 9.3 C 29 %
93 13-03-2020 15:29:17 10.1 C 27 %
94 13-03-2020 15:39:18 10.4 C 26 %
95 13-03-2020 15:49:18 10.4 C 26 %
96 13-03-2020 15:59:18 10.1 C 27 %
97 13-03-2020 16:09:18 10 C 27 %
98 13-03-2020 16:19:17 9.8 C 27 %
99 13-03-2020 16:29:17 9.1 C 29 %
100 13-03-2020 16:39:17 9 C 30 %
Sensor: Nr:Datum:Temp:Feuchte:
Aussen-T/F 101 13-03-2020 16:49:17 10 C 27 %
102 13-03-2020 16:59:17 9.3 C 30 %
103 13-03-2020 17:09:17 9.1 C 30 %
104 13-03-2020 17:19:18 9.1 C 30 %
105 13-03-2020 17:29:18 9.3 C 30 %
106 13-03-2020 17:39:17 9.4 C 29 %
107 13-03-2020 17:49:18 9.5 C 30 %
108 13-03-2020 17:59:18 9.1 C 31 %
109 13-03-2020 18:09:18 8.7 C 31 %
110 13-03-2020 18:19:17 8.6 C 31 %
111 13-03-2020 18:29:17 8.4 C 31 %
112 13-03-2020 18:39:17 8.2 C 31 %
113 13-03-2020 18:49:17 8.1 C 32 %
114 13-03-2020 18:59:17 8 C 32 %
115 13-03-2020 19:09:17 7.8 C 33 %
116 13-03-2020 19:19:17 7.3 C 35 %
117 13-03-2020 19:29:17 7.3 C 35 %
118 13-03-2020 19:39:18 7.3 C 35 %
119 13-03-2020 19:49:17 7.3 C 35 %
120 13-03-2020 19:59:18 7 C 35 %
121 13-03-2020 20:09:18 6.7 C 36 %
122 13-03-2020 20:19:17 6.7 C 36 %
123 13-03-2020 20:29:17 6.9 C 36 %
124 13-03-2020 20:39:17 6.4 C 36 %
125 13-03-2020 20:49:17 6.3 C 37 %
Sensor: Nr:Datum:Temp:Feuchte:
Aussen-T/F 126 13-03-2020 20:59:17 6.2 C 37 %
127 13-03-2020 21:09:18 5.8 C 38 %
128 13-03-2020 21:19:18 5.8 C 38 %
129 13-03-2020 21:29:18 5.8 C 38 %
130 13-03-2020 21:39:18 6.2 C 37 %
131 13-03-2020 21:49:17 5.7 C 38 %
132 13-03-2020 21:59:17 5.8 C 38 %
133 13-03-2020 22:09:18 5.4 C 39 %
134 13-03-2020 22:19:17 5.6 C 39 %
135 13-03-2020 22:29:18 5.4 C 39 %
136 13-03-2020 22:39:18 5.5 C 40 %
137 13-03-2020 22:49:17 5.7 C 39 %
138 13-03-2020 22:59:17 5.8 C 39 %
139 13-03-2020 23:09:18 5.6 C 39 %
140 13-03-2020 23:19:17 5.6 C 39 %
141 13-03-2020 23:29:17 5.5 C 40 %
142 13-03-2020 23:39:17 5.4 C 40 %
143 13-03-2020 23:49:17 5.4 C 40 %
144 13-03-2020 23:59:17 4.8 C 41 %
145 14-03-2020 00:09:17 4.8 C 41 %
146 14-03-2020 00:19:18 4.6 C 41 %
147 14-03-2020 00:29:18 4.4 C 41 %
148 14-03-2020 00:39:18 3.7 C 42 %
149 14-03-2020 00:49:17 3.5 C 44 %
150 14-03-2020 00:59:17 3 C 43 %
Sensor: Nr:Datum:Temp:Feuchte:
Aussen-T/F 151 14-03-2020 01:09:18 2.6 C 45 %
152 14-03-2020 01:19:17 2.4 C 46 %
153 14-03-2020 01:29:18 2 C 45 %
154 14-03-2020 01:39:18 2 C 46 %
155 14-03-2020 01:49:17 2.4 C 48 %
156 14-03-2020 01:59:18 2.8 C 49 %
157 14-03-2020 02:09:18 3.3 C 47 %
158 14-03-2020 02:19:18 3.6 C 46 %
159 14-03-2020 02:29:18 3.3 C 45 %
160 14-03-2020 02:39:18 3 C 45 %
161 14-03-2020 02:49:18 2.8 C 45 %
162 14-03-2020 02:59:18 2.3 C 46 %
163 14-03-2020 03:09:18 2.2 C 46 %
164 14-03-2020 03:19:17 1.5 C 47 %
165 14-03-2020 03:29:17 1.3 C 47 %
166 14-03-2020 03:39:17 1.4 C 48 %
167 14-03-2020 03:49:18 1.5 C 48 %
168 14-03-2020 03:59:18 1.5 C 49 %
169 14-03-2020 04:09:17 1.7 C 49 %
170 14-03-2020 04:19:17 1.6 C 48 %
171 14-03-2020 04:29:17 1.6 C 49 %
172 14-03-2020 04:39:17 1.5 C 48 %
173 14-03-2020 04:49:17 1.3 C 48 %
174 14-03-2020 04:59:17 1.3 C 48 %
175 14-03-2020 05:09:17 1.3 C 49 %
Sensor: Nr:Datum:Temp:Feuchte:
Aussen-T/F 176 14-03-2020 05:19:17 1.1 C 48 %
177 14-03-2020 05:29:17 0.8 C 49 %
178 14-03-2020 05:39:18 0.9 C 50 %
179 14-03-2020 05:49:17 1.3 C 49 %
180 14-03-2020 05:59:17 0.5 C 49 %
181 14-03-2020 06:09:18 0.3 C 49 %
182 14-03-2020 06:19:18 0.6 C 50 %
183 14-03-2020 06:29:18 0.4 C 49 %
184 14-03-2020 06:39:18 0.4 C 50 %
185 14-03-2020 06:49:17 0.8 C 50 %
186 14-03-2020 06:59:17 0.8 C 50 %
187 14-03-2020 07:09:17 0.7 C 50 %
188 14-03-2020 07:19:17 0.8 C 50 %
189 14-03-2020 07:29:17 0.6 C 49 %
190 14-03-2020 07:39:18 0.6 C 49 %
191 14-03-2020 07:49:17 0.8 C 49 %
192 14-03-2020 07:59:17 0.8 C 50 %
193 14-03-2020 08:09:17 1 C 48 %
194 14-03-2020 08:19:17 1.4 C 49 %
195 14-03-2020 08:29:17 1.7 C 49 %
196 14-03-2020 08:39:18 1.9 C 49 %
197 14-03-2020 08:49:17 2.2 C 48 %
198 14-03-2020 08:59:17 2.5 C 48 %
199 14-03-2020 09:09:17 2.8 C 48 %
200 14-03-2020 09:19:17 3.4 C 46 %
Sensor: Nr:Datum:Temp:Feuchte:
Aussen-T/F 201 14-03-2020 09:29:17 3.7 C 45 %
202 14-03-2020 09:39:18 4.1 C 43 %
203 14-03-2020 09:49:17 4.5 C 43 %
204 14-03-2020 09:59:17 5 C 41 %
205 14-03-2020 10:09:18 5.7 C 41 %
206 14-03-2020 10:19:18 6 C 39 %
207 14-03-2020 10:29:18 6.8 C 40 %
208 14-03-2020 10:39:18 7.7 C 38 %
209 14-03-2020 10:49:17 7.7 C 37 %
210 14-03-2020 10:59:17 8.4 C 36 %
211 14-03-2020 11:09:18 9 C 35 %
212 14-03-2020 11:19:18 10.4 C 34 %
213 14-03-2020 11:29:18 11 C 31 %
214 14-03-2020 11:39:18 10.4 C 31 %
215 14-03-2020 11:49:17 10.1 C 32 %
216 14-03-2020 11:59:17 11.3 C 31 %
217 14-03-2020 12:09:18 13 C 27 %
218 14-03-2020 12:19:17 12.4 C 27 %
219 14-03-2020 12:29:18 12 C 27 %
220 14-03-2020 12:39:18 11.3 C 28 %
221 14-03-2020 12:49:17 11.5 C 28 %
222 14-03-2020 12:59:17 13.1 C 26 %
223 14-03-2020 13:09:18 12.9 C 25 %
224 14-03-2020 13:19:17 13 C 22 %
225 14-03-2020 13:29:17 13.3 C 23 %
Sensor: Nr:Datum:Temp:Feuchte:
Aussen-T/F 226 14-03-2020 13:39:17 12.5 C 22 %
227 14-03-2020 13:49:17 12.4 C 22 %
228 14-03-2020 13:59:17 13.8 C 21 %
229 14-03-2020 14:09:18 12.3 C 22 %
230 14-03-2020 14:19:17 12.5 C 21 %
231 14-03-2020 14:29:17 14 C 20 %
232 14-03-2020 14:39:17 13.7 C 20 %
233 14-03-2020 14:49:18 12.3 C 20 %
234 14-03-2020 14:59:18 11.6 C 23 %
235 14-03-2020 15:09:18 11.4 C 22 %
236 14-03-2020 15:19:17 12.1 C 21 %
237 14-03-2020 15:29:17 12.1 C 20 %
238 14-03-2020 15:39:18 11.7 C 21 %
239 14-03-2020 15:49:17 12 C 20 %
240 14-03-2020 15:59:17 11.8 C 21 %
241 14-03-2020 16:09:18 11.2 C 23 %
242 14-03-2020 16:19:17 10.6 C 25 %
243 14-03-2020 16:29:17 10.4 C 26 %
244 14-03-2020 16:39:18 9.9 C 26 %
245 14-03-2020 16:49:18 10.1 C 26 %
246 14-03-2020 16:59:18 9.8 C 27 %
247 14-03-2020 17:09:18 10.3 C 26 %
248 14-03-2020 17:19:17 10.3 C 26 %
249 14-03-2020 17:29:17 10.7 C 26 %
250 14-03-2020 17:39:17 9.6 C 27 %
Sensor: Nr:Datum:Temp:Feuchte:
Aussen-T/F 251 14-03-2020 17:49:17 9.3 C 28 %
252 14-03-2020 17:59:17 8.6 C 30 %
253 14-03-2020 18:09:17 8.1 C 31 %
254 14-03-2020 18:19:17 7.3 C 33 %
255 14-03-2020 18:29:17 7.1 C 33 %
256 14-03-2020 18:39:17 6.3 C 36 %
257 14-03-2020 18:49:17 5.9 C 37 %
258 14-03-2020 18:59:17 5.9 C 38 %
259 14-03-2020 19:09:17 5.3 C 38 %
260 14-03-2020 19:19:17 5.5 C 39 %
261 14-03-2020 19:29:17 5.1 C 39 %
262 14-03-2020 19:39:17 5.6 C 39 %
263 14-03-2020 19:49:17 5.2 C 39 %
264 14-03-2020 19:59:17 5.3 C 39 %
265 14-03-2020 20:09:18 5.3 C 39 %
266 14-03-2020 20:19:18 5.3 C 39 %
267 14-03-2020 20:29:18 5.3 C 39 %
268 14-03-2020 20:39:18 5.6 C 39 %
269 14-03-2020 20:49:17 5.5 C 39 %
270 14-03-2020 20:59:18 5.7 C 39 %
271 14-03-2020 21:09:18 5.7 C 39 %
272 14-03-2020 21:19:18 5.7 C 39 %
273 14-03-2020 21:29:18 5.6 C 38 %
274 14-03-2020 21:39:17 5.1 C 39 %
275 14-03-2020 21:49:18 5.2 C 39 %
Sensor: Nr:Datum:Temp:Feuchte:
Aussen-T/F 276 14-03-2020 21:59:18 5 C 39 %
277 14-03-2020 22:09:18 5 C 39 %
278 14-03-2020 22:19:17 5 C 39 %
279 14-03-2020 22:29:17 5 C 39 %
280 14-03-2020 22:39:18 5.1 C 39 %
281 14-03-2020 22:49:18 4.8 C 40 %
282 14-03-2020 22:59:18 5.1 C 39 %
283 14-03-2020 23:09:17 5.5 C 39 %
284 14-03-2020 23:19:17 5.7 C 39 %
285 14-03-2020 23:29:17 5.6 C 40 %
286 14-03-2020 23:39:17 5.6 C 39 %
287 14-03-2020 23:49:18 5.8 C 40 %
288 14-03-2020 23:59:18 5.8 C 40 %
289 15-03-2020 00:09:18 5.9 C 39 %
290 15-03-2020 00:19:17 5.8 C 39 %
291 15-03-2020 00:29:17 6.1 C 37 %
292 15-03-2020 00:39:18 6 C 38 %
293 15-03-2020 00:49:18 5.6 C 39 %
294 15-03-2020 00:59:18 5.3 C 39 %
295 15-03-2020 01:09:17 5.1 C 40 %
296 15-03-2020 01:19:18 5.1 C 39 %
297 15-03-2020 01:29:18 5.5 C 39 %
298 15-03-2020 01:39:17 5.2 C 40 %
299 15-03-2020 01:49:17 5.2 C 40 %
300 15-03-2020 01:59:17 5.2 C 40 %
Sensor: Nr:Datum:Temp:Feuchte:
Aussen-T/F 301 15-03-2020 02:09:17 5.1 C 40 %
302 15-03-2020 02:19:17 5.1 C 40 %
303 15-03-2020 02:29:17 4.8 C 40 %
304 15-03-2020 02:39:18 4.5 C 40 %
305 15-03-2020 02:49:17 4.9 C 40 %
306 15-03-2020 02:59:17 5 C 40 %
307 15-03-2020 03:09:17 4.8 C 40 %
308 15-03-2020 03:19:17 4.2 C 40 %
309 15-03-2020 03:29:17 4 C 40 %
310 15-03-2020 03:39:18 4 C 40 %
311 15-03-2020 03:49:17 3.8 C 41 %
312 15-03-2020 03:59:17 3.7 C 42 %
313 15-03-2020 04:09:18 3.7 C 41 %
314 15-03-2020 04:19:18 3.9 C 41 %
315 15-03-2020 04:29:18 3.7 C 41 %
316 15-03-2020 04:39:18 3.8 C 41 %
317 15-03-2020 04:49:17 3.7 C 41 %
318 15-03-2020 04:59:18 3.5 C 41 %
319 15-03-2020 05:09:18 3.5 C 41 %
320 15-03-2020 05:19:17 3.3 C 41 %
321 15-03-2020 05:29:18 3.2 C 41 %
322 15-03-2020 05:39:18 3 C 41 %
323 15-03-2020 05:49:17 3.1 C 41 %
324 15-03-2020 05:59:17 3.1 C 41 %
325 15-03-2020 06:09:18 3.1 C 41 %
Sensor: Nr:Datum:Temp:Feuchte:
Aussen-T/F 326 15-03-2020 06:19:17 3.1 C 41 %
327 15-03-2020 06:29:17 2.9 C 43 %
328 15-03-2020 06:39:18 3.3 C 41 %
329 15-03-2020 06:49:18 3.6 C 41 %
330 15-03-2020 06:59:18 3.3 C 41 %
331 15-03-2020 07:09:18 3 C 42 %
332 15-03-2020 07:19:18 3.1 C 42 %
333 15-03-2020 07:29:18 3.6 C 41 %
334 15-03-2020 07:39:18 3.6 C 41 %
335 15-03-2020 07:49:18 3.5 C 41 %
336 15-03-2020 07:59:18 4 C 41 %
337 15-03-2020 08:09:18 4.8 C 40 %
338 15-03-2020 08:19:18 5.4 C 39 %
339 15-03-2020 08:29:18 5.7 C 39 %
340 15-03-2020 08:39:18 5.9 C 38 %
341 15-03-2020 08:49:17 6.4 C 38 %
342 15-03-2020 08:59:17 6.7 C 38 %
343 15-03-2020 09:09:18 6.8 C 37 %
344 15-03-2020 09:19:18 6.9 C 38 %
345 15-03-2020 09:29:18 7.1 C 37 %
346 15-03-2020 09:39:18 7.8 C 36 %
347 15-03-2020 09:49:18 9.2 C 33 %
348 15-03-2020 09:59:18 9.9 C 32 %
349 15-03-2020 10:09:18 9.9 C 31 %
350 15-03-2020 10:19:18 9.8 C 32 %
Sensor: Nr:Datum:Temp:Feuchte:
Aussen-T/F 351 15-03-2020 10:29:18 10 C 32 %
352 15-03-2020 10:39:18 10.8 C 31 %
353 15-03-2020 10:49:17 11.8 C 29 %
354 15-03-2020 10:59:17 12.5 C 27 %
355 15-03-2020 11:09:17 13.4 C 25 %
356 15-03-2020 11:19:17 14.7 C 23 %
357 15-03-2020 11:29:17 16 C 20 %
358 15-03-2020 11:39:18 15.5 C 20 %
359 15-03-2020 11:49:17 14.9 C 20 %
360 15-03-2020 11:59:18 15.2 C 20 %
361 15-03-2020 12:09:18 14.5 C 20 %
362 15-03-2020 12:19:18 14.1 C 20 %
363 15-03-2020 12:29:18 14.4 C 20 %
364 15-03-2020 12:39:18 14.7 C 20 %
365 15-03-2020 12:49:17 15.2 C 20 %
366 15-03-2020 12:59:17 15.4 C 20 %
367 15-03-2020 13:09:18 14.8 C 20 %
368 15-03-2020 13:19:17 17 C 20 %
369 15-03-2020 13:29:17 18.6 C 20 %
370 15-03-2020 13:39:18 17.4 C 20 %
371 15-03-2020 13:49:17 16.7 C 20 %
372 15-03-2020 13:59:17 16.2 C 20 %
373 15-03-2020 14:09:17 15.5 C 20 %
374 15-03-2020 14:19:17 16.5 C 20 %
375 15-03-2020 14:29:17 16.3 C 20 %
Sensor: Nr:Datum:Temp:Feuchte:
Aussen-T/F 376 15-03-2020 14:39:18 16.6 C 20 %
377 15-03-2020 14:49:17 16.2 C 20 %
378 15-03-2020 14:59:17 16 C 20 %
379 15-03-2020 15:09:17 17.4 C 20 %
380 15-03-2020 15:19:17 20.3 C 20 %
381 15-03-2020 15:29:18 20.4 C 20 %
382 15-03-2020 15:39:18 19.4 C 20 %
383 15-03-2020 15:49:17 20.7 C 20 %
384 15-03-2020 15:59:17 19.9 C 20 %
385 15-03-2020 16:09:17 21.2 C 20 %
386 15-03-2020 16:19:17 20.2 C 20 %
387 15-03-2020 16:29:17 20.5 C 20 %
388 15-03-2020 16:39:17 19.7 C 20 %
389 15-03-2020 16:49:18 18.1 C 20 %
390 15-03-2020 16:59:18 16.9 C 20 %
391 15-03-2020 17:09:18 16 C 20 %
392 15-03-2020 17:19:18 15.5 C 20 %
393 15-03-2020 17:29:18 15.5 C 20 %
394 15-03-2020 17:39:18 14.9 C 20 %
395 15-03-2020 17:49:18 13.8 C 20 %
396 15-03-2020 17:59:18 12.6 C 23 %
397 15-03-2020 18:09:18 12.1 C 25 %
398 15-03-2020 18:19:18 11.7 C 26 %
399 15-03-2020 18:29:18 11.1 C 27 %
400 15-03-2020 18:39:18 10.6 C 28 %
Sensor: Nr:Datum:Temp:Feuchte:
Aussen-T/F 401 15-03-2020 18:49:17 10.4 C 28 %
402 15-03-2020 18:59:17 10 C 28 %
403 15-03-2020 19:09:18 9.6 C 30 %
404 15-03-2020 19:19:18 9.4 C 30 %
405 15-03-2020 19:29:18 9.2 C 31 %
406 15-03-2020 19:39:18 9.1 C 30 %
407 15-03-2020 19:49:17 9 C 31 %
408 15-03-2020 19:59:17 8.9 C 31 %
409 15-03-2020 20:09:18 8.6 C 31 %
410 15-03-2020 20:19:17 8.5 C 32 %
411 15-03-2020 20:29:17 8.2 C 32 %
412 15-03-2020 20:39:18 8.2 C 32 %
413 15-03-2020 20:49:18 8 C 32 %
414 15-03-2020 20:59:18 7.4 C 34 %
415 15-03-2020 21:09:18 7.1 C 35 %
416 15-03-2020 21:19:17 7 C 35 %
417 15-03-2020 21:29:17 7.4 C 35 %
418 15-03-2020 21:39:17 7.5 C 35 %
419 15-03-2020 21:49:17 7.1 C 35 %
420 15-03-2020 21:59:17 6.3 C 36 %
421 15-03-2020 22:09:17 5.8 C 37 %
422 15-03-2020 22:19:17 5.4 C 37 %
423 15-03-2020 22:29:18 5 C 38 %
424 15-03-2020 22:39:17 4.7 C 40 %
425 15-03-2020 22:49:17 4.7 C 40 %
Sensor: Nr:Datum:Temp:Feuchte:
Aussen-T/F 426 15-03-2020 22:59:17 4.7 C 40 %
427 15-03-2020 23:09:17 4.7 C 40 %
428 15-03-2020 23:19:17 4.6 C 40 %
429 15-03-2020 23:29:17 4.5 C 40 %
430 15-03-2020 23:39:17 4.5 C 40 %
431 15-03-2020 23:49:17 4.3 C 40 %
432 15-03-2020 23:59:17 4.1 C 40 %
433 16-03-2020 00:09:17 4 C 40 %
434 16-03-2020 00:19:17 3.8 C 41 %
435 16-03-2020 00:29:17 3.4 C 41 %
436 16-03-2020 00:39:17 3.4 C 42 %
437 16-03-2020 00:49:17 3.3 C 42 %
438 16-03-2020 00:59:17 3.3 C 42 %
439 16-03-2020 01:09:18 2.9 C 43 %
440 16-03-2020 01:19:17 3 C 43 %
441 16-03-2020 01:29:17 3 C 42 %
442 16-03-2020 01:39:17 3.2 C 42 %
443 16-03-2020 01:49:18 2.8 C 43 %
444 16-03-2020 01:59:18 2.6 C 44 %
445 16-03-2020 02:09:17 2.7 C 45 %
446 16-03-2020 02:19:17 2.7 C 44 %
447 16-03-2020 02:29:17 2.4 C 44 %
448 16-03-2020 02:39:17 2.6 C 45 %
449 16-03-2020 02:49:17 2.8 C 45 %
450 16-03-2020 02:59:17 2.8 C 44 %
Sensor: Nr:Datum:Temp:Feuchte:
Aussen-T/F 451 16-03-2020 03:09:18 2.2 C 44 %
452 16-03-2020 03:19:17 2.3 C 44 %
453 16-03-2020 03:29:17 2.2 C 45 %
454 16-03-2020 03:39:17 1.8 C 45 %
455 16-03-2020 03:49:18 2 C 46 %
456 16-03-2020 03:59:18 1.8 C 46 %
457 16-03-2020 04:09:18 1.6 C 46 %
458 16-03-2020 04:19:18 1.7 C 46 %
459 16-03-2020 04:29:18 2 C 46 %
460 16-03-2020 04:39:18 1.5 C 46 %
461 16-03-2020 04:49:17 1.7 C 46 %
462 16-03-2020 04:59:18 1.9 C 46 %
463 16-03-2020 05:09:18 1.7 C 46 %
464 16-03-2020 05:19:18 1.7 C 46 %
465 16-03-2020 05:29:18 1.4 C 46 %
466 16-03-2020 05:39:18 1.3 C 46 %
467 16-03-2020 05:49:17 1.2 C 46 %
468 16-03-2020 05:59:17 1.3 C 47 %
469 16-03-2020 06:09:18 1.1 C 47 %
470 16-03-2020 06:19:17 0.6 C 48 %
471 16-03-2020 06:29:17 0.6 C 48 %
472 16-03-2020 06:39:17 0.6 C 48 %
473 16-03-2020 06:49:17 0.6 C 48 %
474 16-03-2020 06:59:17 0.9 C 49 %
475 16-03-2020 07:09:17 1.2 C 49 %
Sensor: Nr:Datum:Temp:Feuchte:
Aussen-T/F 476 16-03-2020 07:19:17 1.1 C 47 %
477 16-03-2020 07:29:17 1 C 47 %
478 16-03-2020 07:39:17 1.4 C 49 %
479 16-03-2020 07:49:17 1.4 C 48 %
480 16-03-2020 07:59:17 1.7 C 48 %
481 16-03-2020 08:09:18 2 C 47 %
482 16-03-2020 08:19:17 2.3 C 47 %
483 16-03-2020 08:29:18 2.4 C 46 %
484 16-03-2020 08:39:18 2.4 C 46 %
485 16-03-2020 08:49:17 2.6 C 46 %
486 16-03-2020 08:59:17 2.9 C 47 %
487 16-03-2020 09:09:18 3.4 C 46 %
488 16-03-2020 09:19:18 3.7 C 45 %
489 16-03-2020 09:29:18 4 C 45 %
490 16-03-2020 09:39:18 4.6 C 44 %
491 16-03-2020 09:49:18 5 C 43 %
492 16-03-2020 09:59:18 5.6 C 42 %
493 16-03-2020 10:09:18 6.6 C 41 %
494 16-03-2020 10:19:18 7.3 C 40 %
495 16-03-2020 10:29:18 8.3 C 39 %
496 16-03-2020 10:39:17 9.3 C 38 %
497 16-03-2020 10:49:18 10.4 C 37 %
498 16-03-2020 10:59:18 12.4 C 34 %
499 16-03-2020 11:09:17 13.3 C 32 %
500 16-03-2020 11:19:17 14.3 C 30 %
Sensor: Nr:Datum:Temp:Feuchte:
Aussen-T/F 501 16-03-2020 11:29:17 15.4 C 27 %
502 16-03-2020 11:39:18 15.7 C 26 %
503 16-03-2020 11:49:17 15.6 C 25 %
504 16-03-2020 11:59:17 16.1 C 25 %
505 16-03-2020 12:09:17 16.5 C 25 %
506 16-03-2020 12:19:17 16.8 C 25 %
507 16-03-2020 12:29:17 16.4 C 24 %
508 16-03-2020 12:39:17 16.9 C 24 %
509 16-03-2020 12:49:17 18.3 C 21 %
510 16-03-2020 12:59:17 18.7 C 20 %
511 16-03-2020 13:09:17 22.3 C 20 %
512 16-03-2020 13:19:17 21.2 C 20 %
513 16-03-2020 13:29:17 21.1 C 20 %
514 16-03-2020 13:39:17 20.6 C 20 %
515 16-03-2020 13:49:17 21.1 C 20 %
516 16-03-2020 13:59:17 19.7 C 20 %
517 16-03-2020 14:09:17 18.7 C 20 %
518 16-03-2020 14:19:17 19.7 C 20 %
519 16-03-2020 14:29:17 19.7 C 20 %
520 16-03-2020 14:39:17 20 C 20 %
521 16-03-2020 14:49:17 19.2 C 20 %
522 16-03-2020 14:59:17 20.8 C 20 %
523 16-03-2020 15:09:17 20 C 20 %
524 16-03-2020 15:19:17 19.1 C 20 %
525 16-03-2020 15:29:17 18.8 C 20 %
Sensor: Nr:Datum:Temp:Feuchte:
Aussen-T/F 526 16-03-2020 15:39:18 18.8 C 20 %
527 16-03-2020 15:49:17 19 C 20 %
528 16-03-2020 15:59:17 19 C 20 %
529 16-03-2020 16:09:18 18.7 C 20 %
530 16-03-2020 16:19:18 19 C 20 %
531 16-03-2020 16:29:18 21.4 C 20 %
532 16-03-2020 16:39:17 20.8 C 20 %
533 16-03-2020 16:49:17 20.2 C 20 %
534 16-03-2020 16:59:17 19.4 C 20 %
535 16-03-2020 17:09:17 18.4 C 20 %
536 16-03-2020 17:19:17 17.9 C 20 %
537 16-03-2020 17:29:18 17.7 C 20 %
538 16-03-2020 17:39:18 17.5 C 20 %
539 16-03-2020 17:49:17 16.8 C 21 %
540 16-03-2020 17:59:18 16 C 23 %
541 16-03-2020 18:09:18 15 C 26 %
542 16-03-2020 18:19:18 14.3 C 27 %
543 16-03-2020 18:29:18 13.7 C 29 %
544 16-03-2020 18:39:18 13.1 C 30 %
545 16-03-2020 18:49:18 12.7 C 31 %
546 16-03-2020 18:59:18 12.4 C 32 %
547 16-03-2020 19:09:18 12.1 C 32 %
548 16-03-2020 19:19:18 12.2 C 32 %
549 16-03-2020 19:29:18 12.2 C 32 %
550 16-03-2020 19:39:18 11.9 C 34 %
Sensor: Nr:Datum:Temp:Feuchte:
Aussen-T/F 551 16-03-2020 19:49:17 11.5 C 34 %
552 16-03-2020 19:59:18 11 C 35 %
553 16-03-2020 20:09:18 10.7 C 36 %
554 16-03-2020 20:19:18 11.4 C 35 %
555 16-03-2020 20:29:18 10.8 C 36 %
556 16-03-2020 20:39:18 10.3 C 36 %
557 16-03-2020 20:49:18 9.5 C 38 %
558 16-03-2020 20:59:18 10.8 C 37 %
559 16-03-2020 21:09:18 10.1 C 37 %
560 16-03-2020 21:19:17 10.3 C 38 %
561 16-03-2020 21:29:17 9.9 C 38 %
562 16-03-2020 21:39:17 9.7 C 38 %
563 16-03-2020 21:49:18 10.2 C 37 %
564 16-03-2020 21:59:18 9.9 C 38 %
565 16-03-2020 22:09:18 9.7 C 38 %
566 16-03-2020 22:19:18 9.5 C 38 %
567 16-03-2020 22:29:18 9.5 C 39 %
568 16-03-2020 22:39:18 9.2 C 38 %
569 16-03-2020 22:49:18 8.9 C 39 %
570 16-03-2020 22:59:18 9.1 C 39 %
571 16-03-2020 23:09:18 9.4 C 39 %
572 16-03-2020 23:19:17 9.4 C 39 %
573 16-03-2020 23:29:17 9.4 C 39 %
574 16-03-2020 23:39:17 9.5 C 39 %
575 16-03-2020 23:49:17 9.5 C 40 %
Sensor: Nr:Datum:Temp:Feuchte:
Aussen-T/F 576 16-03-2020 23:59:17 9.5 C 39 %
577 17-03-2020 00:09:17 9.3 C 39 %
578 17-03-2020 00:19:17 9.7 C 40 %
579 17-03-2020 00:29:17 9.5 C 39 %
580 17-03-2020 00:39:18 9.3 C 39 %
581 17-03-2020 00:49:18 9.1 C 40 %
582 17-03-2020 00:59:18 9 C 40 %
583 17-03-2020 01:09:18 9.3 C 40 %
584 17-03-2020 01:19:17 9.2 C 40 %
585 17-03-2020 01:29:17 8.9 C 40 %
586 17-03-2020 01:39:17 8.7 C 41 %
587 17-03-2020 01:49:18 8.8 C 41 %
588 17-03-2020 01:59:18 8.8 C 41 %
589 17-03-2020 02:09:18 8.7 C 41 %
590 17-03-2020 02:19:17 8.7 C 41 %
591 17-03-2020 02:29:17 8.7 C 41 %
592 17-03-2020 02:39:17 8.9 C 41 %
593 17-03-2020 02:49:17 8.9 C 41 %
594 17-03-2020 02:59:17 8.8 C 41 %
595 17-03-2020 03:09:18 8.6 C 41 %
596 17-03-2020 03:19:18 8.6 C 41 %
597 17-03-2020 03:29:18 8.4 C 41 %
598 17-03-2020 03:39:17 8.3 C 41 %
599 17-03-2020 03:49:18 8.1 C 42 %
600 17-03-2020 03:59:18 8 C 41 %
Sensor: Nr:Datum:Temp:Feuchte:
Aussen-T/F 601 17-03-2020 04:09:18 8.9 C 42 %
602 17-03-2020 04:19:18 9.2 C 40 %
603 17-03-2020 04:29:18 9.3 C 40 %
604 17-03-2020 04:39:17 9 C 40 %
605 17-03-2020 04:49:18 9 C 40 %
606 17-03-2020 04:59:18 8.6 C 41 %
607 17-03-2020 05:09:17 8.9 C 41 %
608 17-03-2020 05:19:17 9 C 40 %
609 17-03-2020 05:29:17 8.6 C 41 %
610 17-03-2020 05:39:17 8.3 C 41 %
611 17-03-2020 05:49:17 8.2 C 41 %
612 17-03-2020 05:59:18 8.2 C 41 %
613 17-03-2020 06:09:18 8.1 C 41 %
614 17-03-2020 06:19:18 8.1 C 41 %
615 17-03-2020 06:29:18 8 C 41 %
616 17-03-2020 06:39:18 8.2 C 41 %
617 17-03-2020 06:49:18 8.1 C 41 %
618 17-03-2020 06:59:18 8.2 C 41 %
619 17-03-2020 07:09:17 8.8 C 40 %
620 17-03-2020 07:19:17 9 C 40 %
621 17-03-2020 07:29:17 9.5 C 39 %
622 17-03-2020 07:39:17 9.6 C 39 %
623 17-03-2020 07:49:18 9.6 C 39 %
624 17-03-2020 07:59:18 9.8 C 38 %
625 17-03-2020 08:09:18 10.1 C 37 %
Sensor: Nr:Datum:Temp:Feuchte:
Aussen-T/F 626 17-03-2020 08:19:17 10 C 37 %
627 17-03-2020 08:29:17 9.8 C 38 %
628 17-03-2020 08:39:17 9.9 C 38 %
629 17-03-2020 08:49:17 9.9 C 38 %
630 17-03-2020 08:59:17 10 C 37 %
631 17-03-2020 09:09:17 10.2 C 37 %
632 17-03-2020 09:19:18 10.4 C 37 %
633 17-03-2020 09:29:18 10.4 C 37 %
634 17-03-2020 09:39:18 10.6 C 37 %
635 17-03-2020 09:49:17 10.6 C 37 %
636 17-03-2020 09:59:17 10.7 C 37 %
637 17-03-2020 10:09:17 10.7 C 37 %
638 17-03-2020 10:19:17 10.9 C 36 %
639 17-03-2020 10:29:17 11 C 35 %
640 17-03-2020 10:39:17 11.7 C 35 %
641 17-03-2020 10:49:17 12.4 C 33 %
642 17-03-2020 10:59:17 12.9 C 33 %
643 17-03-2020 11:09:17 13.1 C 32 %
644 17-03-2020 11:19:17 13.3 C 31 %
645 17-03-2020 11:29:17 13.3 C 31 %
646 17-03-2020 11:39:17 14.7 C 30 %
647 17-03-2020 11:49:17 14.1 C 29 %
648 17-03-2020 11:59:17 15.4 C 28 %
649 17-03-2020 12:09:17 14.5 C 29 %
650 17-03-2020 12:19:18 14.6 C 27 %
Sensor: Nr:Datum:Temp:Feuchte:
Aussen-T/F 651 17-03-2020 12:29:18 15.2 C 26 %
652 17-03-2020 12:39:18 16.5 C 26 %
653 17-03-2020 12:49:18 16.6 C 24 %
654 17-03-2020 12:59:18 19.3 C 20 %
655 17-03-2020 13:09:17 18.8 C 20 %
656 17-03-2020 13:19:17 20.4 C 20 %
657 17-03-2020 13:29:17 19.5 C 20 %
658 17-03-2020 13:39:17 18.5 C 20 %
659 17-03-2020 13:49:18 18.8 C 20 %
660 17-03-2020 13:59:18 19.3 C 20 %
661 17-03-2020 14:09:17 18.3 C 20 %
662 17-03-2020 14:19:17 18.5 C 20 %
663 17-03-2020 14:29:17 17.9 C 20 %
664 17-03-2020 14:39:18 17.1 C 20 %
665 17-03-2020 14:49:18 20.5 C 20 %
666 17-03-2020 14:59:18 22.2 C 20 %
667 17-03-2020 15:09:17 22.5 C 20 %
668 17-03-2020 15:19:17 22.1 C 20 %
669 17-03-2020 15:29:17 23.8 C 20 %
670 17-03-2020 15:39:18 23.6 C 20 %
671 17-03-2020 15:49:17 23.8 C 20 %
672 17-03-2020 15:59:17 23.9 C 20 %
673 17-03-2020 16:09:18 23.3 C 20 %
674 17-03-2020 16:19:18 21.8 C 20 %
675 17-03-2020 16:29:18 23.2 C 20 %
Sensor: Nr:Datum:Temp:Feuchte:
Aussen-T/F 676 17-03-2020 16:39:17 21.4 C 20 %
677 17-03-2020 16:49:17 22.3 C 20 %
678 17-03-2020 16:59:17 20.1 C 20 %
679 17-03-2020 17:09:17 18.7 C 20 %
680 17-03-2020 17:19:18 17.7 C 20 %
681 17-03-2020 17:29:18 17.3 C 20 %
682 17-03-2020 17:39:18 16.8 C 20 %
683 17-03-2020 17:49:17 16.1 C 22 %
684 17-03-2020 17:59:18 15.3 C 24 %
685 17-03-2020 18:09:18 14.1 C 27 %
686 17-03-2020 18:19:17 13.5 C 28 %
687 17-03-2020 18:29:17 13.2 C 29 %
688 17-03-2020 18:39:18 12.8 C 30 %
689 17-03-2020 18:49:18 12.4 C 31 %
690 17-03-2020 18:59:18 12 C 31 %
691 17-03-2020 19:09:18 11.9 C 32 %
692 17-03-2020 19:19:17 11.8 C 32 %
693 17-03-2020 19:29:17 11.1 C 33 %
694 17-03-2020 19:39:17 11 C 34 %
695 17-03-2020 19:49:17 10.4 C 35 %
696 17-03-2020 19:59:17 10.2 C 35 %
697 17-03-2020 20:09:17 9.9 C 36 %
698 17-03-2020 20:19:17 10.1 C 36 %
699 17-03-2020 20:29:17 10.7 C 35 %
700 17-03-2020 20:39:18 10.4 C 35 %
Sensor: Nr:Datum:Temp:Feuchte:
Aussen-T/F 701 17-03-2020 20:49:18 9.6 C 37 %
702 17-03-2020 20:59:18 9.5 C 37 %
703 17-03-2020 21:09:18 9 C 37 %
704 17-03-2020 21:19:17 8.4 C 39 %
705 17-03-2020 21:29:17 8.4 C 39 %
706 17-03-2020 21:39:17 8.1 C 39 %
707 17-03-2020 21:49:18 8 C 40 %
708 17-03-2020 21:59:18 7.6 C 40 %
709 17-03-2020 22:09:18 7.3 C 40 %
710 17-03-2020 22:19:18 7.2 C 41 %
711 17-03-2020 22:29:18 7 C 41 %
712 17-03-2020 22:39:17 6.9 C 41 %
713 17-03-2020 22:49:17 6.7 C 42 %
714 17-03-2020 22:59:17 6.5 C 42 %
715 17-03-2020 23:09:17 6.4 C 42 %
716 17-03-2020 23:19:17 6.3 C 42 %
717 17-03-2020 23:29:17 6.1 C 42 %
718 17-03-2020 23:39:18 6.1 C 42 %
719 17-03-2020 23:49:18 6.2 C 43 %
720 17-03-2020 23:59:18 6.3 C 43 %
721 18-03-2020 00:09:17 5.9 C 43 %
722 18-03-2020 00:19:17 5.8 C 44 %
723 18-03-2020 00:29:17 5.9 C 44 %
724 18-03-2020 00:39:17 5.8 C 44 %
725 18-03-2020 00:49:17 6 C 44 %
Sensor: Nr:Datum:Temp:Feuchte:
Aussen-T/F 726 18-03-2020 00:59:17 6 C 43 %
727 18-03-2020 01:09:17 5.7 C 44 %
728 18-03-2020 01:19:17 5.6 C 44 %
729 18-03-2020 01:29:17 5.3 C 44 %
730 18-03-2020 01:39:17 5.6 C 45 %
731 18-03-2020 01:49:17 5.3 C 45 %
732 18-03-2020 01:59:17 5.6 C 46 %
733 18-03-2020 02:09:17 5.1 C 44 %
734 18-03-2020 02:19:17 4.8 C 45 %
735 18-03-2020 02:29:17 4.8 C 45 %
736 18-03-2020 02:39:17 4.6 C 46 %
737 18-03-2020 02:49:18 4.3 C 46 %
738 18-03-2020 02:59:18 4.3 C 46 %
739 18-03-2020 03:09:18 4.2 C 46 %
740 18-03-2020 03:19:17 4.2 C 46 %
741 18-03-2020 03:29:17 4.1 C 46 %
742 18-03-2020 03:39:17 4 C 46 %
743 18-03-2020 03:49:17 3.8 C 47 %
744 18-03-2020 03:59:17 3.8 C 47 %
745 18-03-2020 04:09:17 3.8 C 47 %
746 18-03-2020 04:19:18 3.8 C 47 %
747 18-03-2020 04:29:18 3.7 C 47 %
748 18-03-2020 04:39:18 3.7 C 47 %
749 18-03-2020 04:49:18 3.6 C 47 %
750 18-03-2020 04:59:18 3.6 C 47 %
Sensor: Nr:Datum:Temp:Feuchte:
Aussen-T/F 751 18-03-2020 05:09:18 3.7 C 48 %
752 18-03-2020 05:19:18 3.8 C 48 %
753 18-03-2020 05:29:18 3.3 C 47 %
754 18-03-2020 05:39:18 3.2 C 47 %
755 18-03-2020 05:49:18 3.3 C 47 %
756 18-03-2020 05:59:18 3.1 C 47 %
757 18-03-2020 06:09:18 2.9 C 48 %
758 18-03-2020 06:19:17 3.3 C 47 %
759 18-03-2020 06:29:18 3.1 C 47 %
760 18-03-2020 06:39:18 3.1 C 47 %
761 18-03-2020 06:49:17 3.1 C 47 %
762 18-03-2020 06:59:18 3.6 C 47 %
763 18-03-2020 07:09:18 3.5 C 47 %
764 18-03-2020 07:19:17 3.4 C 47 %
765 18-03-2020 07:29:17 3.7 C 47 %
766 18-03-2020 07:39:17 3.9 C 47 %
767 18-03-2020 07:49:18 4 C 46 %
768 18-03-2020 07:59:18 4.9 C 46 %
769 18-03-2020 08:09:18 4.6 C 46 %
770 18-03-2020 08:19:18 4.5 C 46 %
771 18-03-2020 08:29:18 4.7 C 46 %
772 18-03-2020 08:39:17 5 C 45 %
773 18-03-2020 08:49:18 5.3 C 46 %
774 18-03-2020 08:59:18 5.6 C 46 %
775 18-03-2020 09:09:17 6.7 C 45 %
Sensor: Nr:Datum:Temp:Feuchte:
Aussen-T/F 776 18-03-2020 09:19:17 7.1 C 45 %
777 18-03-2020 09:29:17 8.5 C 45 %
778 18-03-2020 09:39:17 9.7 C 41 %
779 18-03-2020 09:49:18 10.5 C 40 %
780 18-03-2020 09:59:18 11 C 38 %
781 18-03-2020 10:09:18 11.1 C 38 %
782 18-03-2020 10:19:18 11.6 C 38 %
783 18-03-2020 10:29:18 11.6 C 37 %
784 18-03-2020 10:39:18 11.7 C 38 %
785 18-03-2020 10:49:18 12 C 36 %
786 18-03-2020 10:59:18 12.2 C 35 %
787 18-03-2020 11:09:18 12.7 C 35 %
788 18-03-2020 11:19:18 12.8 C 34 %
789 18-03-2020 11:29:18 13.3 C 34 %
790 18-03-2020 11:39:18 13.9 C 33 %
791 18-03-2020 11:49:17 14.7 C 32 %
792 18-03-2020 11:59:17 15.3 C 30 %
793 18-03-2020 12:09:18 15.8 C 30 %
794 18-03-2020 12:19:17 16.6 C 29 %
795 18-03-2020 12:29:18 17 C 27 %
796 18-03-2020 12:39:18 17.8 C 26 %
797 18-03-2020 12:49:17 19.1 C 25 %
798 18-03-2020 12:59:17 19.8 C 20 %
799 18-03-2020 13:09:17 21 C 20 %
800 18-03-2020 13:19:17 21.2 C 20 %
Sensor: Nr:Datum:Temp:Feuchte:
Aussen-T/F 801 18-03-2020 13:29:17 19.5 C 20 %
802 18-03-2020 13:39:18 17.7 C 20 %
803 18-03-2020 13:49:17 16.6 C 22 %
804 18-03-2020 13:59:17 16 C 22 %
805 18-03-2020 14:09:17 17.6 C 21 %
806 18-03-2020 14:19:17 16.7 C 20 %
807 18-03-2020 14:29:17 17.9 C 20 %
808 18-03-2020 14:39:18 18.5 C 20 %
809 18-03-2020 14:49:17 17.4 C 20 %
810 18-03-2020 14:59:17 17.4 C 20 %
811 18-03-2020 15:09:17 20.6 C 20 %
812 18-03-2020 15:19:18 17.9 C 20 %
813 18-03-2020 15:29:18 18.2 C 20 %
814 18-03-2020 15:39:18 17.7 C 20 %
815 18-03-2020 15:49:17 16.9 C 20 %
816 18-03-2020 15:59:17 16.7 C 21 %
817 18-03-2020 16:09:17 16.4 C 21 %
818 18-03-2020 16:19:17 16.4 C 22 %
819 18-03-2020 16:29:17 16.4 C 20 %
820 18-03-2020 16:39:17 16.5 C 20 %
821 18-03-2020 16:49:18 16.2 C 21 %
822 18-03-2020 16:59:18 16.1 C 21 %
823 18-03-2020 17:09:17 16 C 21 %
824 18-03-2020 17:19:17 16 C 21 %
825 18-03-2020 17:29:17 15.7 C 22 %
Sensor: Nr:Datum:Temp:Feuchte:
Aussen-T/F 826 18-03-2020 17:39:18 16 C 20 %
827 18-03-2020 17:49:17 16.3 C 20 %
828 18-03-2020 17:59:17 15.8 C 22 %
829 18-03-2020 18:09:17 15.4 C 22 %
830 18-03-2020 18:19:17 14.7 C 26 %
831 18-03-2020 18:29:17 13.7 C 26 %
832 18-03-2020 18:39:17 13.3 C 28 %
833 18-03-2020 18:49:17 12.7 C 30 %
834 18-03-2020 18:59:17 12 C 31 %
835 18-03-2020 19:09:17 11.7 C 32 %
836 18-03-2020 19:19:18 11.5 C 32 %
837 18-03-2020 19:29:18 10.5 C 34 %
838 18-03-2020 19:39:18 10.9 C 34 %
839 18-03-2020 19:49:18 11.1 C 34 %
840 18-03-2020 19:59:18 10.9 C 35 %
841 18-03-2020 20:09:18 10.6 C 35 %
842 18-03-2020 20:19:17 10.4 C 35 %
843 18-03-2020 20:29:17 10.4 C 35 %
844 18-03-2020 20:39:18 10 C 36 %
845 18-03-2020 20:49:17 9.7 C 37 %
846 18-03-2020 20:59:17 9.7 C 37 %
847 18-03-2020 21:09:18 9.7 C 37 %
848 18-03-2020 21:19:17 9.6 C 37 %
849 18-03-2020 21:29:17 9.4 C 37 %
850 18-03-2020 21:39:17 9 C 37 %
Sensor: Nr:Datum:Temp:Feuchte:
Aussen-T/F 851 18-03-2020 21:49:17 8.7 C 38 %
852 18-03-2020 21:59:17 8.4 C 39 %
853 18-03-2020 22:09:17 8.2 C 39 %
854 18-03-2020 22:19:17 8.1 C 40 %
855 18-03-2020 22:29:17 8 C 40 %
856 18-03-2020 22:39:17 8 C 40 %
857 18-03-2020 22:49:17 8.1 C 40 %
858 18-03-2020 22:59:17 8.2 C 40 %
859 18-03-2020 23:09:18 8.3 C 40 %
860 18-03-2020 23:19:17 8.1 C 40 %
861 18-03-2020 23:29:17 8 C 40 %
862 18-03-2020 23:39:18 8 C 40 %
863 18-03-2020 23:49:18 8.4 C 40 %
864 18-03-2020 23:59:18 8.9 C 40 %
865 19-03-2020 00:09:17 8.9 C 39 %
866 19-03-2020 00:19:18 8.9 C 38 %
867 19-03-2020 00:29:18 9 C 38 %
868 19-03-2020 00:39:18 9 C 38 %
869 19-03-2020 00:49:17 9.1 C 38 %
870 19-03-2020 00:59:17 9.1 C 38 %
871 19-03-2020 01:09:18 9 C 38 %
872 19-03-2020 01:19:17 9.1 C 38 %
873 19-03-2020 01:29:17 9 C 38 %
874 19-03-2020 01:39:17 9 C 38 %
875 19-03-2020 01:49:17 8.9 C 38 %
Sensor: Nr:Datum:Temp:Feuchte:
Aussen-T/F 876 19-03-2020 01:59:17 8.8 C 39 %
877 19-03-2020 02:09:18 8.7 C 39 %
878 19-03-2020 02:19:17 8.7 C 39 %
879 19-03-2020 02:29:17 8.6 C 39 %
880 19-03-2020 02:39:17 8.5 C 39 %
881 19-03-2020 02:49:18 8.5 C 39 %
882 19-03-2020 02:59:18 8.5 C 39 %
883 19-03-2020 03:09:18 8.5 C 39 %
884 19-03-2020 03:19:18 8.6 C 39 %
885 19-03-2020 03:29:18 8.5 C 39 %
886 19-03-2020 03:39:17 8.5 C 39 %
887 19-03-2020 03:49:18 8.4 C 39 %
888 19-03-2020 03:59:18 8.4 C 40 %
889 19-03-2020 04:09:18 8.4 C 40 %
890 19-03-2020 04:19:17 8.5 C 40 %
891 19-03-2020 04:29:17 8.5 C 39 %
892 19-03-2020 04:39:17 8.5 C 39 %
893 19-03-2020 04:49:18 8.5 C 39 %
894 19-03-2020 04:59:18 8.5 C 39 %
895 19-03-2020 05:09:18 8.6 C 39 %
896 19-03-2020 05:19:18 8.9 C 38 %
897 19-03-2020 05:29:18 8.7 C 39 %
898 19-03-2020 05:39:18 8.6 C 39 %
899 19-03-2020 05:49:17 8.5 C 39 %
900 19-03-2020 05:59:18 8.4 C 39 %
Sensor: Nr:Datum:Temp:Feuchte:
Aussen-T/F 901 19-03-2020 06:09:18 8.4 C 39 %
902 19-03-2020 06:19:17 8.3 C 40 %
903 19-03-2020 06:29:17 8.2 C 39 %
904 19-03-2020 06:39:17 8.1 C 40 %
905 19-03-2020 06:49:17 8.1 C 40 %
906 19-03-2020 06:59:17 8.2 C 40 %
907 19-03-2020 07:09:17 8.2 C 40 %
908 19-03-2020 07:19:17 8.5 C 40 %
909 19-03-2020 07:29:17 8.7 C 39 %
910 19-03-2020 07:39:18 8.9 C 39 %
911 19-03-2020 07:49:18 9.1 C 38 %
912 19-03-2020 07:59:18 9.4 C 38 %
913 19-03-2020 08:09:18 9.7 C 38 %
914 19-03-2020 08:19:17 9.9 C 37 %
915 19-03-2020 08:29:17 9.9 C 37 %
916 19-03-2020 08:39:17 10.5 C 36 %
917 19-03-2020 08:49:18 10.4 C 36 %
918 19-03-2020 08:59:18 10.2 C 36 %
919 19-03-2020 09:09:17 11.2 C 35 %
920 19-03-2020 09:19:17 11.7 C 35 %
921 19-03-2020 09:29:17 11.5 C 35 %
922 19-03-2020 09:39:18 11.8 C 35 %
923 19-03-2020 09:49:17 11.6 C 35 %
924 19-03-2020 09:59:17 12.4 C 33 %
925 19-03-2020 10:09:18 12.3 C 32 %
Sensor: Nr:Datum:Temp:Feuchte:
Aussen-T/F 926 19-03-2020 10:19:18 13.1 C 31 %
927 19-03-2020 10:29:18 13.5 C 30 %
928 19-03-2020 10:39:17 13.9 C 31 %
929 19-03-2020 10:49:17 14.2 C 30 %
930 19-03-2020 10:59:17 15.4 C 29 %
931 19-03-2020 11:09:17 15.5 C 29 %
932 19-03-2020 11:19:17 16.4 C 26 %
933 19-03-2020 11:29:17 17.7 C 26 %
934 19-03-2020 11:39:17 18.5 C 24 %
935 19-03-2020 11:49:17 15.8 C 26 %
936 19-03-2020 11:59:17 15 C 28 %
937 19-03-2020 12:09:17 15.2 C 28 %
938 19-03-2020 12:19:17 15.5 C 28 %
939 19-03-2020 12:29:17 16.8 C 26 %
940 19-03-2020 12:39:18 18.1 C 22 %
941 19-03-2020 12:49:17 18.6 C 20 %
942 19-03-2020 12:59:17 17.9 C 20 %
943 19-03-2020 13:09:18 20.4 C 20 %
944 19-03-2020 13:19:18 25.8 C 20 %
945 19-03-2020 13:29:18 25.6 C 20 %
946 19-03-2020 13:39:18 19.7 C 20 %
947 19-03-2020 13:49:17 18.8 C 20 %
948 19-03-2020 13:59:17 18.2 C 20 %
949 19-03-2020 14:09:17 18.7 C 20 %
950 19-03-2020 14:19:17 18.9 C 20 %
Sensor: Nr:Datum:Temp:Feuchte:
Aussen-T/F 951 19-03-2020 14:29:17 18.8 C 20 %
952 19-03-2020 14:39:17 18.9 C 20 %
953 19-03-2020 14:49:17 19.3 C 20 %
954 19-03-2020 14:59:17 19.1 C 20 %
955 19-03-2020 15:09:18 18.5 C 20 %
956 19-03-2020 15:19:18 19.1 C 20 %
957 19-03-2020 15:29:18 19.3 C 20 %
958 19-03-2020 15:39:18 19.8 C 20 %
959 19-03-2020 15:49:17 21.8 C 20 %
960 19-03-2020 15:59:18 19.5 C 20 %
961 19-03-2020 16:09:18 19.1 C 20 %
962 19-03-2020 16:20:17 19.1 C 20 %
963 19-03-2020 16:29:17 19.1 C 20 %
964 19-03-2020 16:39:17 19.1 C 20 %
965 19-03-2020 16:49:17 19.1 C 20 %
966 19-03-2020 16:59:17 18.4 C 20 %
967 19-03-2020 17:09:18 17.6 C 20 %
968 19-03-2020 17:19:18 17.3 C 20 %
969 19-03-2020 17:29:18 17 C 20 %
970 19-03-2020 17:39:18 16.8 C 20 %
971 19-03-2020 17:49:18 16.9 C 20 %
972 19-03-2020 17:59:18 16.7 C 20 %
973 19-03-2020 18:09:18 16.3 C 20 %
974 19-03-2020 18:20:17 15.7 C 23 %
975 19-03-2020 18:30:17 13.9 C 29 %
Sensor: Nr:Datum:Temp:Feuchte:
Aussen-T/F 976 19-03-2020 18:40:17 13.5 C 30 %
977 19-03-2020 18:50:17 12.8 C 31 %
978 19-03-2020 18:59:18 12.7 C 31 %
979 19-03-2020 19:09:18 12.3 C 31 %
980 19-03-2020 19:20:17 12.2 C 31 %
981 19-03-2020 19:30:17 11.9 C 32 %
982 19-03-2020 19:40:17 11.7 C 32 %
983 19-03-2020 19:50:17 11.7 C 33 %
984 19-03-2020 19:59:17 11.7 C 33 %
985 19-03-2020 20:09:17 11.7 C 33 %
986 19-03-2020 20:29:17 11.5 C 34 %
987 19-03-2020 20:29:17 11.6 C 34 %
988 19-03-2020 20:39:17 12 C 33 %
989 19-03-2020 20:49:17 11.8 C 34 %
990 19-03-2020 20:59:17 11.5 C 35 %
991 19-03-2020 21:09:18 12 C 33 %
992 19-03-2020 21:20:17 11.4 C 35 %
993 19-03-2020 21:30:17 11.3 C 35 %
994 19-03-2020 21:40:17 10.3 C 36 %
995 19-03-2020 21:50:17 10.7 C 36 %
996 19-03-2020 21:59:18 10.6 C 36 %
997 19-03-2020 22:09:18 10.1 C 37 %
998 19-03-2020 22:19:18 9.7 C 38 %
999 19-03-2020 22:29:18 9.8 C 38 %
1000 19-03-2020 22:39:18 9.5 C 39 %
Sensor: Nr:Datum:Temp:Feuchte:
Aussen-T/F 1001 19-03-2020 22:49:18 9.4 C 39 %
1002 19-03-2020 22:59:18 9.5 C 38 %
1003 19-03-2020 23:09:18 9.5 C 38 %
1004 19-03-2020 23:20:17 9.4 C 39 %
1005 19-03-2020 23:30:17 9.2 C 39 %
1006 19-03-2020 23:40:17 9.6 C 38 %
1007 19-03-2020 23:50:17 9.1 C 39 %
1008 19-03-2020 23:59:18 8.7 C 40 %
1009 20-03-2020 00:09:18 8.6 C 40 %
1010 20-03-2020 00:19:18 9.3 C 39 %
1011 20-03-2020 00:29:18 9.1 C 39 %
1012 20-03-2020 00:39:18 9 C 39 %
1013 20-03-2020 00:59:17 8.8 C 40 %
1014 20-03-2020 01:00:18 8.8 C 40 %
1015 20-03-2020 01:10:18 8.7 C 40 %
1016 20-03-2020 01:20:17 8.7 C 40 %
1017 20-03-2020 01:30:18 8.6 C 40 %
1018 20-03-2020 01:40:18 8.4 C 40 %
1019 20-03-2020 01:50:17 8.5 C 40 %
1020 20-03-2020 02:00:18 8.3 C 40 %
1021 20-03-2020 02:10:18 7.9 C 40 %
1022 20-03-2020 02:20:17 7.6 C 41 %
1023 20-03-2020 02:30:17 7.4 C 41 %
1024 20-03-2020 02:40:17 7.4 C 41 %
1025 20-03-2020 02:50:17 7.1 C 41 %
Sensor: Nr:Datum:Temp:Feuchte:
Aussen-T/F 1026 20-03-2020 03:00:17 7.1 C 42 %
1027 20-03-2020 03:10:17 7.1 C 42 %
1028 20-03-2020 03:20:17 7.1 C 42 %
1029 20-03-2020 03:30:18 7.2 C 42 %
1030 20-03-2020 03:40:18 7.3 C 42 %
1031 20-03-2020 03:50:17 7.5 C 42 %
1032 20-03-2020 04:00:18 7.5 C 42 %
1033 20-03-2020 04:10:18 7.7 C 42 %
1034 20-03-2020 04:20:18 7.6 C 41 %
1035 20-03-2020 04:30:18 7.4 C 42 %
1036 20-03-2020 04:40:18 7.2 C 42 %
1037 20-03-2020 04:50:17 7 C 42 %
1038 20-03-2020 05:00:18 6.9 C 43 %
1039 20-03-2020 05:10:18 6.8 C 43 %
1040 20-03-2020 05:20:17 6.5 C 43 %
1041 20-03-2020 05:30:17 6.2 C 43 %
1042 20-03-2020 05:40:17 5.9 C 44 %
1043 20-03-2020 05:50:17 5.6 C 44 %
1044 20-03-2020 06:00:17 5.4 C 45 %
1045 20-03-2020 06:10:17 5.2 C 45 %
1046 20-03-2020 06:20:17 5 C 45 %
1047 20-03-2020 06:30:17 5.1 C 46 %
1048 20-03-2020 06:40:17 5 C 46 %
1049 20-03-2020 06:50:17 5 C 46 %
1050 20-03-2020 07:00:17 5.1 C 46 %
Sensor: Nr:Datum:Temp:Feuchte:
Aussen-T/F 1051 20-03-2020 07:10:17 5.3 C 46 %
1052 20-03-2020 07:20:17 5.5 C 46 %
1053 20-03-2020 07:30:17 5.6 C 46 %
1054 20-03-2020 07:40:17 5.7 C 46 %
1055 20-03-2020 07:50:18 5.8 C 46 %
1056 20-03-2020 08:00:17 6.3 C 46 %
1057 20-03-2020 08:10:17 6.9 C 45 %
1058 20-03-2020 08:20:17 7.2 C 43 %
1059 20-03-2020 08:30:17 7.1 C 43 %
1060 20-03-2020 08:40:17 7.1 C 43 %
1061 20-03-2020 08:50:17 7.3 C 43 %
1062 20-03-2020 09:00:17 8 C 43 %
1063 20-03-2020 09:10:17 8.2 C 42 %
1064 20-03-2020 09:20:17 9.6 C 42 %
1065 20-03-2020 09:30:17 10 C 40 %
1066 20-03-2020 09:40:17 10.2 C 40 %
1067 20-03-2020 09:50:17 10.5 C 39 %
1068 20-03-2020 10:00:18 10.8 C 39 %
1069 20-03-2020 10:10:18 11.2 C 38 %
1070 20-03-2020 10:20:18 11.1 C 37 %
1071 20-03-2020 10:30:18 11 C 37 %
1072 20-03-2020 10:40:18 11.5 C 37 %
1073 20-03-2020 10:50:18 12.6 C 36 %
1074 20-03-2020 11:00:17 13.1 C 35 %
1075 20-03-2020 11:10:18 13.1 C 35 %
Sensor: Nr:Datum:Temp:Feuchte:
Aussen-T/F 1076 20-03-2020 11:20:18 14.2 C 33 %
1077 20-03-2020 11:30:18 14.5 C 32 %
1078 20-03-2020 11:40:18 15.3 C 31 %
1079 20-03-2020 11:50:18 14.6 C 32 %
1080 20-03-2020 12:00:17 15.6 C 31 %
1081 20-03-2020 12:10:17 15.4 C 30 %
1082 20-03-2020 12:20:17 15.6 C 30 %
1083 20-03-2020 12:30:18 14.4 C 31 %
1084 20-03-2020 12:40:18 14.9 C 31 %
1085 20-03-2020 12:50:18 14.9 C 31 %
1086 20-03-2020 13:00:18 14.9 C 31 %
1087 20-03-2020 13:10:18 14.9 C 31 %
1088 20-03-2020 13:20:18 14.9 C 31 %
1089 20-03-2020 13:30:18 14.9 C 31 %
1090 20-03-2020 13:40:18 14.9 C 31 %
1091 20-03-2020 13:50:17 16.4 C 26 %
1092 20-03-2020 14:00:17 16.2 C 27 %
1093 20-03-2020 14:10:17 16.6 C 26 %
1094 20-03-2020 14:20:17 16.2 C 27 %
1095 20-03-2020 14:30:18 17.4 C 26 %
1096 20-03-2020 14:40:18 17.3 C 26 %
1097 20-03-2020 14:50:18 17.9 C 25 %
1098 20-03-2020 15:00:17 17.9 C 25 %
1099 20-03-2020 15:10:17 18.1 C 25 %
1100 20-03-2020 15:20:17 17 C 25 %
Sensor: Nr:Datum:Temp:Feuchte:
Aussen-T/F 1101 20-03-2020 15:30:18 17.9 C 25 %
1102 20-03-2020 15:40:18 18.5 C 25 %
1103 20-03-2020 15:50:18 17 C 25 %
1104 20-03-2020 16:00:17 16.2 C 26 %
1105 20-03-2020 16:10:17 16.1 C 26 %
1106 20-03-2020 16:20:17 15.5 C 26 %
1107 20-03-2020 16:30:18 15.8 C 26 %
1108 20-03-2020 16:40:18 15.3 C 26 %
1109 20-03-2020 16:50:18 17 C 25 %
1110 20-03-2020 17:00:18 16.1 C 26 %
1111 20-03-2020 17:10:18 15.2 C 27 %
1112 20-03-2020 17:20:18 14.3 C 28 %
1113 20-03-2020 17:30:18 13.9 C 30 %
1114 20-03-2020 17:40:18 12.8 C 31 %
1115 20-03-2020 17:50:17 12.5 C 31 %
1116 20-03-2020 18:00:17 12.4 C 32 %
1117 20-03-2020 18:10:17 11.9 C 33 %
1118 20-03-2020 18:20:17 11.8 C 34 %
1119 20-03-2020 18:30:17 11.6 C 34 %
1120 20-03-2020 18:40:17 11.6 C 34 %
1121 20-03-2020 18:50:18 11.5 C 34 %
1122 20-03-2020 19:00:17 11.5 C 34 %
1123 20-03-2020 19:10:17 11.3 C 34 %
1124 20-03-2020 19:20:17 11.1 C 34 %
1125 20-03-2020 19:30:17 11 C 35 %
Sensor: Nr:Datum:Temp:Feuchte:
Aussen-T/F 1126 20-03-2020 19:40:17 10.7 C 35 %
1127 20-03-2020 19:50:17 10.6 C 35 %
1128 20-03-2020 20:00:17 10.4 C 35 %
1129 20-03-2020 20:10:17 10.2 C 35 %
1130 20-03-2020 20:20:17 10.3 C 35 %
1131 20-03-2020 20:30:17 10.3 C 35 %
1132 20-03-2020 20:40:17 10.2 C 35 %
1133 20-03-2020 20:50:18 10.3 C 35 %
1134 20-03-2020 21:00:18 10.1 C 35 %
1135 20-03-2020 21:10:18 9.9 C 35 %
1136 20-03-2020 21:20:17 9.5 C 35 %
1137 20-03-2020 21:30:17 9.2 C 35 %
1138 20-03-2020 21:40:17 9.1 C 35 %
1139 20-03-2020 21:50:17 8.7 C 36 %
1140 20-03-2020 22:00:17 8.5 C 36 %
1141 20-03-2020 22:10:17 8.4 C 36 %
1142 20-03-2020 22:20:18 8.3 C 36 %
1143 20-03-2020 22:30:17 8.2 C 36 %
1144 20-03-2020 22:40:18 8.1 C 36 %
1145 20-03-2020 22:50:17 8.1 C 36 %
1146 20-03-2020 23:00:18 8 C 35 %
1147 20-03-2020 23:10:18 7.9 C 36 %
1148 20-03-2020 23:20:17 7.9 C 36 %
1149 20-03-2020 23:30:18 7.9 C 35 %
1150 20-03-2020 23:40:18 7.8 C 35 %
Sensor: Nr:Datum:Temp:Feuchte:
Aussen-T/F 1151 20-03-2020 23:50:18 7.7 C 35 %
1152 21-03-2020 00:00:17 7.6 C 34 %
1153 21-03-2020 00:10:17 7.6 C 34 %
1154 21-03-2020 00:20:17 7.4 C 34 %
1155 21-03-2020 00:30:17 7.3 C 34 %
1156 21-03-2020 00:40:17 7.3 C 34 %
1157 21-03-2020 00:50:17 7.3 C 34 %
1158 21-03-2020 01:00:17 7.2 C 33 %
1159 21-03-2020 01:10:17 7.1 C 33 %
1160 21-03-2020 01:20:17 6.8 C 35 %
1161 21-03-2020 01:30:18 6.5 C 35 %
1162 21-03-2020 01:40:18 6.2 C 36 %
1163 21-03-2020 01:50:17 5.9 C 38 %
1164 21-03-2020 02:00:18 5.6 C 39 %
1165 21-03-2020 02:10:18 5.3 C 40 %
1166 21-03-2020 02:20:17 5.1 C 41 %
1167 21-03-2020 02:30:18 4.9 C 43 %
1168 21-03-2020 02:40:18 4.9 C 43 %
1169 21-03-2020 02:50:18 4.6 C 43 %
1170 21-03-2020 03:00:17 4.5 C 43 %
1171 21-03-2020 03:10:17 4.4 C 44 %
1172 21-03-2020 03:20:17 4.5 C 45 %
1173 21-03-2020 03:30:18 4.5 C 45 %
1174 21-03-2020 03:40:18 4.4 C 45 %
1175 21-03-2020 03:50:17 4.4 C 45 %
Sensor: Nr:Datum:Temp:Feuchte:
Aussen-T/F 1176 21-03-2020 04:00:18 4.3 C 45 %
1177 21-03-2020 04:10:18 4.2 C 45 %
1178 21-03-2020 04:20:17 4.1 C 45 %
1179 21-03-2020 04:30:18 4.1 C 45 %
1180 21-03-2020 04:40:18 4 C 45 %
1181 21-03-2020 04:50:18 3.9 C 46 %
1182 21-03-2020 05:00:18 3.9 C 46 %
1183 21-03-2020 05:10:18 4 C 46 %
1184 21-03-2020 05:20:18 3.9 C 47 %
1185 21-03-2020 05:30:18 3.9 C 47 %
1186 21-03-2020 05:40:18 3.9 C 47 %
1187 21-03-2020 05:50:17 4 C 46 %
1188 21-03-2020 06:00:18 4 C 47 %
1189 21-03-2020 06:10:18 3.9 C 47 %
1190 21-03-2020 06:20:17 4 C 47 %
1191 21-03-2020 06:30:18 4 C 47 %
1192 21-03-2020 06:40:18 4 C 47 %
1193 21-03-2020 06:50:17 4 C 47 %
1194 21-03-2020 07:00:17 4.1 C 47 %
1195 21-03-2020 07:10:18 4.1 C 47 %
1196 21-03-2020 07:20:18 4.1 C 47 %
1197 21-03-2020 07:30:18 4.2 C 47 %
1198 21-03-2020 07:40:18 4.3 C 47 %
1199 21-03-2020 07:50:17 4.3 C 47 %
1200 21-03-2020 08:00:18 4.4 C 47 %
Sensor: Nr:Datum:Temp:Feuchte:
Aussen-T/F 1201 21-03-2020 08:10:18 4.5 C 47 %
1202 21-03-2020 08:20:17 4.5 C 46 %
1203 21-03-2020 08:30:17 4.6 C 46 %
1204 21-03-2020 08:40:17 4.7 C 46 %
1205 21-03-2020 08:50:18 4.8 C 46 %
1206 21-03-2020 09:00:18 4.7 C 46 %
1207 21-03-2020 09:10:18 4.6 C 45 %
1208 21-03-2020 09:20:18 5.2 C 43 %
1209 21-03-2020 09:30:18 5.6 C 42 %
1210 21-03-2020 09:40:18 5.8 C 41 %
1211 21-03-2020 09:50:17 6 C 41 %
1212 21-03-2020 10:00:17 6.2 C 41 %
1213 21-03-2020 10:10:18 6.4 C 39 %
1214 21-03-2020 10:20:18 6.5 C 40 %
1215 21-03-2020 10:30:18 6.7 C 39 %
1216 21-03-2020 10:40:18 6.7 C 38 %
1217 21-03-2020 10:50:17 6.4 C 39 %
1218 21-03-2020 11:00:17 6.5 C 37 %
1219 21-03-2020 11:10:18 7.1 C 36 %
1220 21-03-2020 11:20:18 7.3 C 36 %
1221 21-03-2020 11:30:18 8.1 C 34 %
1222 21-03-2020 11:40:18 8 C 34 %
1223 21-03-2020 11:50:18 8.3 C 32 %
1224 21-03-2020 12:00:18 7.8 C 32 %
1225 21-03-2020 12:10:18 7.6 C 33 %
Sensor: Nr:Datum:Temp:Feuchte:
Aussen-T/F 1226 21-03-2020 12:20:17 7.9 C 31 %
1227 21-03-2020 12:30:17 8.7 C 32 %
1228 21-03-2020 12:40:17 8.2 C 30 %
1229 21-03-2020 12:50:17 7.8 C 31 %
1230 21-03-2020 13:00:17 7.9 C 30 %
1231 21-03-2020 13:10:17 8.7 C 30 %
1232 21-03-2020 13:20:18 8.9 C 28 %
1233 21-03-2020 13:30:18 8.5 C 28 %
1234 21-03-2020 13:40:18 8.2 C 27 %
1235 21-03-2020 13:50:17 8.4 C 27 %
1236 21-03-2020 14:00:18 8.6 C 27 %
1237 21-03-2020 14:10:18 9.1 C 26 %
1238 21-03-2020 14:20:18 8.7 C 27 %
1239 21-03-2020 14:30:18 9.1 C 25 %
1240 21-03-2020 14:40:18 11.1 C 24 %
1241 21-03-2020 14:50:17 9.8 C 23 %
1242 21-03-2020 15:00:18 11 C 20 %
1243 21-03-2020 15:10:18 10.1 C 20 %
1244 21-03-2020 15:20:17 11.2 C 20 %
1245 21-03-2020 15:30:17 11.7 C 20 %
1246 21-03-2020 15:40:17 9.4 C 20 %
1247 21-03-2020 15:50:17 8.6 C 20 %
1248 21-03-2020 16:00:18 9.4 C 20 %
1249 21-03-2020 16:10:18 9.5 C 20 %
1250 21-03-2020 16:20:17 12.1 C 20 %
Sensor: Nr:Datum:Temp:Feuchte:
Aussen-T/F 1251 21-03-2020 16:30:17 12 C 20 %
1252 21-03-2020 16:40:17 13.3 C 20 %
1253 21-03-2020 16:50:17 10.9 C 20 %
1254 21-03-2020 17:00:17 9.2 C 20 %
1255 21-03-2020 17:10:17 8.9 C 20 %
1256 21-03-2020 17:20:17 8.3 C 20 %
1257 21-03-2020 17:30:18 7.8 C 20 %
1258 21-03-2020 17:40:18 7.8 C 20 %
1259 21-03-2020 17:50:17 7.5 C 20 %
1260 21-03-2020 18:00:17 7 C 20 %
1261 21-03-2020 18:10:17 6.9 C 20 %
1262 21-03-2020 18:20:17 6.6 C 21 %
1263 21-03-2020 18:30:17 6.4 C 23 %
1264 21-03-2020 18:40:17 5.9 C 25 %
1265 21-03-2020 18:50:17 5.5 C 27 %
1266 21-03-2020 19:00:17 5.5 C 26 %
1267 21-03-2020 19:10:17 5.1 C 28 %
1268 21-03-2020 19:20:17 4.7 C 30 %
1269 21-03-2020 19:30:18 4.4 C 31 %
1270 21-03-2020 19:40:18 4.5 C 30 %
1271 21-03-2020 19:50:17 4.4 C 29 %
1272 21-03-2020 20:00:18 4.1 C 30 %
1273 21-03-2020 20:10:18 3.7 C 31 %
1274 21-03-2020 20:20:18 3.2 C 33 %
1275 21-03-2020 20:30:18 3.7 C 32 %
Sensor: Nr:Datum:Temp:Feuchte:
Aussen-T/F 1276 21-03-2020 20:40:18 3.9 C 30 %
1277 21-03-2020 20:50:17 3.6 C 31 %
1278 21-03-2020 21:00:18 3.3 C 32 %
1279 21-03-2020 21:10:18 3 C 32 %
1280 21-03-2020 21:20:18 3.4 C 32 %
1281 21-03-2020 21:30:18 3.1 C 31 %
1282 21-03-2020 21:40:18 2.9 C 32 %
1283 21-03-2020 21:50:17 2.6 C 33 %
1284 21-03-2020 22:00:17 1.9 C 36 %
1285 21-03-2020 22:10:17 2.3 C 34 %
1286 21-03-2020 22:20:17 3 C 32 %
1287 21-03-2020 22:30:18 2.7 C 32 %
1288 21-03-2020 22:40:18 2.3 C 33 %
1289 21-03-2020 22:50:18 2.7 C 32 %
1290 21-03-2020 23:00:18 2 C 34 %
1291 21-03-2020 23:10:18 2.2 C 33 %
1292 21-03-2020 23:20:18 1.6 C 35 %
1293 21-03-2020 23:30:18 1.7 C 35 %
1294 21-03-2020 23:40:18 1.8 C 35 %
1295 21-03-2020 23:50:17 1.7 C 35 %
1296 22-03-2020 00:00:18 1.4 C 35 %
1297 22-03-2020 00:10:18 1.5 C 35 %
1298 22-03-2020 00:20:17 0.9 C 37 %
1299 22-03-2020 00:30:17 0.7 C 38 %
1300 22-03-2020 00:40:17 1.2 C 36 %
Sensor: Nr:Datum:Temp:Feuchte:
Aussen-T/F 1301 22-03-2020 00:50:17 0.9 C 37 %
1302 22-03-2020 01:00:18 1.5 C 35 %
1303 22-03-2020 01:10:18 1.5 C 35 %
1304 22-03-2020 01:20:18 1.1 C 35 %
1305 22-03-2020 01:30:18 1.1 C 35 %
1306 22-03-2020 01:40:18 0.9 C 36 %
1307 22-03-2020 01:50:18 1 C 35 %
1308 22-03-2020 02:00:18 1 C 35 %
1309 22-03-2020 02:10:18 0.1 C 38 %
1310 22-03-2020 02:20:17 0.3 C 38 %
1311 22-03-2020 02:30:18 0.5 C 37 %
1312 22-03-2020 02:40:18 0.5 C 37 %
1313 22-03-2020 02:50:18 0.4 C 37 %
1314 22-03-2020 03:00:18 0.2 C 37 %
1315 22-03-2020 03:10:18 0.7 C 37 %
1316 22-03-2020 03:20:18 -0.4 C 38 %
1317 22-03-2020 03:30:18 -0.1 C 38 %
1318 22-03-2020 03:40:18 -0.4 C 39 %
1319 22-03-2020 03:50:17 -0.3 C 39 %
1320 22-03-2020 04:00:17 -0.2 C 38 %
1321 22-03-2020 04:10:17 0 C 37 %
1322 22-03-2020 04:20:17 -0.4 C 38 %
1323 22-03-2020 04:30:17 0.3 C 37 %
1324 22-03-2020 04:40:17 0.1 C 37 %
1325 22-03-2020 04:50:17 -0.2 C 38 %
Sensor: Nr:Datum:Temp:Feuchte:
Aussen-T/F 1326 22-03-2020 05:00:18 0.1 C 37 %
1327 22-03-2020 05:10:18 -0.3 C 37 %
1328 22-03-2020 05:20:17 -0.4 C 37 %
1329 22-03-2020 05:30:18 -0.5 C 38 %
1330 22-03-2020 05:40:18 -0.7 C 38 %
1331 22-03-2020 05:50:17 -1 C 39 %
1332 22-03-2020 06:00:17 -1.1 C 39 %
1333 22-03-2020 06:10:17 -0.8 C 39 %
1334 22-03-2020 06:20:17 0.1 C 37 %
1335 22-03-2020 06:30:17 -0.3 C 37 %
1336 22-03-2020 06:40:17 -0.4 C 37 %
1337 22-03-2020 06:50:18 0 C 36 %
1338 22-03-2020 07:00:18 -0.3 C 37 %
1339 22-03-2020 07:10:18 -0.2 C 37 %
1340 22-03-2020 07:20:18 -0.4 C 37 %
1341 22-03-2020 07:30:18 -0.1 C 36 %
1342 22-03-2020 07:40:18 -0.2 C 37 %
1343 22-03-2020 07:50:17 -0.1 C 36 %
1344 22-03-2020 08:00:18 -0.1 C 36 %
1345 22-03-2020 08:10:18 0.3 C 36 %
1346 22-03-2020 08:20:18 0.3 C 35 %
1347 22-03-2020 08:30:18 0.5 C 35 %
1348 22-03-2020 08:40:18 0.8 C 35 %
1349 22-03-2020 08:50:18 0.4 C 35 %
1350 22-03-2020 09:00:18 0.8 C 35 %
Sensor: Nr:Datum:Temp:Feuchte:
Aussen-T/F 1351 22-03-2020 09:10:18 1.2 C 32 %
1352 22-03-2020 09:20:18 1.6 C 32 %
1353 22-03-2020 09:30:18 2.2 C 30 %
1354 22-03-2020 09:40:18 2.5 C 27 %
1355 22-03-2020 09:50:17 2.8 C 26 %
1356 22-03-2020 10:00:18 3.3 C 25 %
1357 22-03-2020 10:10:18 3.6 C 25 %
1358 22-03-2020 10:20:18 3.9 C 20 %
1359 22-03-2020 10:30:18 4.4 C 20 %
1360 22-03-2020 10:40:18 4.6 C 20 %
1361 22-03-2020 10:50:17 5.2 C 20 %
1362 22-03-2020 11:00:18 5.5 C 20 %
1363 22-03-2020 11:10:18 6.3 C 20 %
1364 22-03-2020 11:20:17 6.5 C 20 %
1365 22-03-2020 11:30:18 6.7 C 20 %
1366 22-03-2020 11:40:18 6.7 C 20 %
1367 22-03-2020 11:50:17 6.5 C 20 %
1368 22-03-2020 12:00:18 7 C 20 %
1369 22-03-2020 12:10:18 7.4 C 20 %
1370 22-03-2020 12:20:18 7.3 C 20 %
1371 22-03-2020 12:30:17 6.9 C 20 %
1372 22-03-2020 12:40:17 8 C 20 %
1373 22-03-2020 12:50:18 8.5 C 20 %
1374 22-03-2020 13:00:18 10.1 C 20 %
1375 22-03-2020 13:10:18 11.1 C 20 %
Sensor: Nr:Datum:Temp:Feuchte:
Aussen-T/F 1376 22-03-2020 13:20:17 11.9 C 20 %
1377 22-03-2020 13:30:18 11.6 C 20 %
1378 22-03-2020 13:40:18 10.9 C 20 %
1379 22-03-2020 13:50:18 10.3 C 20 %
1380 22-03-2020 14:00:17 9.6 C 20 %
1381 22-03-2020 14:10:17 10.2 C 20 %
1382 22-03-2020 14:20:17 12.2 C 20 %
1383 22-03-2020 14:30:17 12.6 C 20 %
1384 22-03-2020 14:40:17 14.4 C 20 %
1385 22-03-2020 14:50:17 14.4 C 20 %
1386 22-03-2020 15:00:18 15 C 20 %
1387 22-03-2020 15:10:18 14.4 C 20 %
1388 22-03-2020 15:20:17 14.7 C 20 %
1389 22-03-2020 15:30:17 13.6 C 20 %
1390 22-03-2020 15:40:17 13.7 C 20 %
1391 22-03-2020 15:50:18 15.4 C 20 %
1392 22-03-2020 16:00:18 16.2 C 20 %
1393 22-03-2020 16:10:18 14.9 C 20 %
1394 22-03-2020 16:20:18 14.1 C 20 %
1395 22-03-2020 16:30:18 13.3 C 20 %
1396 22-03-2020 16:40:18 13.2 C 20 %
1397 22-03-2020 16:50:17 11.7 C 20 %
1398 22-03-2020 17:00:17 10.7 C 20 %
1399 22-03-2020 17:10:17 9.9 C 20 %
1400 22-03-2020 17:20:17 9.7 C 20 %
Sensor: Nr:Datum:Temp:Feuchte:
Aussen-T/F 1401 22-03-2020 17:30:17 9.8 C 20 %
1402 22-03-2020 17:40:17 9.5 C 20 %
1403 22-03-2020 17:50:17 8.9 C 20 %
1404 22-03-2020 18:00:18 8.6 C 20 %
1405 22-03-2020 18:10:18 8.4 C 20 %
1406 22-03-2020 18:20:17 7.9 C 20 %
1407 22-03-2020 18:30:17 7.5 C 20 %
1408 22-03-2020 18:40:17 7 C 20 %
1409 22-03-2020 18:50:17 6.5 C 20 %
1410 22-03-2020 19:00:17 5.6 C 20 %
1411 22-03-2020 19:10:17 4.9 C 21 %
1412 22-03-2020 19:20:17 5.2 C 20 %
1413 22-03-2020 19:30:17 4.3 C 26 %
1414 22-03-2020 19:40:17 3.8 C 27 %
1415 22-03-2020 19:50:18 3.7 C 28 %
1416 22-03-2020 20:00:18 3.6 C 28 %
1417 22-03-2020 20:10:18 3.6 C 27 %
1418 22-03-2020 20:20:17 3.6 C 26 %
1419 22-03-2020 20:30:17 3.2 C 26 %
1420 22-03-2020 20:40:17 3 C 26 %
1421 22-03-2020 20:50:17 2.5 C 30 %
1422 22-03-2020 21:00:17 2.9 C 26 %
1423 22-03-2020 21:10:17 2.7 C 27 %
1424 22-03-2020 21:20:17 2.3 C 30 %
1425 22-03-2020 21:30:17 2.2 C 29 %
Sensor: Nr:Datum:Temp:Feuchte:
Aussen-T/F 1426 22-03-2020 21:40:17 1.8 C 30 %
1427 22-03-2020 21:50:18 1.5 C 31 %
1428 22-03-2020 22:00:18 2 C 30 %
1429 22-03-2020 22:10:18 2.5 C 26 %
1430 22-03-2020 22:20:17 1.8 C 30 %
1431 22-03-2020 22:30:17 1.5 C 29 %
1432 22-03-2020 22:40:17 1.3 C 31 %
1433 22-03-2020 22:50:17 1.4 C 30 %
1434 22-03-2020 23:00:17 0.7 C 33 %
1435 22-03-2020 23:10:17 1.1 C 30 %
1436 22-03-2020 23:20:17 0.8 C 32 %
1437 22-03-2020 23:30:18 0.3 C 33 %
1438 22-03-2020 23:40:18 0.3 C 34 %
1439 22-03-2020 23:50:18 0.6 C 33 %
1440 23-03-2020 00:00:18 0.4 C 34 %
1441 23-03-2020 00:10:18 0 C 33 %
1442 23-03-2020 00:20:17 -0.2 C 33 %
1443 23-03-2020 00:30:17 -0.5 C 35 %
1444 23-03-2020 00:40:17 -0.7 C 36 %
1445 23-03-2020 00:50:18 -1.1 C 36 %
1446 23-03-2020 01:00:17 -0.6 C 35 %
1447 23-03-2020 01:10:17 -0.7 C 36 %
1448 23-03-2020 01:20:17 -0.9 C 35 %
1449 23-03-2020 01:30:18 -0.8 C 35 %
1450 23-03-2020 01:40:18 -1.1 C 35 %
Sensor: Nr:Datum:Temp:Feuchte:
Aussen-T/F 1451 23-03-2020 01:50:18 -0.8 C 35 %
1452 23-03-2020 02:00:18 -1.1 C 35 %
1453 23-03-2020 02:10:18 -1.4 C 35 %
1454 23-03-2020 02:20:17 -1.2 C 35 %
1455 23-03-2020 02:30:17 -1.2 C 35 %
1456 23-03-2020 02:40:17 -1.2 C 35 %
1457 23-03-2020 02:50:17 -1.3 C 35 %
1458 23-03-2020 03:00:17 -1.6 C 35 %
1459 23-03-2020 03:10:18 -1.9 C 35 %
1460 23-03-2020 03:20:18 -1.6 C 35 %
1461 23-03-2020 03:30:18 -1.7 C 35 %
1462 23-03-2020 03:40:18 -1.9 C 35 %
1463 23-03-2020 03:50:18 -1.8 C 35 %
1464 23-03-2020 04:00:18 -1.8 C 35 %
1465 23-03-2020 04:10:18 -2.1 C 35 %
1466 23-03-2020 04:20:17 -1.9 C 35 %
1467 23-03-2020 04:30:17 -2 C 35 %
1468 23-03-2020 04:40:17 -2.1 C 35 %
1469 23-03-2020 04:50:17 -2.7 C 36 %
1470 23-03-2020 05:00:18 -2.5 C 36 %
1471 23-03-2020 05:10:18 -2.4 C 36 %
1472 23-03-2020 05:20:17 -2.3 C 36 %
1473 23-03-2020 05:30:18 -2.4 C 35 %
1474 23-03-2020 05:40:18 -2.7 C 36 %
1475 23-03-2020 05:50:17 -2.7 C 36 %
Sensor: Nr:Datum:Temp:Feuchte:
Aussen-T/F 1476 23-03-2020 06:00:18 -2.6 C 36 %
1477 23-03-2020 06:10:18 -2.9 C 36 %
1478 23-03-2020 06:20:17 -2.6 C 36 %
1479 23-03-2020 06:30:18 -2.8 C 36 %
1480 23-03-2020 06:40:18 -3.2 C 36 %
1481 23-03-2020 06:50:18 -3 C 36 %
1482 23-03-2020 07:00:18 -3 C 36 %
1483 23-03-2020 07:10:18 -3.1 C 36 %
1484 23-03-2020 07:20:18 -2.5 C 35 %
1485 23-03-2020 07:30:18 -2.7 C 36 %
1486 23-03-2020 07:40:18 -2.6 C 36 %
1487 23-03-2020 07:50:18 -1.9 C 34 %
1488 23-03-2020 08:00:18 -2 C 35 %
1489 23-03-2020 08:10:18 -1.4 C 32 %
1490 23-03-2020 08:20:17 -1.1 C 31 %
1491 23-03-2020 08:30:18 -0.2 C 27 %
1492 23-03-2020 08:40:18 -0.2 C 26 %
1493 23-03-2020 08:50:18 -0.3 C 25 %
1494 23-03-2020 09:00:18 0 C 23 %
1495 23-03-2020 09:10:18 0.2 C 23 %
1496 23-03-2020 09:20:18 0.5 C 20 %
1497 23-03-2020 09:30:17 0.7 C 20 %
1498 23-03-2020 09:40:17 1.5 C 20 %
1499 23-03-2020 09:50:18 1.8 C 20 %
1500 23-03-2020 10:00:18 2.4 C 20 %
Sensor: Nr:Datum:Temp:Feuchte:
Aussen-T/F 1501 23-03-2020 10:10:18 2.7 C 20 %
1502 23-03-2020 10:20:18 3 C 20 %
1503 23-03-2020 10:30:17 3.8 C 20 %
1504 23-03-2020 10:40:17 4.1 C 20 %
1505 23-03-2020 10:50:17 4.7 C 20 %
1506 23-03-2020 11:00:17 5.5 C 20 %
1507 23-03-2020 11:10:17 5.5 C 20 %
1508 23-03-2020 11:20:17 6 C 20 %
1509 23-03-2020 11:30:18 6.7 C 20 %
1510 23-03-2020 11:40:18 6.2 C 20 %
1511 23-03-2020 11:50:17 6.3 C 20 %
1512 23-03-2020 12:00:18 7 C 20 %
1513 23-03-2020 12:10:18 7.4 C 20 %
1514 23-03-2020 12:20:18 7.8 C 20 %
1515 23-03-2020 12:30:18 7.5 C 20 %
1516 23-03-2020 12:40:18 8.1 C 20 %
1517 23-03-2020 12:50:18 8.7 C 20 %
1518 23-03-2020 13:00:17 10.4 C 20 %
1519 23-03-2020 13:10:17 10.7 C 20 %
1520 23-03-2020 13:20:17 11.9 C 20 %
1521 23-03-2020 13:30:17 11.4 C 20 %
1522 23-03-2020 13:40:17 10 C 20 %
1523 23-03-2020 13:50:17 9.8 C 20 %
1524 23-03-2020 14:00:18 9.2 C 20 %
1525 23-03-2020 14:10:18 10.5 C 20 %
Sensor: Nr:Datum:Temp:Feuchte:
Aussen-T/F 1526 23-03-2020 14:20:18 12.9 C 20 %
1527 23-03-2020 14:30:18 13 C 20 %
1528 23-03-2020 14:40:18 14.2 C 20 %
1529 23-03-2020 14:50:18 14.3 C 20 %
1530 23-03-2020 15:00:18 14.3 C 20 %
1531 23-03-2020 15:10:18 14.4 C 20 %
1532 23-03-2020 15:20:17 14.7 C 20 %
1533 23-03-2020 15:30:17 13.5 C 20 %
1534 23-03-2020 15:40:17 14.4 C 20 %
1535 23-03-2020 15:50:17 14.1 C 20 %
1536 23-03-2020 16:00:17 13.8 C 20 %
1537 23-03-2020 16:10:17 14.7 C 20 %
1538 23-03-2020 16:20:17 15.3 C 20 %
1539 23-03-2020 16:30:18 14.7 C 20 %
1540 23-03-2020 16:40:18 14.8 C 20 %
1541 23-03-2020 16:50:17 11.4 C 20 %
1542 23-03-2020 17:00:18 10.1 C 20 %
1543 23-03-2020 17:10:18 9.7 C 20 %
1544 23-03-2020 17:20:18 9.4 C 20 %
1545 23-03-2020 17:30:18 9 C 20 %
1546 23-03-2020 17:40:18 9 C 20 %
1547 23-03-2020 17:50:17 8.6 C 20 %
1548 23-03-2020 18:00:18 8.3 C 20 %
1549 23-03-2020 18:10:18 7.6 C 20 %
1550 23-03-2020 18:20:17 7.4 C 20 %
Sensor: Nr:Datum:Temp:Feuchte:
Aussen-T/F 1551 23-03-2020 18:30:18 7 C 20 %
1552 23-03-2020 18:40:18 5.3 C 20 %
1553 23-03-2020 18:50:18 4.4 C 20 %
1554 23-03-2020 19:00:18 4.2 C 20 %
1555 23-03-2020 19:10:18 4.1 C 20 %
1556 23-03-2020 19:20:17 3.7 C 20 %
1557 23-03-2020 19:30:18 3.6 C 20 %
1558 23-03-2020 19:40:18 3.4 C 20 %
1559 23-03-2020 19:50:18 2.7 C 20 %
1560 23-03-2020 20:00:17 2.9 C 20 %
1561 23-03-2020 20:10:17 2.6 C 20 %
1562 23-03-2020 20:20:17 2.5 C 20 %
1563 23-03-2020 20:30:18 2.3 C 20 %
1564 23-03-2020 20:40:18 2.4 C 20 %
1565 23-03-2020 20:50:18 2.3 C 20 %
1566 23-03-2020 21:00:18 2.1 C 20 %
1567 23-03-2020 21:10:18 0.9 C 27 %
1568 23-03-2020 21:20:17 1 C 26 %
1569 23-03-2020 21:30:18 1.1 C 28 %
1570 23-03-2020 21:40:18 0.7 C 29 %
1571 23-03-2020 21:50:18 0.2 C 30 %
1572 23-03-2020 22:00:17 -0.4 C 31 %
1573 23-03-2020 22:10:18 -0.9 C 35 %
1574 23-03-2020 22:20:18 -0.2 C 34 %
1575 23-03-2020 22:30:18 -0.9 C 35 %
Sensor: Nr:Datum:Temp:Feuchte:
Aussen-T/F 1576 23-03-2020 22:40:18 -0.9 C 35 %
1577 23-03-2020 22:50:18 -1.3 C 35 %
1578 23-03-2020 23:00:18 -1.4 C 36 %
1579 23-03-2020 23:10:18 -1.6 C 36 %
1580 23-03-2020 23:20:17 -1.7 C 36 %
1581 23-03-2020 23:30:17 -1.7 C 37 %
1582 23-03-2020 23:40:17 -1.9 C 37 %
1583 23-03-2020 23:50:18 -1.8 C 37 %
1584 24-03-2020 00:00:18 -1.9 C 36 %
1585 24-03-2020 00:10:18 -2 C 36 %
1586 24-03-2020 00:20:17 -2.2 C 36 %
1587 24-03-2020 00:30:18 -2.4 C 37 %
1588 24-03-2020 00:40:18 -2.4 C 38 %
1589 24-03-2020 00:50:18 -2.5 C 38 %
1590 24-03-2020 01:00:18 -2.3 C 37 %
1591 24-03-2020 01:10:18 -2.6 C 37 %
1592 24-03-2020 01:20:18 -2.7 C 38 %
1593 24-03-2020 01:30:18 -2.7 C 38 %
1594 24-03-2020 01:40:18 -3 C 38 %
1595 24-03-2020 01:50:18 -2.5 C 37 %
1596 24-03-2020 02:00:18 -2.6 C 38 %
1597 24-03-2020 02:10:18 -2.8 C 38 %
1598 24-03-2020 02:20:17 -3.1 C 38 %
1599 24-03-2020 02:30:17 -3.2 C 38 %
1600 24-03-2020 02:40:17 -3.3 C 38 %
Sensor: Nr:Datum:Temp:Feuchte:
Aussen-T/F 1601 24-03-2020 02:50:17 -3.2 C 38 %
1602 24-03-2020 03:00:17 -3.4 C 38 %
1603 24-03-2020 03:10:17 -3.5 C 38 %
1604 24-03-2020 03:20:17 -3.6 C 39 %
1605 24-03-2020 03:30:17 -3.6 C 38 %
1606 24-03-2020 03:40:17 -3.7 C 38 %
1607 24-03-2020 03:50:17 -3.9 C 39 %
1608 24-03-2020 04:00:18 -3.7 C 39 %
1609 24-03-2020 04:10:18 -3.9 C 38 %
1610 24-03-2020 04:20:18 -4 C 38 %
1611 24-03-2020 04:30:18 -4 C 38 %
1612 24-03-2020 04:40:18 -4 C 38 %
1613 24-03-2020 04:50:17 -3.9 C 38 %
1614 24-03-2020 05:00:17 -4.2 C 38 %
1615 24-03-2020 05:10:17 -4.3 C 39 %
1616 24-03-2020 05:20:17 -4.2 C 38 %
1617 24-03-2020 05:30:18 -4.3 C 38 %
1618 24-03-2020 05:40:18 -4.4 C 38 %
1619 24-03-2020 05:50:18 -4.6 C 39 %
1620 24-03-2020 06:00:17 -4.7 C 39 %
1621 24-03-2020 06:10:18 -4.7 C 38 %
1622 24-03-2020 06:20:17 -4.7 C 39 %
1623 24-03-2020 06:30:18 -4.7 C 38 %
1624 24-03-2020 06:40:18 -4.6 C 39 %
1625 24-03-2020 06:50:18 -4.4 C 38 %
Sensor: Nr:Datum:Temp:Feuchte:
Aussen-T/F 1626 24-03-2020 07:00:18 -4.5 C 39 %
1627 24-03-2020 07:10:18 -4.4 C 39 %
1628 24-03-2020 07:20:18 -4.3 C 39 %
1629 24-03-2020 07:30:18 -4.2 C 39 %
1630 24-03-2020 07:40:18 -4 C 39 %
1631 24-03-2020 07:50:17 -3.8 C 39 %
1632 24-03-2020 08:00:17 -3.7 C 39 %
1633 24-03-2020 08:10:17 -3.5 C 38 %
1634 24-03-2020 08:20:17 -3.3 C 38 %
1635 24-03-2020 08:30:17 -2.5 C 38 %
1636 24-03-2020 08:40:17 -2.4 C 37 %
1637 24-03-2020 08:50:17 -2 C 37 %
1638 24-03-2020 09:00:17 -1.6 C 36 %
1639 24-03-2020 09:10:17 -0.7 C 35 %
1640 24-03-2020 09:20:17 -0.2 C 34 %
1641 24-03-2020 09:30:17 0.4 C 30 %
1642 24-03-2020 09:40:17 1 C 27 %
1643 24-03-2020 09:50:18 1.7 C 23 %
1644 24-03-2020 10:00:18 3 C 20 %
1645 24-03-2020 10:10:18 3.3 C 20 %
1646 24-03-2020 10:20:17 3.9 C 20 %
1647 24-03-2020 10:30:17 4.3 C 20 %
1648 24-03-2020 10:40:17 4.7 C 20 %
1649 24-03-2020 10:50:17 5.7 C 20 %
1650 24-03-2020 11:00:18 5.7 C 20 %
Sensor: Nr:Datum:Temp:Feuchte:
Aussen-T/F 1651 24-03-2020 11:10:18 6.4 C 20 %
1652 24-03-2020 11:20:17 6.9 C 20 %
1653 24-03-2020 11:30:17 7.9 C 20 %
1654 24-03-2020 11:40:17 7.2 C 20 %
1655 24-03-2020 11:50:18 6.8 C 20 %
1656 24-03-2020 12:00:18 7.8 C 20 %
1657 24-03-2020 12:10:18 8.6 C 20 %
1658 24-03-2020 12:20:17 8.2 C 20 %
1659 24-03-2020 12:30:17 8.2 C 20 %
1660 24-03-2020 12:40:17 9 C 20 %
1661 24-03-2020 12:50:17 9.2 C 20 %
1662 24-03-2020 13:00:18 10.4 C 20 %
1663 24-03-2020 13:10:18 11.7 C 20 %
1664 24-03-2020 13:20:17 12.5 C 20 %
1665 24-03-2020 13:30:17 13 C 20 %
1666 24-03-2020 13:40:17 11.9 C 20 %
1667 24-03-2020 13:50:18 11 C 20 %
1668 24-03-2020 14:00:17 10.8 C 20 %
1669 24-03-2020 14:10:17 11.3 C 20 %
1670 24-03-2020 14:20:17 13.7 C 20 %
1671 24-03-2020 14:30:17 12.2 C 20 %
1672 24-03-2020 14:40:17 14.4 C 20 %
1673 24-03-2020 14:50:18 13.4 C 20 %
1674 24-03-2020 15:00:18 13.5 C 20 %
1675 24-03-2020 15:10:18 14.1 C 20 %
Sensor: Nr:Datum:Temp:Feuchte:
Aussen-T/F 1676 24-03-2020 15:20:18 15.3 C 20 %
1677 24-03-2020 15:30:18 14.1 C 20 %
1678 24-03-2020 15:40:18 15.4 C 20 %
1679 24-03-2020 15:50:18 14.9 C 20 %
1680 24-03-2020 16:00:18 14.8 C 20 %
1681 24-03-2020 16:10:18 14.8 C 20 %
1682 24-03-2020 16:20:18 14.1 C 20 %
1683 24-03-2020 16:30:18 13.6 C 20 %
1684 24-03-2020 16:40:18 14.3 C 20 %
1685 24-03-2020 16:50:18 11.4 C 20 %
1686 24-03-2020 17:00:18 10.8 C 20 %
1687 24-03-2020 17:10:18 10.4 C 20 %
1688 24-03-2020 17:20:18 10.1 C 20 %
1689 24-03-2020 17:30:18 9.9 C 20 %
1690 24-03-2020 17:40:18 9.6 C 20 %
1691 24-03-2020 17:50:17 9.3 C 20 %
1692 24-03-2020 18:00:17 9 C 20 %
1693 24-03-2020 18:10:17 8.6 C 20 %
1694 24-03-2020 18:20:17 8.4 C 20 %
1695 24-03-2020 18:30:17 7.6 C 20 %
1696 24-03-2020 18:40:18 6.4 C 20 %
1697 24-03-2020 18:50:17 5.4 C 20 %
1698 24-03-2020 19:00:18 4.9 C 20 %
1699 24-03-2020 19:10:18 4.6 C 20 %
1700 24-03-2020 19:20:18 4.5 C 20 %
Sensor: Nr:Datum:Temp:Feuchte:
Aussen-T/F 1701 24-03-2020 19:30:18 4.1 C 20 %
1702 24-03-2020 19:40:18 3.9 C 20 %
1703 24-03-2020 19:50:17 3.6 C 20 %
1704 24-03-2020 20:00:18 3.6 C 20 %
1705 24-03-2020 20:10:18 3.5 C 20 %
1706 24-03-2020 20:20:17 3.4 C 20 %
1707 24-03-2020 20:30:18 3.4 C 20 %
1708 24-03-2020 20:40:18 2.9 C 20 %
1709 24-03-2020 20:50:18 2.7 C 20 %
1710 24-03-2020 21:00:18 2.7 C 20 %
1711 24-03-2020 21:10:18 2.6 C 20 %
1712 24-03-2020 21:20:17 2.3 C 20 %
1713 24-03-2020 21:30:17 2.3 C 20 %
1714 24-03-2020 21:40:17 2.2 C 20 %
1715 24-03-2020 21:50:17 2.2 C 20 %
1716 24-03-2020 22:00:18 1.7 C 20 %
1717 24-03-2020 22:10:18 1.6 C 20 %
1718 24-03-2020 22:20:17 1.6 C 20 %
1719 24-03-2020 22:30:18 0.3 C 25 %
1720 24-03-2020 22:40:18 -0.2 C 30 %
1721 24-03-2020 22:50:17 -0.7 C 30 %
1722 24-03-2020 23:00:18 -1.2 C 32 %
1723 24-03-2020 23:10:18 -1.1 C 31 %
1724 24-03-2020 23:20:17 -1.4 C 31 %
1725 24-03-2020 23:30:18 -1.7 C 30 %
Sensor: Nr:Datum:Temp:Feuchte:
Aussen-T/F 1726 24-03-2020 23:40:18 -0.9 C 30 %
1727 24-03-2020 23:50:18 -1.2 C 30 %
1728 25-03-2020 00:00:17 -1.6 C 30 %
1729 25-03-2020 00:10:17 -1.6 C 31 %
1730 25-03-2020 00:20:17 -1.8 C 32 %
1731 25-03-2020 00:30:17 -1.8 C 30 %
1732 25-03-2020 00:40:18 -1.9 C 31 %
1733 25-03-2020 00:50:17 -1.8 C 32 %
1734 25-03-2020 01:00:17 -1.6 C 32 %
1735 25-03-2020 01:10:18 -1.3 C 31 %
1736 25-03-2020 01:20:17 -1.1 C 30 %
1737 25-03-2020 01:30:18 -1.1 C 29 %
1738 25-03-2020 01:40:18 -0.9 C 28 %
1739 25-03-2020 01:50:17 -1.1 C 28 %
1740 25-03-2020 02:00:17 -1.1 C 28 %
1741 25-03-2020 02:10:18 -1.3 C 27 %
1742 25-03-2020 02:20:18 -1.4 C 29 %
1743 25-03-2020 02:30:18 -1.6 C 27 %
1744 25-03-2020 02:40:18 -1.5 C 27 %
1745 25-03-2020 02:50:18 -1.4 C 27 %
1746 25-03-2020 03:00:18 -1.4 C 26 %
1747 25-03-2020 03:10:18 -1.4 C 26 %
1748 25-03-2020 03:20:17 -1.5 C 27 %
1749 25-03-2020 03:30:17 -2.3 C 30 %
1750 25-03-2020 03:40:17 -2.6 C 31 %
Sensor: Nr:Datum:Temp:Feuchte:
Aussen-T/F 1751 25-03-2020 03:50:17 -2.8 C 32 %
1752 25-03-2020 04:00:17 -3.1 C 33 %
1753 25-03-2020 04:10:17 -3.2 C 34 %
1754 25-03-2020 04:20:17 -3.3 C 34 %
1755 25-03-2020 04:30:18 -3.3 C 34 %
1756 25-03-2020 04:40:18 -3 C 33 %
1757 25-03-2020 04:50:17 -3.2 C 33 %
1758 25-03-2020 05:00:18 -3 C 32 %
1759 25-03-2020 05:10:18 -2.6 C 32 %
1760 25-03-2020 05:20:17 -2.3 C 30 %
1761 25-03-2020 05:30:17 -2.5 C 30 %
1762 25-03-2020 05:40:17 -3.4 C 33 %
1763 25-03-2020 05:50:17 -4 C 35 %
1764 25-03-2020 06:00:17 -4.4 C 36 %
1765 25-03-2020 06:10:17 -4.2 C 36 %
1766 25-03-2020 06:20:17 -4.2 C 36 %
1767 25-03-2020 06:30:17 -4.4 C 36 %
1768 25-03-2020 06:40:17 -4.3 C 36 %
1769 25-03-2020 06:50:17 -4.3 C 36 %
1770 25-03-2020 07:00:17 -4.3 C 37 %
1771 25-03-2020 07:10:17 -4.3 C 37 %
1772 25-03-2020 07:20:17 -4.1 C 37 %
1773 25-03-2020 07:30:17 -4 C 37 %
1774 25-03-2020 07:40:17 -3.8 C 37 %
1775 25-03-2020 07:50:17 -3.2 C 36 %
Sensor: Nr:Datum:Temp:Feuchte:
Aussen-T/F 1776 25-03-2020 08:00:17 -2.6 C 35 %
1777 25-03-2020 08:10:17 -2 C 32 %
1778 25-03-2020 08:20:17 -2.7 C 35 %
1779 25-03-2020 08:30:17 -2 C 34 %
1780 25-03-2020 08:40:17 -1.9 C 34 %
1781 25-03-2020 08:50:17 -1.6 C 34 %
1782 25-03-2020 09:00:17 -1.5 C 34 %
1783 25-03-2020 09:10:17 -1.3 C 35 %
1784 25-03-2020 09:20:17 -1 C 35 %
1785 25-03-2020 09:30:17 -0.2 C 32 %
1786 25-03-2020 09:40:18 0.7 C 29 %
1787 25-03-2020 09:50:17 2.1 C 20 %
1788 25-03-2020 10:00:18 2.8 C 20 %
1789 25-03-2020 10:10:18 3.2 C 20 %
1790 25-03-2020 10:20:17 3.6 C 20 %
1791 25-03-2020 10:30:17 4.1 C 20 %
1792 25-03-2020 10:40:17 4.7 C 20 %
1793 25-03-2020 10:50:17 5.1 C 20 %
1794 25-03-2020 11:00:17 5.3 C 20 %
1795 25-03-2020 11:10:17 5.7 C 20 %
1796 25-03-2020 11:20:17 7.2 C 20 %
1797 25-03-2020 11:30:18 7.7 C 20 %
1798 25-03-2020 11:40:18 7.3 C 20 %
1799 25-03-2020 11:50:17 6.8 C 20 %
1800 25-03-2020 12:00:17 7.8 C 20 %
Sensor: Nr:Datum:Temp:Feuchte:
Aussen-T/F 1801 25-03-2020 12:10:17 8.3 C 20 %
1802 25-03-2020 12:20:17 8.4 C 20 %
1803 25-03-2020 12:30:17 8.4 C 20 %
1804 25-03-2020 12:40:17 8.6 C 20 %
1805 25-03-2020 12:50:17 10.3 C 20 %
1806 25-03-2020 13:00:17 11.2 C 20 %
1807 25-03-2020 13:10:17 12.2 C 20 %
1808 25-03-2020 13:20:18 13.8 C 20 %
1809 25-03-2020 13:30:18 14.5 C 20 %
1810 25-03-2020 13:40:18 12.4 C 20 %
1811 25-03-2020 13:50:18 12 C 20 %
1812 25-03-2020 14:00:18 11.3 C 20 %
1813 25-03-2020 14:10:18 11.1 C 20 %
1814 25-03-2020 14:20:17 13.2 C 20 %
1815 25-03-2020 14:30:17 13.5 C 20 %
1816 25-03-2020 14:40:17 12.7 C 20 %
1817 25-03-2020 14:50:17 13.5 C 20 %
1818 25-03-2020 15:00:17 13.8 C 20 %
1819 25-03-2020 15:10:17 14.1 C 20 %
1820 25-03-2020 15:20:18 14.9 C 20 %
1821 25-03-2020 15:30:18 14.4 C 20 %
1822 25-03-2020 15:40:18 14.4 C 20 %
1823 25-03-2020 15:50:17 15 C 20 %
1824 25-03-2020 16:00:18 15.3 C 20 %
1825 25-03-2020 16:10:18 14.5 C 20 %
Sensor: Nr:Datum:Temp:Feuchte:
Aussen-T/F 1826 25-03-2020 16:20:17 15.7 C 20 %
1827 25-03-2020 16:30:17 13.8 C 20 %
1828 25-03-2020 16:40:17 12.9 C 20 %
1829 25-03-2020 16:50:18 12.2 C 20 %
1830 25-03-2020 17:00:18 11.9 C 20 %
1831 25-03-2020 17:10:18 11.5 C 20 %
1832 25-03-2020 17:20:17 11.1 C 20 %
1833 25-03-2020 17:30:17 11 C 20 %
1834 25-03-2020 17:40:17 10.7 C 20 %
1835 25-03-2020 17:50:17 10.5 C 20 %
1836 25-03-2020 18:00:18 10.5 C 20 %
1837 25-03-2020 18:10:18 10.1 C 20 %
1838 25-03-2020 18:20:17 9.6 C 20 %
1839 25-03-2020 18:30:18 8.8 C 20 %
1840 25-03-2020 18:40:18 7.7 C 20 %
1841 25-03-2020 18:50:18 7 C 20 %
1842 25-03-2020 19:00:18 6.3 C 20 %
1843 25-03-2020 19:10:18 6.1 C 20 %
1844 25-03-2020 19:20:17 5.4 C 20 %
1845 25-03-2020 19:30:18 5.8 C 20 %
1846 25-03-2020 19:40:18 5.1 C 20 %
1847 25-03-2020 19:50:17 4.6 C 20 %
1848 25-03-2020 20:00:17 4.5 C 20 %
1849 25-03-2020 20:10:17 4.1 C 20 %
1850 25-03-2020 20:20:17 4 C 20 %
Sensor: Nr:Datum:Temp:Feuchte:
Aussen-T/F 1851 25-03-2020 20:30:18 4.7 C 20 %
1852 25-03-2020 20:40:18 4.3 C 20 %
1853 25-03-2020 20:50:17 3.8 C 20 %
1854 25-03-2020 21:00:18 4.6 C 20 %
1855 25-03-2020 21:10:18 4.6 C 20 %
1856 25-03-2020 21:20:17 4.3 C 20 %
1857 25-03-2020 21:30:17 4.3 C 20 %
1858 25-03-2020 21:40:17 4 C 20 %
1859 25-03-2020 21:50:17 3.6 C 20 %
1860 25-03-2020 22:00:17 2.8 C 20 %
1861 25-03-2020 22:10:17 2.6 C 20 %
1862 25-03-2020 22:20:17 2.6 C 20 %
1863 25-03-2020 22:30:18 2.1 C 20 %
1864 25-03-2020 22:40:18 2.3 C 20 %
1865 25-03-2020 22:50:18 2.1 C 20 %
1866 25-03-2020 23:00:18 1.7 C 20 %
1867 25-03-2020 23:10:18 1.7 C 23 %
1868 25-03-2020 23:20:17 1.6 C 23 %
1869 25-03-2020 23:30:18 1.5 C 21 %
1870 25-03-2020 23:40:18 1.8 C 20 %
1871 25-03-2020 23:50:18 1.8 C 20 %
1872 26-03-2020 00:00:18 1.4 C 21 %
1873 26-03-2020 00:10:18 1.2 C 21 %
1874 26-03-2020 00:20:18 1.3 C 21 %
1875 26-03-2020 00:30:18 0.9 C 23 %
Sensor: Nr:Datum:Temp:Feuchte:
Aussen-T/F 1876 26-03-2020 00:40:18 0.9 C 25 %
1877 26-03-2020 00:50:18 1 C 23 %
1878 26-03-2020 01:00:18 0.7 C 25 %
1879 26-03-2020 01:10:18 0.4 C 25 %
1880 26-03-2020 01:20:17 0.5 C 25 %
1881 26-03-2020 01:30:17 0.7 C 25 %
1882 26-03-2020 01:40:17 0.7 C 23 %
1883 26-03-2020 01:50:17 0.7 C 21 %
1884 26-03-2020 02:00:17 0.6 C 23 %
1885 26-03-2020 02:10:17 0.7 C 21 %
1886 26-03-2020 02:20:17 0.7 C 21 %
1887 26-03-2020 02:30:17 0.6 C 21 %
1888 26-03-2020 02:40:18 0.4 C 21 %
1889 26-03-2020 02:50:17 0.3 C 23 %
1890 26-03-2020 03:00:17 0 C 23 %
1891 26-03-2020 03:10:18 0.1 C 23 %
1892 26-03-2020 03:20:18 0 C 23 %
1893 26-03-2020 03:30:18 -0.3 C 25 %
1894 26-03-2020 03:40:18 -0.3 C 27 %
1895 26-03-2020 03:50:17 -0.4 C 27 %
1896 26-03-2020 04:00:17 -0.1 C 26 %
1897 26-03-2020 04:10:17 -0.3 C 25 %
1898 26-03-2020 04:20:17 -0.3 C 26 %
1899 26-03-2020 04:30:18 -0.4 C 26 %
1900 26-03-2020 04:40:18 -0.4 C 26 %
Sensor: Nr:Datum:Temp:Feuchte:
Aussen-T/F 1901 26-03-2020 04:50:17 -0.5 C 26 %
1902 26-03-2020 05:00:18 -0.5 C 27 %
1903 26-03-2020 05:10:18 -0.6 C 27 %
1904 26-03-2020 05:20:17 -0.6 C 28 %
1905 26-03-2020 05:30:17 -0.7 C 28 %
1906 26-03-2020 05:40:18 -0.5 C 28 %
1907 26-03-2020 05:50:17 -0.6 C 28 %
1908 26-03-2020 06:00:18 -0.7 C 29 %
1909 26-03-2020 06:10:18 -0.8 C 28 %
1910 26-03-2020 06:20:18 -0.9 C 28 %
1911 26-03-2020 06:30:18 -1 C 28 %
1912 26-03-2020 06:40:18 -0.9 C 30 %
1913 26-03-2020 06:50:18 -1.1 C 30 %
1914 26-03-2020 07:00:18 -0.8 C 30 %
1915 26-03-2020 07:10:18 -1.1 C 30 %
1916 26-03-2020 07:20:18 -0.6 C 30 %
1917 26-03-2020 07:30:18 -0.4 C 30 %
1918 26-03-2020 07:40:18 0.2 C 27 %
1919 26-03-2020 07:50:17 0.5 C 25 %
1920 26-03-2020 08:00:18 0.3 C 28 %
1921 26-03-2020 08:10:18 0.4 C 28 %
1922 26-03-2020 08:20:18 0.7 C 26 %
1923 26-03-2020 08:30:18 1.4 C 21 %
1924 26-03-2020 08:40:18 1.7 C 21 %
1925 26-03-2020 08:50:17 2.2 C 20 %
Sensor: Nr:Datum:Temp:Feuchte:
Aussen-T/F 1926 26-03-2020 09:00:18 2.3 C 20 %
1927 26-03-2020 09:10:18 2.3 C 20 %
1928 26-03-2020 09:20:18 2.7 C 20 %
1929 26-03-2020 09:30:18 3.2 C 20 %
1930 26-03-2020 09:40:18 3.5 C 20 %
1931 26-03-2020 09:50:18 4.1 C 20 %
1932 26-03-2020 10:00:18 4.4 C 20 %
1933 26-03-2020 10:10:18 4.9 C 20 %
1934 26-03-2020 10:20:18 5 C 20 %
1935 26-03-2020 10:30:18 5.4 C 20 %
1936 26-03-2020 10:40:18 5.9 C 20 %
1937 26-03-2020 10:50:17 6 C 20 %
1938 26-03-2020 11:00:18 6.6 C 20 %
1939 26-03-2020 11:10:18 6.9 C 20 %
1940 26-03-2020 11:20:18 7.3 C 20 %
1941 26-03-2020 11:30:18 8.5 C 20 %
1942 26-03-2020 11:40:18 8.3 C 20 %
1943 26-03-2020 11:50:18 7.3 C 20 %
1944 26-03-2020 12:00:18 8 C 20 %
1945 26-03-2020 12:10:18 9.1 C 20 %
1946 26-03-2020 12:20:17 9.6 C 20 %
1947 26-03-2020 12:30:17 9.6 C 20 %
1948 26-03-2020 12:40:17 9.6 C 20 %
1949 26-03-2020 12:50:17 9.7 C 20 %
1950 26-03-2020 13:00:17 10.4 C 20 %
Sensor: Nr:Datum:Temp:Feuchte:
Aussen-T/F 1951 26-03-2020 13:10:17 10.8 C 20 %
1952 26-03-2020 13:20:18 11.5 C 20 %
1953 26-03-2020 13:30:18 11.5 C 20 %
1954 26-03-2020 13:40:18 12.1 C 20 %
1955 26-03-2020 13:50:18 13 C 20 %
1956 26-03-2020 14:00:18 12 C 20 %
1957 26-03-2020 14:10:18 12.2 C 20 %
1958 26-03-2020 14:20:18 11.9 C 20 %
1959 26-03-2020 14:30:18 14.3 C 20 %
1960 26-03-2020 14:40:18 14.2 C 20 %
1961 26-03-2020 14:50:17 14 C 20 %
1962 26-03-2020 15:00:17 15.3 C 20 %
1963 26-03-2020 15:10:18 14.2 C 20 %
1964 26-03-2020 15:20:18 14 C 20 %
1965 26-03-2020 15:30:18 15.6 C 20 %
1966 26-03-2020 15:40:18 15.6 C 20 %
1967 26-03-2020 15:50:18 16.5 C 20 %
1968 26-03-2020 16:00:18 15.6 C 20 %
1969 26-03-2020 16:10:18 15.3 C 20 %
1970 26-03-2020 16:20:18 12.5 C 20 %
1971 26-03-2020 16:30:18 12.3 C 20 %
1972 26-03-2020 16:40:18 13.9 C 20 %
1973 26-03-2020 16:50:18 12.8 C 20 %
1974 26-03-2020 17:00:18 11.4 C 20 %
1975 26-03-2020 17:10:18 11 C 20 %
Sensor: Nr:Datum:Temp:Feuchte:
Aussen-T/F 1976 26-03-2020 17:20:17 10.9 C 20 %
1977 26-03-2020 17:30:17 11 C 20 %
1978 26-03-2020 17:40:17 11.1 C 20 %
1979 26-03-2020 17:50:17 10.7 C 20 %
1980 26-03-2020 18:00:17 10.5 C 20 %
1981 26-03-2020 18:10:17 10.3 C 20 %
1982 26-03-2020 18:20:18 10.1 C 20 %
1983 26-03-2020 18:30:18 9.8 C 20 %
1984 26-03-2020 18:40:18 9.4 C 20 %
1985 26-03-2020 18:50:17 8.6 C 20 %
1986 26-03-2020 19:00:17 8 C 20 %
1987 26-03-2020 19:10:17 7.4 C 20 %
1988 26-03-2020 19:20:17 6.9 C 21 %
1989 26-03-2020 19:30:17 6.7 C 21 %
1990 26-03-2020 19:40:17 6.4 C 21 %
1991 26-03-2020 19:50:17 6.5 C 21 %
1992 26-03-2020 20:00:17 6.2 C 23 %
1993 26-03-2020 20:10:18 6 C 23 %
1994 26-03-2020 20:20:18 5.7 C 25 %
1995 26-03-2020 20:30:17 5.4 C 26 %
1996 26-03-2020 20:40:17 4.9 C 28 %
1997 26-03-2020 20:50:17 4.9 C 28 %
1998 26-03-2020 21:00:17 4.7 C 29 %
1999 26-03-2020 21:10:17 4.5 C 29 %
2000 26-03-2020 21:20:17 4.5 C 30 %
Sensor: Nr:Datum:Temp:Feuchte:
Aussen-T/F 2001 26-03-2020 21:30:18 4.1 C 30 %
2002 26-03-2020 21:40:18 4.6 C 30 %
2003 26-03-2020 21:50:18 4.6 C 30 %
2004 26-03-2020 22:00:18 4.6 C 30 %
2005 26-03-2020 22:10:18 4.6 C 30 %
2006 26-03-2020 22:20:17 4.5 C 30 %
2007 26-03-2020 22:30:17 4.5 C 30 %
2008 26-03-2020 22:40:17 4.5 C 30 %
2009 26-03-2020 22:50:17 4.4 C 30 %
2010 26-03-2020 23:00:18 4.5 C 30 %
2011 26-03-2020 23:10:18 4.2 C 30 %
2012 26-03-2020 23:20:17 4.2 C 30 %
2013 26-03-2020 23:30:18 3.9 C 31 %
2014 26-03-2020 23:40:18 4 C 30 %
2015 26-03-2020 23:50:18 3.9 C 31 %
2016 27-03-2020 00:00:18 4 C 30 %
2017 27-03-2020 00:10:18 3.9 C 31 %
2018 27-03-2020 00:20:17 4 C 30 %
2019 27-03-2020 00:30:17 4 C 30 %
2020 27-03-2020 00:40:17 3.7 C 32 %
2021 27-03-2020 00:50:18 3.6 C 32 %
2022 27-03-2020 01:00:18 2.7 C 35 %
2023 27-03-2020 01:10:18 2.5 C 36 %
2024 27-03-2020 01:20:17 3 C 35 %
2025 27-03-2020 01:30:18 3.1 C 35 %
Sensor: Nr:Datum:Temp:Feuchte:
Aussen-T/F 2026 27-03-2020 01:40:18 2.7 C 36 %
2027 27-03-2020 01:50:18 3 C 35 %
2028 27-03-2020 02:00:18 2.9 C 35 %
2029 27-03-2020 02:10:18 2.8 C 35 %
2030 27-03-2020 02:20:17 2.7 C 35 %
2031 27-03-2020 02:30:17 2.5 C 36 %
2032 27-03-2020 02:40:17 2.5 C 36 %
2033 27-03-2020 02:50:17 2.6 C 35 %
2034 27-03-2020 03:00:17 2.6 C 35 %
2035 27-03-2020 03:10:17 2.2 C 36 %
2036 27-03-2020 03:20:17 2.5 C 35 %
2037 27-03-2020 03:30:17 2.4 C 35 %
2038 27-03-2020 03:40:17 2.6 C 35 %
2039 27-03-2020 03:50:17 2.4 C 36 %
2040 27-03-2020 04:00:18 2.4 C 35 %
2041 27-03-2020 04:10:18 2.4 C 35 %
2042 27-03-2020 04:20:18 1.4 C 38 %
2043 27-03-2020 04:30:18 1.3 C 38 %
2044 27-03-2020 04:40:18 1.6 C 38 %
2045 27-03-2020 04:50:17 1.8 C 37 %
2046 27-03-2020 05:00:18 1.5 C 38 %
2047 27-03-2020 05:10:18 0.7 C 40 %
2048 27-03-2020 05:20:18 0.4 C 40 %
2049 27-03-2020 05:30:18 0 C 41 %
2050 27-03-2020 05:40:18 0 C 42 %
Sensor: Nr:Datum:Temp:Feuchte:
Aussen-T/F 2051 27-03-2020 05:50:18 -0.1 C 42 %
2052 27-03-2020 06:00:18 -0.5 C 42 %
2053 27-03-2020 06:10:18 -0.6 C 43 %
2054 27-03-2020 06:20:18 -0.4 C 43 %
2055 27-03-2020 06:30:18 -0.4 C 43 %
2056 27-03-2020 06:40:18 -0.3 C 43 %
2057 27-03-2020 06:50:17 -0.3 C 43 %
2058 27-03-2020 07:00:18 -0.2 C 43 %
2059 27-03-2020 07:10:18 -0.1 C 43 %
2060 27-03-2020 07:20:18 0.1 C 43 %
2061 27-03-2020 07:30:18 0.3 C 43 %
2062 27-03-2020 07:40:18 0.8 C 43 %
2063 27-03-2020 07:50:17 1.2 C 41 %
2064 27-03-2020 08:00:17 1.1 C 41 %
2065 27-03-2020 08:10:18 1.9 C 40 %
2066 27-03-2020 08:20:18 1.7 C 40 %
2067 27-03-2020 08:30:18 1.6 C 41 %
2068 27-03-2020 08:40:18 1.9 C 41 %
2069 27-03-2020 08:50:17 2.6 C 39 %
2070 27-03-2020 09:00:18 3 C 38 %
2071 27-03-2020 09:10:18 3.3 C 37 %
2072 27-03-2020 09:20:17 3.6 C 37 %
2073 27-03-2020 09:30:18 4.1 C 36 %
2074 27-03-2020 09:40:18 4.5 C 35 %
2075 27-03-2020 09:50:18 5.3 C 35 %
Sensor: Nr:Datum:Temp:Feuchte:
Aussen-T/F 2076 27-03-2020 10:00:18 5.8 C 34 %
2077 27-03-2020 10:10:18 6.5 C 32 %
2078 27-03-2020 10:20:17 7.6 C 30 %
2079 27-03-2020 10:30:17 8.1 C 28 %
2080 27-03-2020 10:40:17 9.1 C 25 %
2081 27-03-2020 10:50:17 9.3 C 25 %
2082 27-03-2020 11:00:17 10.2 C 20 %
2083 27-03-2020 11:10:17 11 C 20 %
2084 27-03-2020 11:20:17 12.4 C 20 %
2085 27-03-2020 11:30:17 14.5 C 20 %
2086 27-03-2020 11:40:17 14.2 C 20 %
2087 27-03-2020 11:50:17 12.5 C 20 %
2088 27-03-2020 12:00:17 13.4 C 20 %
2089 27-03-2020 12:10:17 13.7 C 20 %
2090 27-03-2020 12:20:17 14.4 C 20 %
2091 27-03-2020 12:30:17 14.1 C 20 %
2092 27-03-2020 12:40:18 14.2 C 20 %
2093 27-03-2020 12:50:18 14.6 C 20 %
2094 27-03-2020 13:00:18 16.6 C 20 %
2095 27-03-2020 13:10:18 15.8 C 20 %
2096 27-03-2020 13:20:17 17.6 C 20 %
2097 27-03-2020 13:30:18 18.8 C 20 %
2098 27-03-2020 13:40:18 16.8 C 20 %
2099 27-03-2020 13:50:18 17.3 C 20 %
2100 27-03-2020 14:00:18 16.9 C 20 %
Sensor: Nr:Datum:Temp:Feuchte:
Aussen-T/F 2101 27-03-2020 14:10:18 17.6 C 20 %
2102 27-03-2020 14:20:18 17.7 C 20 %
2103 27-03-2020 14:30:17 20.4 C 20 %
2104 27-03-2020 14:40:17 18.1 C 20 %
2105 27-03-2020 14:50:17 18.4 C 20 %
2106 27-03-2020 15:00:17 18.5 C 20 %
2107 27-03-2020 15:10:17 18.7 C 20 %
2108 27-03-2020 15:20:17 18.9 C 20 %
2109 27-03-2020 15:30:18 19.4 C 20 %
2110 27-03-2020 15:40:18 18.3 C 20 %
2111 27-03-2020 15:50:17 19.5 C 20 %
2112 27-03-2020 16:00:17 18.5 C 20 %
2113 27-03-2020 16:10:17 18.2 C 20 %
2114 27-03-2020 16:20:17 19.2 C 20 %
2115 27-03-2020 16:30:17 18.3 C 20 %
2116 27-03-2020 16:40:17 18 C 20 %
2117 27-03-2020 16:50:17 17 C 20 %
2118 27-03-2020 17:00:18 16.4 C 20 %
2119 27-03-2020 17:10:18 16.3 C 20 %
2120 27-03-2020 17:20:18 16.1 C 20 %
2121 27-03-2020 17:30:18 16 C 20 %
2122 27-03-2020 17:40:18 15.8 C 20 %
2123 27-03-2020 17:50:18 15.7 C 20 %
2124 27-03-2020 18:00:17 15.4 C 20 %
2125 27-03-2020 18:10:17 15 C 20 %
Sensor: Nr:Datum:Temp:Feuchte:
Aussen-T/F 2126 27-03-2020 18:20:17 14.1 C 20 %
2127 27-03-2020 18:30:18 13.5 C 20 %
2128 27-03-2020 18:40:18 12.9 C 20 %
2129 27-03-2020 18:50:18 12.3 C 20 %
2130 27-03-2020 19:00:18 11.8 C 20 %
2131 27-03-2020 19:10:18 11.5 C 20 %
2132 27-03-2020 19:20:17 11.4 C 20 %
2133 27-03-2020 19:30:17 10.7 C 20 %
2134 27-03-2020 19:40:17 10.7 C 21 %
2135 27-03-2020 19:50:17 10.4 C 23 %
2136 27-03-2020 20:00:18 10.4 C 22 %
2137 27-03-2020 20:10:18 9.2 C 26 %
2138 27-03-2020 20:20:17 8.9 C 28 %
2139 27-03-2020 20:30:17 8.4 C 30 %
2140 27-03-2020 20:40:17 8.1 C 30 %
2141 27-03-2020 20:50:18 7.8 C 31 %
2142 27-03-2020 21:00:17 7.4 C 31 %
2143 27-03-2020 21:10:17 7.3 C 32 %
2144 27-03-2020 21:20:17 7.1 C 32 %
2145 27-03-2020 21:30:17 7 C 32 %
2146 27-03-2020 21:40:17 6.6 C 33 %
2147 27-03-2020 21:50:17 6.6 C 34 %
2148 27-03-2020 22:00:17 6.4 C 34 %
2149 27-03-2020 22:10:17 6.3 C 34 %
2150 27-03-2020 22:20:17 6 C 35 %
Sensor: Nr:Datum:Temp:Feuchte:
Aussen-T/F 2151 27-03-2020 22:30:18 5.8 C 35 %
2152 27-03-2020 22:40:18 5.6 C 35 %
2153 27-03-2020 22:50:18 5.5 C 36 %
2154 27-03-2020 23:00:18 5.6 C 36 %
2155 27-03-2020 23:10:18 5.6 C 36 %
2156 27-03-2020 23:20:17 5.3 C 36 %
2157 27-03-2020 23:30:17 5.2 C 36 %
2158 27-03-2020 23:40:17 5.1 C 36 %
2159 27-03-2020 23:50:17 4.8 C 37 %
2160 28-03-2020 00:00:17 4.8 C 38 %
2161 28-03-2020 00:10:17 4.8 C 39 %
2162 28-03-2020 00:20:17 5 C 37 %
2163 28-03-2020 00:30:18 4.9 C 38 %
2164 28-03-2020 00:40:18 4.7 C 38 %
2165 28-03-2020 00:50:17 4.7 C 38 %
2166 28-03-2020 01:00:17 4.6 C 38 %
2167 28-03-2020 01:10:17 4.4 C 39 %
2168 28-03-2020 01:20:17 4.3 C 39 %
2169 28-03-2020 01:30:17 4.1 C 39 %
2170 28-03-2020 01:40:18 3.9 C 40 %
2171 28-03-2020 01:50:17 3.7 C 41 %
2172 28-03-2020 02:00:18 3.6 C 41 %
2173 28-03-2020 02:10:18 3.3 C 41 %
2174 28-03-2020 02:20:18 3.1 C 41 %
2175 28-03-2020 02:30:17 3.7 C 42 %
Sensor: Nr:Datum:Temp:Feuchte:
Aussen-T/F 2176 28-03-2020 02:40:17 3.7 C 41 %
2177 28-03-2020 02:50:18 3.4 C 41 %
2178 28-03-2020 03:00:18 3.1 C 41 %
2179 28-03-2020 03:10:18 2.9 C 42 %
2180 28-03-2020 03:20:17 2.8 C 43 %
2181 28-03-2020 03:30:18 2.6 C 43 %
2182 28-03-2020 03:40:18 2.1 C 43 %
2183 28-03-2020 03:50:17 2.1 C 44 %
2184 28-03-2020 04:00:18 2.2 C 44 %
2185 28-03-2020 04:10:18 2.1 C 44 %
2186 28-03-2020 04:20:18 1.9 C 45 %
2187 28-03-2020 04:30:18 1.7 C 45 %
2188 28-03-2020 04:40:18 1.8 C 46 %
2189 28-03-2020 04:50:17 1.8 C 46 %
2190 28-03-2020 05:00:18 1.7 C 45 %
2191 28-03-2020 05:10:18 1.6 C 45 %
2192 28-03-2020 05:20:17 1.5 C 45 %
2193 28-03-2020 05:30:18 1.3 C 46 %
2194 28-03-2020 05:40:18 1.2 C 46 %
2195 28-03-2020 05:50:18 1.2 C 46 %
2196 28-03-2020 06:00:18 1.2 C 46 %
2197 28-03-2020 06:10:18 1.3 C 46 %
2198 28-03-2020 06:20:17 1.1 C 46 %
2199 28-03-2020 06:30:17 1.1 C 46 %
2200 28-03-2020 06:40:17 1 C 46 %
Sensor: Nr:Datum:Temp:Feuchte:
Aussen-T/F 2201 28-03-2020 06:50:17 1.2 C 47 %
2202 28-03-2020 07:00:17 1.5 C 47 %
2203 28-03-2020 07:10:17 1.7 C 47 %
2204 28-03-2020 07:20:17 1.9 C 47 %
2205 28-03-2020 07:30:18 1.9 C 46 %
2206 28-03-2020 07:40:18 1.9 C 46 %
2207 28-03-2020 07:50:17 2 C 45 %
2208 28-03-2020 08:00:17 2.2 C 45 %
2209 28-03-2020 08:10:18 2.5 C 45 %
2210 28-03-2020 08:20:18 2.8 C 46 %
2211 28-03-2020 08:30:17 3.2 C 45 %
2212 28-03-2020 08:40:17 3.7 C 44 %
2213 28-03-2020 08:50:18 4 C 43 %
2214 28-03-2020 09:00:18 4.6 C 43 %
2215 28-03-2020 09:10:18 5.1 C 41 %
2216 28-03-2020 09:20:17 5.7 C 41 %
2217 28-03-2020 09:30:18 6.3 C 40 %
2218 28-03-2020 09:40:18 6.9 C 40 %
2219 28-03-2020 09:50:18 7.8 C 38 %
2220 28-03-2020 10:00:18 8.4 C 37 %
2221 28-03-2020 10:10:18 9.5 C 35 %
2222 28-03-2020 10:20:17 10.2 C 32 %
2223 28-03-2020 10:30:17 10.9 C 31 %
2224 28-03-2020 10:40:17 11.6 C 30 %
2225 28-03-2020 10:50:18 12.2 C 29 %
Sensor: Nr:Datum:Temp:Feuchte:
Aussen-T/F 2226 28-03-2020 11:00:18 13.4 C 26 %
2227 28-03-2020 11:10:18 13.6 C 25 %
2228 28-03-2020 11:20:17 15.8 C 20 %
2229 28-03-2020 11:30:17 16.7 C 20 %
2230 28-03-2020 11:40:17 16.4 C 20 %
2231 28-03-2020 11:50:18 15.9 C 20 %
2232 28-03-2020 12:00:17 16.6 C 20 %
2233 28-03-2020 12:10:17 17 C 20 %
2234 28-03-2020 12:20:17 17.7 C 20 %
2235 28-03-2020 12:30:17 17.8 C 20 %
2236 28-03-2020 12:40:17 18.1 C 20 %
2237 28-03-2020 12:50:18 18 C 20 %
2238 28-03-2020 13:00:18 18.6 C 20 %
2239 28-03-2020 13:10:18 19.6 C 20 %
2240 28-03-2020 13:20:18 21.7 C 20 %
2241 28-03-2020 13:30:17 21.1 C 20 %
2242 28-03-2020 13:40:17 20.7 C 20 %
2243 28-03-2020 13:50:18 20.6 C 20 %
2244 28-03-2020 14:00:17 21.1 C 20 %
2245 28-03-2020 14:10:17 21.3 C 20 %
2246 28-03-2020 14:20:17 21.9 C 20 %
2247 28-03-2020 14:30:17 23.7 C 20 %
2248 28-03-2020 14:40:17 24.3 C 20 %
2249 28-03-2020 14:50:17 23.2 C 20 %
2250 28-03-2020 15:00:18 22.4 C 20 %
Sensor: Nr:Datum:Temp:Feuchte:
Aussen-T/F 2251 28-03-2020 15:10:18 19.9 C 20 %
2252 28-03-2020 15:20:18 18.6 C 20 %
2253 28-03-2020 15:30:18 19.6 C 20 %
2254 28-03-2020 15:40:18 22.1 C 20 %
2255 28-03-2020 15:50:18 20.5 C 20 %
2256 28-03-2020 16:00:18 21.1 C 20 %
2257 28-03-2020 16:10:18 21.1 C 20 %
2258 28-03-2020 16:20:18 19.9 C 20 %
2259 28-03-2020 16:30:18 19.6 C 20 %
2260 28-03-2020 16:40:18 19.6 C 20 %
2261 28-03-2020 16:50:18 18.5 C 20 %
2262 28-03-2020 17:00:18 17.9 C 20 %
2263 28-03-2020 17:10:18 17 C 20 %
2264 28-03-2020 17:20:18 16.6 C 20 %
2265 28-03-2020 17:30:18 16.2 C 20 %
2266 28-03-2020 17:40:18 16.2 C 20 %
2267 28-03-2020 17:50:17 15.4 C 20 %
2268 28-03-2020 18:00:18 14.9 C 20 %
2269 28-03-2020 18:10:18 14.6 C 20 %
2270 28-03-2020 18:20:17 14 C 20 %
2271 28-03-2020 18:30:17 13.5 C 20 %
2272 28-03-2020 18:40:17 13.1 C 20 %
2273 28-03-2020 18:50:18 12.6 C 20 %
2274 28-03-2020 19:00:18 12.3 C 20 %
2275 28-03-2020 19:10:18 11.7 C 20 %
Sensor: Nr:Datum:Temp:Feuchte:
Aussen-T/F 2276 28-03-2020 19:20:18 11.7 C 20 %
2277 28-03-2020 19:30:18 11.4 C 20 %
2278 28-03-2020 19:40:18 11.2 C 20 %
2279 28-03-2020 19:50:17 10.8 C 20 %
2280 28-03-2020 20:00:18 10.3 C 20 %
2281 28-03-2020 20:10:18 10.7 C 20 %
2282 28-03-2020 20:20:17 10.5 C 20 %
2283 28-03-2020 20:30:18 10 C 20 %
2284 28-03-2020 20:40:18 9.2 C 20 %
2285 28-03-2020 20:50:17 8.7 C 20 %
2286 28-03-2020 21:00:17 8.8 C 20 %
2287 28-03-2020 21:10:17 9.2 C 20 %
2288 28-03-2020 21:20:17 8.7 C 23 %
2289 28-03-2020 21:30:17 8.1 C 25 %
2290 28-03-2020 21:40:17 8.4 C 23 %
2291 28-03-2020 21:50:17 7.6 C 25 %
2292 28-03-2020 22:00:17 8.3 C 25 %
2293 28-03-2020 22:10:17 8.5 C 21 %
2294 28-03-2020 22:20:17 8.4 C 25 %
2295 28-03-2020 22:30:17 8.3 C 26 %
2296 28-03-2020 22:40:17 7.9 C 26 %
2297 28-03-2020 22:50:17 7.4 C 28 %
2298 28-03-2020 23:00:17 7.3 C 30 %
2299 28-03-2020 23:10:17 7.2 C 30 %
2300 28-03-2020 23:20:18 7.1 C 30 %
Sensor: Nr:Datum:Temp:Feuchte:
Aussen-T/F 2301 28-03-2020 23:30:18 7.1 C 31 %
2302 28-03-2020 23:40:18 6.8 C 32 %
2303 28-03-2020 23:50:17 6.7 C 33 %
2304 29-03-2020 00:00:18 6.5 C 33 %
2305 29-03-2020 00:10:18 6.4 C 33 %
2306 29-03-2020 00:20:17 6.2 C 33 %
2307 29-03-2020 00:30:17 6.5 C 33 %
2308 29-03-2020 00:40:17 6.6 C 33 %
2309 29-03-2020 00:50:18 6.5 C 32 %
2310 29-03-2020 01:00:18 6.3 C 32 %
2311 29-03-2020 01:10:18 6.3 C 32 %
2312 29-03-2020 01:20:17 6.2 C 32 %
2313 29-03-2020 01:30:17 6.1 C 32 %
2314 29-03-2020 01:40:17 6 C 31 %
2315 29-03-2020 01:50:17 6 C 31 %
2316 29-03-2020 02:00:17 5.8 C 31 %
2317 29-03-2020 02:10:17 5.7 C 31 %
2318 29-03-2020 02:20:18 5.4 C 31 %
2319 29-03-2020 02:30:18 5 C 31 %
2320 29-03-2020 02:40:18 4.7 C 32 %
2321 29-03-2020 02:50:18 4.7 C 32 %
2322 29-03-2020 04:00:18 4.6 C 31 %
2323 29-03-2020 04:10:18 4.2 C 32 %
2324 29-03-2020 04:20:17 4.1 C 31 %
2325 29-03-2020 04:30:17 4.3 C 31 %
Sensor: Nr:Datum:Temp:Feuchte:
Aussen-T/F 2326 29-03-2020 04:40:17 4.4 C 31 %
2327 29-03-2020 04:50:18 4.3 C 31 %
2328 29-03-2020 05:00:17 4.4 C 32 %
2329 29-03-2020 05:10:17 4.3 C 32 %
2330 29-03-2020 05:20:17 4.2 C 31 %
2331 29-03-2020 05:30:17 4 C 31 %
2332 29-03-2020 05:40:17 3.8 C 32 %
2333 29-03-2020 05:50:18 3.5 C 32 %
2334 29-03-2020 06:00:18 3.1 C 32 %
2335 29-03-2020 06:10:18 2.8 C 33 %
2336 29-03-2020 06:20:17 2.5 C 33 %
2337 29-03-2020 06:30:18 2.9 C 33 %
2338 29-03-2020 06:40:18 3.2 C 32 %
2339 29-03-2020 06:50:17 3.3 C 33 %
2340 29-03-2020 07:00:18 3.4 C 33 %
2341 29-03-2020 07:10:18 3.5 C 34 %
2342 29-03-2020 07:20:17 3.5 C 35 %
2343 29-03-2020 07:30:17 3.6 C 35 %
2344 29-03-2020 07:40:17 3.7 C 35 %
2345 29-03-2020 07:50:17 3.7 C 35 %
2346 29-03-2020 08:00:18 3.8 C 35 %
2347 29-03-2020 08:10:18 3.8 C 35 %
2348 29-03-2020 08:20:17 4.1 C 33 %
2349 29-03-2020 08:30:17 4.1 C 33 %
2350 29-03-2020 08:40:17 4.3 C 33 %
Sensor: Nr:Datum:Temp:Feuchte:
Aussen-T/F 2351 29-03-2020 08:50:17 4 C 33 %
2352 29-03-2020 09:00:17 4.3 C 33 %
2353 29-03-2020 09:10:17 4.2 C 32 %
2354 29-03-2020 09:20:17 4.1 C 33 %
2355 29-03-2020 09:30:17 4.2 C 33 %
2356 29-03-2020 09:40:17 4.5 C 32 %
2357 29-03-2020 09:50:17 4.8 C 32 %
2358 29-03-2020 10:00:17 5 C 31 %
2359 29-03-2020 10:10:17 5.3 C 31 %
2360 29-03-2020 10:20:17 5.8 C 30 %
2361 29-03-2020 10:30:18 5.6 C 30 %
2362 29-03-2020 10:40:18 6.2 C 30 %
2363 29-03-2020 10:50:17 6.2 C 28 %
2364 29-03-2020 11:00:18 6.5 C 25 %
2365 29-03-2020 11:10:18 6.5 C 25 %
2366 29-03-2020 11:20:18 6 C 25 %
2367 29-03-2020 11:30:18 6.1 C 25 %
2368 29-03-2020 11:40:18 6.2 C 25 %
2369 29-03-2020 11:50:17 6.3 C 25 %
2370 29-03-2020 12:00:17 6.2 C 25 %
2371 29-03-2020 12:10:17 5.6 C 27 %
2372 29-03-2020 12:20:17 5.5 C 27 %
2373 29-03-2020 12:30:17 5.7 C 27 %
2374 29-03-2020 12:40:17 5.8 C 26 %
2375 29-03-2020 12:50:18 6.4 C 26 %
Sensor: Nr:Datum:Temp:Feuchte:
Aussen-T/F 2376 29-03-2020 13:00:18 6.3 C 25 %
2377 29-03-2020 13:10:18 6.1 C 25 %
2378 29-03-2020 13:20:17 6.6 C 23 %
2379 29-03-2020 13:30:17 6.8 C 20 %
2380 29-03-2020 13:40:18 8.1 C 20 %
2381 29-03-2020 13:50:17 8.4 C 20 %
2382 29-03-2020 14:00:18 7.6 C 20 %
2383 29-03-2020 14:10:18 7.5 C 20 %
2384 29-03-2020 14:20:17 7 C 20 %
2385 29-03-2020 14:30:17 6.7 C 20 %
2386 29-03-2020 14:40:17 6.5 C 20 %
2387 29-03-2020 14:50:17 6.7 C 20 %
2388 29-03-2020 15:00:17 7.2 C 20 %
2389 29-03-2020 15:10:17 7.4 C 20 %
2390 29-03-2020 15:20:17 7.4 C 20 %
2391 29-03-2020 15:30:18 7.6 C 20 %
2392 29-03-2020 15:40:18 7.6 C 20 %
2393 29-03-2020 15:50:17 8 C 20 %
2394 29-03-2020 16:00:18 7.4 C 20 %
2395 29-03-2020 16:10:18 7 C 20 %
2396 29-03-2020 16:20:17 6.7 C 20 %
2397 29-03-2020 16:30:18 6.5 C 20 %
2398 29-03-2020 16:40:18 6.6 C 20 %
2399 29-03-2020 16:50:18 6.8 C 20 %
2400 29-03-2020 17:00:18 7 C 20 %
Sensor: Nr:Datum:Temp:Feuchte:
Aussen-T/F 2401 29-03-2020 17:10:18 6.8 C 20 %
2402 29-03-2020 17:20:17 7.4 C 20 %
2403 29-03-2020 17:30:17 7 C 20 %
2404 29-03-2020 17:40:17 7 C 20 %
2405 29-03-2020 17:50:18 6.8 C 25 %
2406 29-03-2020 18:00:18 7.1 C 23 %
2407 29-03-2020 18:10:18 6.5 C 25 %
2408 29-03-2020 18:20:18 6.2 C 25 %
2409 29-03-2020 18:30:18 5.3 C 29 %
2410 29-03-2020 18:40:18 4.4 C 35 %
2411 29-03-2020 18:50:18 4.1 C 36 %
2412 29-03-2020 19:00:18 4 C 36 %
2413 29-03-2020 19:10:18 3.6 C 39 %
2414 29-03-2020 19:20:17 3.6 C 40 %
2415 29-03-2020 19:30:17 3.4 C 40 %
2416 29-03-2020 19:40:17 3.2 C 41 %
2417 29-03-2020 19:50:17 3.1 C 41 %
2418 29-03-2020 20:00:17 3 C 41 %
2419 29-03-2020 20:10:17 3 C 41 %
2420 29-03-2020 20:20:18 2.9 C 42 %
2421 29-03-2020 20:30:18 3 C 41 %
2422 29-03-2020 20:40:18 3.3 C 40 %
2423 29-03-2020 20:50:18 3.5 C 40 %
2424 29-03-2020 21:00:18 3.6 C 39 %
2425 29-03-2020 21:10:18 3.7 C 39 %
Sensor: Nr:Datum:Temp:Feuchte:
Aussen-T/F 2426 29-03-2020 21:20:18 3.7 C 38 %
2427 29-03-2020 21:30:17 3.7 C 37 %
2428 29-03-2020 21:40:17 3.8 C 37 %
2429 29-03-2020 21:50:17 3.8 C 37 %
2430 29-03-2020 22:00:17 3.7 C 37 %
2431 29-03-2020 22:10:17 3.7 C 36 %
2432 29-03-2020 22:20:18 3.7 C 36 %
2433 29-03-2020 22:30:18 3.6 C 36 %
2434 29-03-2020 22:40:18 3.6 C 36 %
2435 29-03-2020 22:50:18 3.6 C 35 %
2436 29-03-2020 23:00:18 3.6 C 35 %
2437 29-03-2020 23:10:18 3.5 C 35 %
2438 29-03-2020 23:20:17 3.4 C 34 %
2439 29-03-2020 23:30:17 3.3 C 33 %
2440 29-03-2020 23:40:17 3.1 C 33 %
2441 29-03-2020 23:50:17 2.9 C 33 %
2442 30-03-2020 00:00:18 2.5 C 34 %
2443 30-03-2020 00:10:18 2.4 C 33 %
2444 30-03-2020 00:20:17 2.4 C 33 %
2445 30-03-2020 00:30:17 1.7 C 35 %
2446 30-03-2020 00:40:17 1 C 36 %
2447 30-03-2020 00:50:17 0.3 C 38 %
2448 30-03-2020 01:00:18 0.2 C 38 %
2449 30-03-2020 01:10:18 0.3 C 38 %
2450 30-03-2020 01:20:17 0.3 C 37 %
Sensor: Nr:Datum:Temp:Feuchte:
Aussen-T/F 2451 30-03-2020 01:30:18 0.5 C 36 %
2452 30-03-2020 01:40:18 -0.1 C 37 %
2453 30-03-2020 01:50:17 -0.3 C 37 %
2454 30-03-2020 02:00:17 -0.8 C 38 %
2455 30-03-2020 02:10:17 -0.9 C 38 %
2456 30-03-2020 02:20:17 -1.5 C 39 %
2457 30-03-2020 02:30:18 -1.7 C 39 %
2458 30-03-2020 02:40:18 -1.6 C 40 %
2459 30-03-2020 02:50:17 -1.6 C 39 %
2460 30-03-2020 03:00:18 -1.7 C 39 %
2461 30-03-2020 03:10:18 -1.3 C 38 %
2462 30-03-2020 03:20:18 -1.7 C 39 %
2463 30-03-2020 03:30:18 -2.2 C 40 %
2464 30-03-2020 03:40:18 -2.1 C 40 %
2465 30-03-2020 03:50:17 -2.1 C 40 %
2466 30-03-2020 04:00:18 -1.9 C 39 %
2467 30-03-2020 04:10:18 -2.2 C 39 %
2468 30-03-2020 04:20:17 -2 C 39 %
2469 30-03-2020 04:30:17 -2.4 C 39 %
2470 30-03-2020 04:40:17 -2.6 C 39 %
2471 30-03-2020 04:50:17 -2.4 C 39 %
2472 30-03-2020 05:00:17 -2.4 C 38 %
2473 30-03-2020 05:10:17 -2.5 C 38 %
2474 30-03-2020 05:20:17 -2.7 C 38 %
2475 30-03-2020 05:30:18 -3 C 39 %
Sensor: Nr:Datum:Temp:Feuchte:
Aussen-T/F 2476 30-03-2020 05:40:18 -3 C 38 %
2477 30-03-2020 05:50:17 -3 C 38 %
2478 30-03-2020 06:00:18 -3 C 38 %
2479 30-03-2020 06:10:18 -3.4 C 38 %
2480 30-03-2020 06:20:17 -3.7 C 39 %
2481 30-03-2020 06:30:17 -3.9 C 40 %
2482 30-03-2020 06:40:17 -4.1 C 40 %
2483 30-03-2020 06:50:17 -3.3 C 39 %
2484 30-03-2020 07:00:17 -3.7 C 40 %
2485 30-03-2020 07:10:17 -3.2 C 39 %
2486 30-03-2020 07:20:17 -3.8 C 39 %
2487 30-03-2020 07:30:18 -4.3 C 40 %
2488 30-03-2020 07:40:18 -4.5 C 40 %
2489 30-03-2020 07:50:17 -4.5 C 40 %
2490 30-03-2020 08:00:18 -3.8 C 40 %
2491 30-03-2020 08:10:18 -3.9 C 40 %
2492 30-03-2020 08:20:18 -4.1 C 40 %
2493 30-03-2020 08:30:18 -3.7 C 39 %
2494 30-03-2020 08:40:18 -3.3 C 39 %
2495 30-03-2020 08:50:17 -3.2 C 38 %
2496 30-03-2020 09:00:18 -3.1 C 38 %
2497 30-03-2020 09:10:18 -2.7 C 37 %
2498 30-03-2020 09:20:18 -2.6 C 37 %
2499 30-03-2020 09:30:18 -2.5 C 37 %
2500 30-03-2020 09:40:18 -2.1 C 37 %
Sensor: Nr:Datum:Temp:Feuchte:
Aussen-T/F 2501 30-03-2020 09:50:18 -2.1 C 37 %
2502 30-03-2020 10:00:18 -1.6 C 36 %
2503 30-03-2020 10:10:18 -1.7 C 37 %
2504 30-03-2020 10:20:17 -1.5 C 37 %
2505 30-03-2020 10:30:17 -1.3 C 36 %
2506 30-03-2020 10:40:17 0.1 C 31 %
2507 30-03-2020 10:50:17 1 C 21 %
2508 30-03-2020 11:00:17 1.1 C 23 %
2509 30-03-2020 11:10:18 2 C 20 %
2510 30-03-2020 11:20:18 2.4 C 20 %
2511 30-03-2020 11:30:18 2.8 C 20 %
2512 30-03-2020 11:40:18 2.9 C 20 %
2513 30-03-2020 11:50:18 3.2 C 20 %
2514 30-03-2020 12:00:18 3.7 C 20 %
2515 30-03-2020 12:10:18 4 C 20 %
2516 30-03-2020 12:20:18 6.4 C 20 %
2517 30-03-2020 12:30:18 7.6 C 20 %
2518 30-03-2020 12:40:18 6.3 C 20 %
2519 30-03-2020 12:50:18 5.1 C 20 %
2520 30-03-2020 13:00:18 6.6 C 20 %
2521 30-03-2020 13:10:18 6.5 C 20 %
2522 30-03-2020 13:20:18 5.6 C 20 %
2523 30-03-2020 13:30:17 5.9 C 20 %
2524 30-03-2020 13:40:17 7 C 20 %
2525 30-03-2020 13:50:17 6.4 C 20 %
Sensor: Nr:Datum:Temp:Feuchte:
Aussen-T/F 2526 30-03-2020 14:00:17 7.1 C 20 %
2527 30-03-2020 14:10:17 8.4 C 20 %
2528 30-03-2020 14:20:18 8.9 C 20 %
2529 30-03-2020 14:30:18 9.5 C 20 %
2530 30-03-2020 14:40:18 9.7 C 20 %
2531 30-03-2020 14:50:18 10.8 C 20 %
2532 30-03-2020 15:00:18 11.3 C 20 %
2533 30-03-2020 15:10:18 11.7 C 20 %
2534 30-03-2020 15:20:17 11.6 C 20 %
2535 30-03-2020 15:30:18 13.5 C 20 %
2536 30-03-2020 15:40:18 13.6 C 20 %
2537 30-03-2020 15:50:18 11.9 C 20 %
2538 30-03-2020 16:00:18 12.9 C 20 %
2539 30-03-2020 16:10:18 13.6 C 20 %
2540 30-03-2020 16:20:17 15.2 C 20 %
2541 30-03-2020 16:30:18 9.9 C 20 %
2542 30-03-2020 16:40:18 13.9 C 20 %
2543 30-03-2020 16:50:18 13.6 C 20 %
2544 30-03-2020 17:00:17 10.1 C 20 %
2545 30-03-2020 17:10:17 13.4 C 20 %
2546 30-03-2020 17:20:18 12.5 C 20 %
2547 30-03-2020 17:30:18 12.6 C 20 %
2548 30-03-2020 17:40:18 11.6 C 20 %
2549 30-03-2020 17:50:18 10.2 C 20 %
2550 30-03-2020 18:00:18 8.7 C 20 %
Sensor: Nr:Datum:Temp:Feuchte:
Aussen-T/F 2551 30-03-2020 18:10:18 7.6 C 20 %
2552 30-03-2020 18:20:18 7.9 C 20 %
2553 30-03-2020 18:30:18 8.2 C 20 %
2554 30-03-2020 18:40:18 7.7 C 20 %
2555 30-03-2020 18:50:18 7.8 C 20 %
2556 30-03-2020 19:00:18 7.3 C 20 %
2557 30-03-2020 19:10:18 7.1 C 20 %
2558 30-03-2020 19:20:17 6.5 C 20 %
2559 30-03-2020 19:30:18 6.3 C 20 %
2560 30-03-2020 19:40:18 5.8 C 20 %
2561 30-03-2020 19:50:17 5 C 20 %
2562 30-03-2020 20:00:18 3.8 C 27 %
2563 30-03-2020 20:10:18 3 C 30 %
2564 30-03-2020 20:20:17 2.8 C 30 %
2565 30-03-2020 20:30:18 3.3 C 31 %
2566 30-03-2020 20:40:18 3.2 C 30 %
2567 30-03-2020 20:50:18 3.3 C 31 %
2568 30-03-2020 21:00:18 4 C 29 %
2569 30-03-2020 21:10:18 4.1 C 29 %
2570 30-03-2020 21:20:18 4.2 C 30 %
2571 30-03-2020 21:30:18 4.3 C 30 %
2572 30-03-2020 21:40:18 4.2 C 30 %
2573 30-03-2020 21:50:18 4.1 C 30 %
2574 30-03-2020 22:00:18 3.7 C 32 %
2575 30-03-2020 22:10:18 3.7 C 33 %
Sensor: Nr:Datum:Temp:Feuchte:
Aussen-T/F 2576 30-03-2020 22:20:17 3.9 C 32 %
2577 30-03-2020 22:30:18 4 C 31 %
2578 30-03-2020 22:40:18 4.1 C 31 %
2579 30-03-2020 22:50:18 4.2 C 31 %
2580 30-03-2020 23:00:18 4.1 C 31 %
2581 30-03-2020 23:10:18 4.2 C 30 %
2582 30-03-2020 23:20:18 4.2 C 31 %
2583 30-03-2020 23:30:18 4.1 C 31 %
2584 30-03-2020 23:40:18 4.2 C 31 %
2585 30-03-2020 23:50:17 4.2 C 31 %
2586 31-03-2020 00:00:18 4.3 C 30 %
2587 31-03-2020 00:10:18 4.3 C 30 %
2588 31-03-2020 00:20:18 4.2 C 31 %
2589 31-03-2020 00:30:18 4.2 C 31 %
2590 31-03-2020 00:40:18 4.2 C 31 %
2591 31-03-2020 00:50:18 4.3 C 31 %
2592 31-03-2020 01:00:18 4.4 C 32 %
2593 31-03-2020 01:10:18 4 C 34 %
2594 31-03-2020 01:20:18 3.8 C 36 %
2595 31-03-2020 01:30:18 3.8 C 36 %
2596 31-03-2020 01:40:18 3.7 C 37 %
2597 31-03-2020 01:50:18 4 C 37 %
2598 31-03-2020 02:00:18 3.9 C 38 %
2599 31-03-2020 02:10:18 3.4 C 39 %
2600 31-03-2020 02:20:17 3.5 C 39 %
Sensor: Nr:Datum:Temp:Feuchte:
Aussen-T/F 2601 31-03-2020 02:30:18 3.7 C 39 %
2602 31-03-2020 02:40:18 3.3 C 40 %
2603 31-03-2020 02:50:18 2.8 C 41 %
2604 31-03-2020 03:00:18 2.5 C 41 %
2605 31-03-2020 03:10:18 2.2 C 42 %
2606 31-03-2020 03:20:17 2.4 C 42 %
2607 31-03-2020 03:30:18 2.3 C 42 %
2608 31-03-2020 03:40:18 2.3 C 43 %
2609 31-03-2020 03:50:18 2.7 C 43 %
2610 31-03-2020 04:00:18 2.9 C 42 %
2611 31-03-2020 04:10:18 3 C 42 %
2612 31-03-2020 04:20:18 3.1 C 42 %
2613 31-03-2020 04:30:17 3.2 C 42 %
2614 31-03-2020 04:40:18 3.2 C 41 %
2615 31-03-2020 04:50:17 3.5 C 41 %
2616 31-03-2020 05:00:18 3.4 C 41 %
2617 31-03-2020 05:10:18 3 C 41 %
2618 31-03-2020 05:20:17 2.8 C 43 %
2619 31-03-2020 05:30:18 2.5 C 43 %
2620 31-03-2020 05:40:18 2.3 C 43 %
2621 31-03-2020 05:50:18 1.9 C 44 %
2622 31-03-2020 06:00:18 1.7 C 44 %
2623 31-03-2020 06:10:18 1.6 C 45 %
2624 31-03-2020 06:20:18 1.5 C 45 %
2625 31-03-2020 06:30:18 1.7 C 45 %
Sensor: Nr:Datum:Temp:Feuchte:
Aussen-T/F 2626 31-03-2020 06:40:18 2 C 45 %
2627 31-03-2020 06:50:18 2.1 C 45 %
2628 31-03-2020 07:00:18 2.2 C 45 %
2629 31-03-2020 07:10:18 2.3 C 45 %
2630 31-03-2020 07:20:18 2.2 C 44 %
2631 31-03-2020 07:30:18 2.1 C 44 %
2632 31-03-2020 07:40:18 1.7 C 45 %
2633 31-03-2020 07:50:17 2 C 45 %
2634 31-03-2020 08:00:18 2.5 C 45 %
2635 31-03-2020 08:10:18 3.1 C 43 %
2636 31-03-2020 08:20:18 3.3 C 42 %
2637 31-03-2020 08:30:18 3.5 C 41 %
2638 31-03-2020 08:40:18 3.7 C 40 %
2639 31-03-2020 08:50:17 4 C 38 %
2640 31-03-2020 09:00:18 3.9 C 38 %
2641 31-03-2020 09:10:18 3.9 C 37 %
2642 31-03-2020 09:20:18 4 C 36 %
2643 31-03-2020 09:30:17 4 C 36 %
2644 31-03-2020 09:40:17 4.1 C 35 %
2645 31-03-2020 09:50:18 4.3 C 35 %
2646 31-03-2020 10:00:18 4.8 C 34 %
2647 31-03-2020 10:10:18 4.7 C 34 %
2648 31-03-2020 10:20:18 4.5 C 34 %
2649 31-03-2020 10:30:18 4.4 C 34 %
2650 31-03-2020 10:40:18 4.3 C 34 %
Sensor: Nr:Datum:Temp:Feuchte:
Aussen-T/F 2651 31-03-2020 10:50:17 4.3 C 33 %
2652 31-03-2020 11:00:17 4.3 C 33 %
2653 31-03-2020 11:10:17 4.4 C 32 %
2654 31-03-2020 11:20:18 4.7 C 31 %
2655 31-03-2020 11:30:18 5.4 C 30 %
2656 31-03-2020 11:40:18 5.3 C 30 %
2657 31-03-2020 11:50:17 5.3 C 29 %
2658 31-03-2020 12:00:18 5.6 C 27 %
2659 31-03-2020 12:10:18 6.3 C 25 %
2660 31-03-2020 12:20:17 6.4 C 20 %
2661 31-03-2020 12:30:18 9.2 C 20 %
2662 31-03-2020 12:40:18 8.4 C 20 %
2663 31-03-2020 12:50:18 7 C 20 %
2664 31-03-2020 13:00:17 7.5 C 20 %
2665 31-03-2020 13:10:17 7.1 C 20 %
2666 31-03-2020 13:20:17 7.3 C 20 %
2667 31-03-2020 13:30:17 7 C 20 %
2668 31-03-2020 13:40:17 8.1 C 20 %
2669 31-03-2020 13:51:17 8.4 C 20 %
2670 31-03-2020 14:00:17 8.5 C 20 %
2671 31-03-2020 14:10:17 9.7 C 20 %
2672 31-03-2020 14:20:17 11.2 C 20 %
2673 31-03-2020 14:30:17 12.6 C 20 %
2674 31-03-2020 14:40:17 11.7 C 20 %
2675 31-03-2020 14:51:17 12 C 20 %
Sensor: Nr:Datum:Temp:Feuchte:
Aussen-T/F 2676 31-03-2020 15:00:17 12 C 20 %
2677 31-03-2020 15:10:18 13.1 C 20 %
2678 31-03-2020 15:20:17 13.2 C 20 %
2679 31-03-2020 15:30:17 13.5 C 20 %
2680 31-03-2020 15:40:17 14.6 C 20 %
2681 31-03-2020 15:50:18 13.9 C 20 %
2682 31-03-2020 16:00:17 16.8 C 20 %
2683 31-03-2020 16:10:17 14.8 C 20 %
2684 31-03-2020 16:20:17 15.8 C 20 %
2685 31-03-2020 16:31:17 15.1 C 20 %
2686 31-03-2020 16:40:17 14 C 20 %
2687 31-03-2020 16:50:17 13.3 C 20 %
2688 31-03-2020 17:00:17 14.4 C 20 %
2689 31-03-2020 17:10:17 16.2 C 20 %
2690 31-03-2020 17:21:17 15.3 C 20 %
2691 31-03-2020 17:31:17 14.7 C 20 %
2692 31-03-2020 17:40:17 15.5 C 20 %
2693 31-03-2020 17:51:17 10.6 C 20 %
2694 31-03-2020 18:01:17 10.5 C 20 %
2695 31-03-2020 18:11:17 10.2 C 20 %
2696 31-03-2020 18:21:17 9.8 C 20 %
2697 31-03-2020 18:31:17 9.6 C 20 %
2698 31-03-2020 18:40:17 9.4 C 20 %
2699 31-03-2020 18:51:17 9.1 C 20 %
2700 31-03-2020 19:00:17 9.1 C 20 %
Sensor: Nr:Datum:Temp:Feuchte:
Aussen-T/F 2701 31-03-2020 19:10:17 8.8 C 20 %
2702 31-03-2020 19:20:17 8.7 C 20 %
2703 31-03-2020 19:31:17 8.2 C 20 %
2704 31-03-2020 19:41:17 7.7 C 20 %
2705 31-03-2020 19:50:17 6.6 C 20 %
2706 31-03-2020 20:01:17 5.6 C 20 %
2707 31-03-2020 20:11:17 5.5 C 20 %
2708 31-03-2020 20:21:17 5.3 C 20 %
2709 31-03-2020 20:31:17 4.7 C 20 %
2710 31-03-2020 20:41:17 4.4 C 20 %
2711 31-03-2020 20:51:17 4 C 20 %
2712 31-03-2020 21:00:17 3.7 C 20 %
2713 31-03-2020 21:10:18 3.9 C 20 %
2714 31-03-2020 21:21:17 3.7 C 20 %
2715 31-03-2020 21:31:17 3.5 C 20 %
2716 31-03-2020 21:41:17 3.2 C 23 %
2717 31-03-2020 21:51:17 3.2 C 23 %
2718 31-03-2020 22:00:18 3 C 23 %
2719 31-03-2020 22:10:18 2.7 C 25 %
2720 31-03-2020 22:21:17 2.7 C 25 %
2721 31-03-2020 22:31:17 2.6 C 25 %
2722 31-03-2020 22:41:17 1.8 C 30 %
2723 31-03-2020 22:50:18 1.6 C 30 %
2724 31-03-2020 23:01:17 1.6 C 30 %
2725 31-03-2020 23:11:17 1.7 C 30 %
Sensor: Nr:Datum:Temp:Feuchte:
Aussen-T/F 2726 31-03-2020 23:21:17 1.4 C 31 %
2727 31-03-2020 23:30:17 1.3 C 31 %
2728 31-03-2020 23:40:18 1.6 C 31 %
2729 31-03-2020 23:51:17 0.9 C 32 %
2730 01-04-2020 00:01:17 1.2 C 31 %
2731 01-04-2020 00:11:17 0 C 35 %
2732 01-04-2020 00:21:17 0.8 C 33 %
2733 01-04-2020 00:31:17 0.6 C 32 %
2734 01-04-2020 00:41:17 0.5 C 33 %
2735 01-04-2020 00:51:17 -0.3 C 35 %
2736 01-04-2020 01:01:17 -0.1 C 36 %
2737 01-04-2020 01:11:17 -0.3 C 35 %
2738 01-04-2020 01:21:17 -1 C 37 %
2739 01-04-2020 01:30:18 -1.4 C 38 %
2740 01-04-2020 01:40:18 -1.7 C 38 %
2741 01-04-2020 01:51:17 -1.9 C 38 %
2742 01-04-2020 02:01:17 -1.9 C 38 %
2743 01-04-2020 02:11:17 -2 C 38 %
2744 01-04-2020 02:21:17 -2.1 C 38 %
2745 01-04-2020 02:31:17 -2.3 C 39 %
2746 01-04-2020 02:41:17 -2.4 C 38 %
2747 01-04-2020 02:50:18 -2.4 C 39 %
2748 01-04-2020 03:01:17 -2.5 C 38 %
2749 01-04-2020 03:11:17 -2.6 C 38 %
2750 01-04-2020 03:21:17 -2.8 C 39 %
Sensor: Nr:Datum:Temp:Feuchte:
Aussen-T/F 2751 01-04-2020 03:31:17 -2.7 C 38 %
2752 01-04-2020 03:41:18 -3 C 38 %
2753 01-04-2020 03:51:17 -3 C 39 %
2754 01-04-2020 04:01:17 -2.8 C 39 %
2755 01-04-2020 04:11:17 -3.1 C 38 %
2756 01-04-2020 04:21:17 -3.2 C 39 %
2757 01-04-2020 04:31:18 -3.5 C 38 %
2758 01-04-2020 04:41:19 -3.4 C 39 %
2759 01-04-2020 04:51:17 -3.5 C 39 %
2760 01-04-2020 05:01:18 -3.6 C 39 %
2761 01-04-2020 05:11:19 -3.8 C 40 %
2762 01-04-2020 05:21:17 -3.8 C 40 %
2763 01-04-2020 05:31:18 -3.8 C 40 %
2764 01-04-2020 05:41:18 -4 C 40 %
2765 01-04-2020 05:51:17 -4.2 C 40 %
2766 01-04-2020 06:01:18 -4.2 C 40 %
2767 01-04-2020 06:11:18 -4 C 40 %
2768 01-04-2020 06:21:17 -4.2 C 40 %
2769 01-04-2020 06:31:17 -4.2 C 41 %
2770 01-04-2020 06:41:17 -4.3 C 41 %
2771 01-04-2020 06:51:17 -4.5 C 41 %
2772 01-04-2020 07:01:18 -4.6 C 41 %
2773 01-04-2020 07:11:19 -4.7 C 41 %
2774 01-04-2020 07:21:17 -4.5 C 41 %
2775 01-04-2020 07:31:18 -4.4 C 41 %
Sensor: Nr:Datum:Temp:Feuchte:
Aussen-T/F 2776 01-04-2020 07:41:18 -4.5 C 41 %
2777 01-04-2020 07:51:17 -4.3 C 41 %
2778 01-04-2020 08:01:17 -4.2 C 41 %
2779 01-04-2020 08:11:17 -4.2 C 41 %
2780 01-04-2020 08:21:17 -3.7 C 41 %
2781 01-04-2020 08:31:17 -3.8 C 41 %
2782 01-04-2020 08:41:17 -3.7 C 41 %
2783 01-04-2020 08:51:17 -3.4 C 40 %
2784 01-04-2020 09:01:17 -3.4 C 40 %
2785 01-04-2020 09:11:17 -2.7 C 40 %
2786 01-04-2020 09:21:17 -2.6 C 40 %
2787 01-04-2020 09:31:17 -2.5 C 40 %
2788 01-04-2020 09:41:17 -2.1 C 40 %
2789 01-04-2020 09:51:17 -1.5 C 39 %
2790 01-04-2020 10:01:17 -1 C 39 %
2791 01-04-2020 10:11:17 -0.9 C 40 %
2792 01-04-2020 10:21:17 -0.4 C 40 %
2793 01-04-2020 10:31:18 0.5 C 39 %
2794 01-04-2020 10:41:18 1 C 37 %
2795 01-04-2020 10:51:17 1.6 C 36 %
2796 01-04-2020 11:01:17 2.4 C 35 %
2797 01-04-2020 11:11:17 3.2 C 33 %
2798 01-04-2020 11:21:17 4.2 C 29 %
2799 01-04-2020 11:31:17 4.8 C 20 %
2800 01-04-2020 11:41:17 5.3 C 20 %
Sensor: Nr:Datum:Temp:Feuchte:
Aussen-T/F 2801 01-04-2020 11:51:17 6 C 20 %
2802 01-04-2020 12:01:17 6.6 C 20 %
2803 01-04-2020 12:11:18 7.1 C 20 %
2804 01-04-2020 12:21:17 8.9 C 20 %
2805 01-04-2020 12:31:17 10.3 C 20 %
2806 01-04-2020 12:41:17 9.2 C 20 %
2807 01-04-2020 12:51:17 8 C 20 %
2808 01-04-2020 13:01:17 9.3 C 20 %
2809 01-04-2020 13:11:17 9.3 C 20 %
2810 01-04-2020 13:21:16 8.6 C 20 %
2811 01-04-2020 13:31:17 9.2 C 20 %
2812 01-04-2020 13:41:17 9.6 C 20 %
2813 01-04-2020 13:51:17 10 C 20 %
2814 01-04-2020 14:01:17 10.3 C 20 %
2815 01-04-2020 14:11:17 10.7 C 20 %
2816 01-04-2020 14:21:17 13.2 C 20 %
2817 01-04-2020 14:31:16 15.9 C 20 %
2818 01-04-2020 14:41:16 16.3 C 20 %
2819 01-04-2020 14:51:17 13.7 C 20 %
2820 01-04-2020 15:01:17 14.2 C 20 %
2821 01-04-2020 15:11:17 17.2 C 20 %
2822 01-04-2020 15:21:17 16.8 C 20 %
2823 01-04-2020 15:31:16 16.3 C 20 %
2824 01-04-2020 15:41:16 18.2 C 20 %
2825 01-04-2020 15:51:17 19.5 C 20 %
Sensor: Nr:Datum:Temp:Feuchte:
Aussen-T/F 2826 01-04-2020 16:01:16 18.7 C 20 %
2827 01-04-2020 16:11:16 18.7 C 20 %
2828 01-04-2020 16:21:16 19.7 C 20 %
2829 01-04-2020 16:31:17 21.3 C 20 %
2830 01-04-2020 16:41:17 15.5 C 20 %
2831 01-04-2020 16:51:16 18.4 C 20 %
2832 01-04-2020 17:01:16 17.2 C 20 %
2833 01-04-2020 17:11:16 17.4 C 20 %
2834 01-04-2020 17:21:17 17.7 C 20 %
2835 01-04-2020 17:31:17 18.5 C 20 %
2836 01-04-2020 17:41:17 16.8 C 20 %
2837 01-04-2020 17:51:17 15.8 C 20 %
2838 01-04-2020 18:01:17 12.6 C 20 %
2839 01-04-2020 18:11:17 12 C 20 %
2840 01-04-2020 18:21:16 12.1 C 20 %
2841 01-04-2020 18:31:17 11.7 C 20 %
2842 01-04-2020 18:41:17 11.8 C 20 %
2843 01-04-2020 18:51:16 11.6 C 20 %
2844 01-04-2020 19:01:17 11 C 20 %
2845 01-04-2020 19:11:17 10.7 C 20 %
2846 01-04-2020 19:21:17 10.4 C 20 %
2847 01-04-2020 19:31:17 9.9 C 20 %
2848 01-04-2020 19:41:17 9.6 C 20 %
2849 01-04-2020 19:51:16 8.9 C 20 %
2850 01-04-2020 20:01:17 8.1 C 20 %
Sensor: Nr:Datum:Temp:Feuchte:
Aussen-T/F 2851 01-04-2020 20:11:17 7.8 C 20 %
2852 01-04-2020 20:21:16 8.1 C 20 %
2853 01-04-2020 20:31:16 7.1 C 20 %
2854 01-04-2020 20:41:16 6.2 C 20 %
2855 01-04-2020 20:51:16 5.9 C 20 %
2856 01-04-2020 21:01:16 6 C 20 %
2857 01-04-2020 21:11:16 6 C 20 %
2858 01-04-2020 21:21:16 5.7 C 20 %
2859 01-04-2020 21:31:16 5.7 C 20 %
2860 01-04-2020 21:41:16 5.4 C 20 %
2861 01-04-2020 21:51:16 4 C 21 %
2862 01-04-2020 22:01:16 4.2 C 21 %
2863 01-04-2020 22:11:16 3.7 C 26 %
2864 01-04-2020 22:21:16 3.2 C 26 %
2865 01-04-2020 22:31:16 2.5 C 29 %
2866 01-04-2020 22:41:16 2.6 C 28 %
2867 01-04-2020 22:51:16 2 C 30 %
2868 01-04-2020 23:01:17 1.7 C 33 %
2869 01-04-2020 23:11:17 1.7 C 32 %
2870 01-04-2020 23:21:16 1.4 C 34 %
2871 01-04-2020 23:31:16 1.2 C 34 %
2872 01-04-2020 23:41:16 1 C 35 %
2873 01-04-2020 23:51:16 1.1 C 34 %
2874 02-04-2020 00:01:17 1 C 35 %
2875 02-04-2020 00:11:17 0.4 C 36 %
Sensor: Nr:Datum:Temp:Feuchte:
Aussen-T/F 2876 02-04-2020 00:21:16 0.4 C 36 %
2877 02-04-2020 00:31:17 0.2 C 36 %
2878 02-04-2020 00:41:17 0.3 C 37 %
2879 02-04-2020 00:51:16 0.3 C 36 %
2880 02-04-2020 01:01:17 0 C 37 %
2881 02-04-2020 01:11:17 -0.4 C 38 %
2882 02-04-2020 01:21:16 -0.6 C 38 %
2883 02-04-2020 01:31:17 -0.7 C 38 %
2884 02-04-2020 01:41:17 -0.7 C 38 %
2885 02-04-2020 01:51:16 -0.9 C 39 %
2886 02-04-2020 02:01:16 -1 C 39 %
2887 02-04-2020 02:11:16 -1 C 39 %
2888 02-04-2020 02:21:16 -1.2 C 39 %
2889 02-04-2020 02:31:17 -1.3 C 40 %
2890 02-04-2020 02:41:17 -1.6 C 40 %
2891 02-04-2020 02:51:17 -1.5 C 40 %
2892 02-04-2020 03:01:17 -1.5 C 40 %
2893 02-04-2020 03:11:17 -1.5 C 40 %
2894 02-04-2020 03:21:17 -1.3 C 40 %
2895 02-04-2020 03:31:17 -1.4 C 40 %
2896 02-04-2020 03:41:17 -1.6 C 40 %
2897 02-04-2020 03:51:18 -1.7 C 40 %
2898 02-04-2020 04:01:18 -2.1 C 40 %
2899 02-04-2020 04:11:18 -1.7 C 41 %
2900 02-04-2020 04:21:18 -1.6 C 40 %
Sensor: Nr:Datum:Temp:Feuchte:
Aussen-T/F 2901 02-04-2020 04:31:17 -2 C 40 %
2902 02-04-2020 04:41:17 -2.4 C 41 %
2903 02-04-2020 04:51:17 -2.7 C 41 %
2904 02-04-2020 05:01:18 -2.6 C 41 %
2905 02-04-2020 05:11:18 -2.6 C 41 %
2906 02-04-2020 05:21:17 -2.6 C 41 %
2907 02-04-2020 05:31:18 -2.7 C 41 %
2908 02-04-2020 05:41:18 -2.6 C 41 %
2909 02-04-2020 05:51:17 -2.5 C 41 %
2910 02-04-2020 06:01:17 -2.6 C 41 %
2911 02-04-2020 06:11:17 -3 C 41 %
2912 02-04-2020 06:21:17 -3 C 42 %
2913 02-04-2020 06:31:17 -2.6 C 43 %
2914 02-04-2020 06:41:17 -3.1 C 42 %
2915 02-04-2020 06:51:17 -2.9 C 42 %
2916 02-04-2020 07:01:17 -3.3 C 42 %
2917 02-04-2020 07:11:17 -3 C 42 %
2918 02-04-2020 07:21:17 -3.1 C 42 %
2919 02-04-2020 07:31:17 -3 C 43 %
2920 02-04-2020 07:41:18 -2.9 C 42 %
2921 02-04-2020 07:51:17 -3 C 43 %
2922 02-04-2020 08:01:17 -2.7 C 43 %
2923 02-04-2020 08:11:18 -2.5 C 43 %
2924 02-04-2020 08:21:17 -2.2 C 42 %
2925 02-04-2020 08:31:17 -2.2 C 42 %
Sensor: Nr:Datum:Temp:Feuchte:
Aussen-T/F 2926 02-04-2020 08:41:17 -2 C 42 %
2927 02-04-2020 08:51:17 -1.8 C 42 %
2928 02-04-2020 09:01:17 -1.7 C 42 %
2929 02-04-2020 09:11:17 -1.5 C 41 %
2930 02-04-2020 09:21:17 -1.3 C 41 %
2931 02-04-2020 09:31:17 -1 C 41 %
2932 02-04-2020 09:41:17 -0.6 C 41 %
2933 02-04-2020 09:51:18 -0.3 C 41 %
2934 02-04-2020 10:01:18 0.1 C 41 %
2935 02-04-2020 10:11:18 0.6 C 41 %
2936 02-04-2020 10:21:17 0.8 C 41 %
2937 02-04-2020 10:31:17 1.7 C 40 %
2938 02-04-2020 10:41:17 2.2 C 39 %
2939 02-04-2020 10:51:17 3.1 C 37 %
2940 02-04-2020 11:01:17 3.6 C 37 %
2941 02-04-2020 11:11:17 4.6 C 35 %
2942 02-04-2020 11:21:17 5.7 C 30 %
2943 02-04-2020 11:31:18 6.5 C 30 %
2944 02-04-2020 11:41:18 6.9 C 29 %
2945 02-04-2020 11:51:17 7.4 C 27 %
2946 02-04-2020 12:01:17 8.1 C 27 %
2947 02-04-2020 12:11:17 8.5 C 25 %
2948 02-04-2020 12:21:17 10.5 C 20 %
2949 02-04-2020 12:31:18 12.2 C 20 %
2950 02-04-2020 12:41:18 10.8 C 20 %
Sensor: Nr:Datum:Temp:Feuchte:
Aussen-T/F 2951 02-04-2020 12:51:17 10.3 C 20 %
2952 02-04-2020 13:01:17 11 C 20 %
2953 02-04-2020 13:11:18 11.5 C 20 %
2954 02-04-2020 13:21:17 11.6 C 20 %
2955 02-04-2020 13:31:17 11.4 C 20 %
2956 02-04-2020 13:41:17 12.3 C 20 %
2957 02-04-2020 13:51:17 12.5 C 20 %
2958 02-04-2020 14:01:17 11.8 C 20 %
2959 02-04-2020 14:11:17 12.6 C 20 %
2960 02-04-2020 14:21:17 15.5 C 20 %
2961 02-04-2020 14:31:18 18.1 C 20 %
2962 02-04-2020 14:41:18 18.3 C 20 %
2963 02-04-2020 14:51:17 18.3 C 20 %
2964 02-04-2020 15:01:18 19.7 C 20 %
2965 02-04-2020 15:11:18 17.5 C 20 %
2966 02-04-2020 15:21:17 19.2 C 20 %
2967 02-04-2020 15:31:18 19.8 C 20 %
2968 02-04-2020 15:41:18 19.3 C 20 %
2969 02-04-2020 15:51:17 19.4 C 20 %
2970 02-04-2020 16:01:17 21.3 C 20 %
2971 02-04-2020 16:11:17 19.9 C 20 %
2972 02-04-2020 16:21:17 16.6 C 20 %
2973 02-04-2020 16:31:18 18 C 20 %
2974 02-04-2020 16:41:18 17.6 C 20 %
2975 02-04-2020 16:51:17 17.8 C 20 %
Sensor: Nr:Datum:Temp:Feuchte:
Aussen-T/F 2976 02-04-2020 17:01:17 17.3 C 20 %
2977 02-04-2020 17:11:17 16.6 C 20 %
2978 02-04-2020 17:21:17 15.8 C 20 %
2979 02-04-2020 17:31:18 15.5 C 20 %
2980 02-04-2020 17:41:18 14.7 C 20 %
2981 02-04-2020 17:51:17 14.8 C 20 %
2982 02-04-2020 18:01:17 12.8 C 20 %
2983 02-04-2020 18:11:17 12.2 C 20 %
2984 02-04-2020 18:21:17 12.3 C 20 %
2985 02-04-2020 18:31:17 11.8 C 20 %
2986 02-04-2020 18:41:17 11.3 C 20 %
2987 02-04-2020 18:51:17 11.1 C 20 %
2988 02-04-2020 19:01:17 10.7 C 20 %
2989 02-04-2020 19:11:17 10.2 C 20 %
2990 02-04-2020 19:21:17 10 C 20 %
2991 02-04-2020 19:31:17 9.6 C 20 %
2992 02-04-2020 19:41:17 9.5 C 20 %
2993 02-04-2020 19:51:17 8.7 C 20 %
2994 02-04-2020 20:01:17 8.5 C 20 %
2995 02-04-2020 20:11:17 8.5 C 20 %
2996 02-04-2020 20:21:17 7.9 C 20 %
2997 02-04-2020 20:31:17 7.8 C 20 %
2998 02-04-2020 20:41:17 7.2 C 21 %
2999 02-04-2020 20:51:17 6.9 C 25 %
3000 02-04-2020 21:01:17 6.4 C 26 %
Sensor: Nr:Datum:Temp:Feuchte:
Aussen-T/F 3001 02-04-2020 21:11:17 6.3 C 27 %
3002 02-04-2020 21:21:17 5.9 C 28 %
3003 02-04-2020 21:31:18 5.7 C 29 %
3004 02-04-2020 21:41:18 5.6 C 30 %
3005 02-04-2020 21:51:17 5.3 C 30 %
3006 02-04-2020 22:01:17 5.2 C 30 %
3007 02-04-2020 22:11:17 5.5 C 30 %
3008 02-04-2020 22:21:17 5 C 30 %
3009 02-04-2020 22:31:18 5.3 C 31 %
3010 02-04-2020 22:41:18 5.2 C 31 %
3011 02-04-2020 22:51:17 5.1 C 31 %
3012 02-04-2020 23:01:17 4.8 C 32 %
3013 02-04-2020 23:11:17 5 C 31 %
3014 02-04-2020 23:21:17 5 C 31 %
3015 02-04-2020 23:31:18 4.7 C 33 %
3016 02-04-2020 23:41:18 3.9 C 35 %
3017 02-04-2020 23:51:17 3.1 C 36 %
3018 03-04-2020 00:01:18 2.7 C 38 %
3019 03-04-2020 00:11:18 2.3 C 39 %
3020 03-04-2020 00:21:17 2.6 C 40 %
3021 03-04-2020 00:31:17 2.6 C 39 %
3022 03-04-2020 00:41:17 3.2 C 38 %
3023 03-04-2020 00:51:17 2.4 C 39 %
3024 03-04-2020 01:01:18 2.4 C 39 %
3025 03-04-2020 01:11:18 2.4 C 39 %
Sensor: Nr:Datum:Temp:Feuchte:
Aussen-T/F 3026 03-04-2020 01:21:17 2.6 C 39 %
3027 03-04-2020 01:31:18 2.7 C 39 %
3028 03-04-2020 01:41:18 2.5 C 39 %
3029 03-04-2020 01:51:17 2.3 C 39 %
3030 03-04-2020 02:01:18 2.2 C 39 %
3031 03-04-2020 02:11:18 2.3 C 39 %
3032 03-04-2020 02:21:18 3.1 C 38 %
3033 03-04-2020 02:31:18 3.2 C 38 %
3034 03-04-2020 02:41:18 2.6 C 39 %
3035 03-04-2020 02:51:17 2.8 C 39 %
3036 03-04-2020 03:01:18 3 C 38 %
3037 03-04-2020 03:11:18 3.6 C 38 %
3038 03-04-2020 03:21:17 3.9 C 38 %
3039 03-04-2020 03:31:17 4.4 C 36 %
3040 03-04-2020 03:41:17 4.7 C 36 %
3041 03-04-2020 03:51:17 4.6 C 36 %
3042 03-04-2020 04:01:17 5 C 35 %
3043 03-04-2020 04:11:17 5.6 C 35 %
3044 03-04-2020 04:21:17 4.9 C 35 %
3045 03-04-2020 04:31:18 4.7 C 36 %
3046 03-04-2020 04:41:18 4.6 C 36 %
3047 03-04-2020 04:51:18 4.4 C 36 %
3048 03-04-2020 05:01:18 4.3 C 36 %
3049 03-04-2020 05:11:18 4.5 C 36 %
3050 03-04-2020 05:21:17 4.8 C 36 %
Sensor: Nr:Datum:Temp:Feuchte:
Aussen-T/F 3051 03-04-2020 05:31:17 4.8 C 36 %
3052 03-04-2020 05:41:17 5.2 C 35 %
3053 03-04-2020 05:51:17 5.3 C 35 %
3054 03-04-2020 06:01:18 5.4 C 35 %
3055 03-04-2020 06:11:18 5.4 C 35 %
3056 03-04-2020 06:21:17 5.1 C 35 %
3057 03-04-2020 06:31:17 5.1 C 36 %
3058 03-04-2020 06:41:17 5.1 C 35 %
3059 03-04-2020 06:51:17 5.2 C 35 %
3060 03-04-2020 07:01:17 5.7 C 35 %
3061 03-04-2020 07:11:17 5.6 C 35 %
3062 03-04-2020 07:21:18 5.5 C 35 %
3063 03-04-2020 07:31:17 5.7 C 35 %
3064 03-04-2020 07:41:17 5.6 C 35 %
3065 03-04-2020 07:51:17 5.6 C 35 %
3066 03-04-2020 08:01:17 5.7 C 35 %
3067 03-04-2020 08:11:17 5.9 C 35 %
3068 03-04-2020 08:21:18 5.9 C 35 %
3069 03-04-2020 08:31:17 5.9 C 35 %
3070 03-04-2020 08:41:17 6.1 C 35 %
3071 03-04-2020 08:51:18 6.6 C 35 %
3072 03-04-2020 09:01:17 7 C 34 %
3073 03-04-2020 09:11:17 7.1 C 34 %
3074 03-04-2020 09:21:18 7.6 C 34 %
3075 03-04-2020 09:31:18 7.7 C 34 %
Sensor: Nr:Datum:Temp:Feuchte:
Aussen-T/F 3076 03-04-2020 09:41:18 8 C 33 %
3077 03-04-2020 09:51:17 8.4 C 33 %
3078 03-04-2020 10:01:18 8.6 C 32 %
3079 03-04-2020 10:11:18 8.6 C 32 %
3080 03-04-2020 10:21:17 9 C 32 %
3081 03-04-2020 10:31:18 9.4 C 32 %
3082 03-04-2020 10:41:18 9.2 C 32 %
3083 03-04-2020 10:51:17 9.6 C 32 %
3084 03-04-2020 11:01:17 10.6 C 31 %
3085 03-04-2020 11:11:17 11.2 C 29 %
3086 03-04-2020 11:21:17 10.9 C 29 %
3087 03-04-2020 11:31:17 11.1 C 28 %
3088 03-04-2020 11:41:17 11.5 C 26 %
3089 03-04-2020 11:51:17 11.4 C 26 %
3090 03-04-2020 12:01:17 11.1 C 26 %
3091 03-04-2020 12:11:17 11.2 C 26 %
3092 03-04-2020 12:21:17 11.4 C 26 %
3093 03-04-2020 12:31:17 11.6 C 25 %
3094 03-04-2020 12:41:18 11.1 C 25 %
3095 03-04-2020 12:51:17 11.1 C 25 %
3096 03-04-2020 13:01:18 11.2 C 25 %
3097 03-04-2020 13:11:18 11.7 C 25 %
3098 03-04-2020 13:21:17 12.2 C 22 %
3099 03-04-2020 13:31:17 11.8 C 22 %
3100 03-04-2020 13:41:17 11.8 C 23 %
Sensor: Nr:Datum:Temp:Feuchte:
Aussen-T/F 3101 03-04-2020 13:51:17 12.2 C 22 %
3102 03-04-2020 14:01:18 12.3 C 20 %
3103 03-04-2020 14:11:18 11.6 C 21 %
3104 03-04-2020 14:21:17 11.7 C 21 %
3105 03-04-2020 14:31:17 11.6 C 21 %
3106 03-04-2020 14:41:18 11.4 C 23 %
3107 03-04-2020 14:51:17 11.7 C 21 %
3108 03-04-2020 15:01:17 11.8 C 20 %
3109 03-04-2020 15:11:17 11.7 C 20 %
3110 03-04-2020 15:21:18 11.8 C 20 %
3111 03-04-2020 15:31:17 12.1 C 20 %
3112 03-04-2020 15:41:17 12.5 C 20 %
3113 03-04-2020 15:51:17 13.1 C 20 %
3114 03-04-2020 16:01:17 12.6 C 20 %
3115 03-04-2020 16:11:17 12.4 C 20 %
3116 03-04-2020 16:21:17 12.4 C 20 %
3117 03-04-2020 16:31:17 12.3 C 20 %
3118 03-04-2020 16:41:17 12.4 C 20 %
3119 03-04-2020 16:51:17 12.4 C 20 %
3120 03-04-2020 17:01:17 12.2 C 20 %
3121 03-04-2020 17:11:17 12.2 C 20 %
3122 03-04-2020 17:21:17 12.2 C 20 %
3123 03-04-2020 17:31:17 12.2 C 20 %
3124 03-04-2020 17:41:17 12.4 C 20 %
3125 03-04-2020 17:51:17 11.9 C 20 %
Sensor: Nr:Datum:Temp:Feuchte:
Aussen-T/F 3126 03-04-2020 18:01:17 11.5 C 20 %
3127 03-04-2020 18:11:17 11.7 C 20 %
3128 03-04-2020 18:21:17 11.5 C 20 %
3129 03-04-2020 18:31:18 11.4 C 20 %
3130 03-04-2020 18:41:18 11 C 20 %
3131 03-04-2020 18:51:17 11 C 20 %
3132 03-04-2020 19:01:18 10.8 C 20 %
3133 03-04-2020 19:11:18 10.7 C 20 %
3134 03-04-2020 19:21:17 10.5 C 20 %
3135 03-04-2020 19:31:17 10.2 C 20 %
3136 03-04-2020 19:41:17 10.3 C 20 %
3137 03-04-2020 19:51:17 9.9 C 20 %
3138 03-04-2020 20:01:17 9.8 C 20 %
3139 03-04-2020 20:11:17 9.5 C 20 %
3140 03-04-2020 20:21:17 9.1 C 20 %
3141 03-04-2020 20:31:18 9.5 C 20 %
3142 03-04-2020 20:41:18 9.2 C 20 %
3143 03-04-2020 20:51:18 9.1 C 20 %
3144 03-04-2020 21:01:17 9.2 C 20 %
3145 03-04-2020 21:11:17 9.1 C 20 %
3146 03-04-2020 21:21:17 8.9 C 20 %
3147 03-04-2020 21:31:17 8.7 C 20 %
3148 03-04-2020 21:41:17 8.6 C 20 %
3149 03-04-2020 21:51:17 8.3 C 20 %
3150 03-04-2020 22:01:17 8.1 C 20 %
Sensor: Nr:Datum:Temp:Feuchte:
Aussen-T/F 3151 03-04-2020 22:11:17 7.9 C 20 %
3152 03-04-2020 22:21:17 7.2 C 23 %
3153 03-04-2020 22:31:18 6.8 C 25 %
3154 03-04-2020 22:41:18 6.5 C 26 %
3155 03-04-2020 22:51:17 6.3 C 26 %
3156 03-04-2020 23:01:17 6.4 C 26 %
3157 03-04-2020 23:11:18 6.4 C 25 %
3158 03-04-2020 23:21:18 6.2 C 26 %
3159 03-04-2020 23:31:17 5.2 C 28 %
3160 03-04-2020 23:41:18 5 C 29 %
3161 03-04-2020 23:51:17 4.7 C 30 %
3162 04-04-2020 00:01:17 4.8 C 30 %
3163 04-04-2020 00:11:18 4.8 C 30 %
3164 04-04-2020 00:21:17 4.7 C 30 %
3165 04-04-2020 00:31:17 5.2 C 28 %
3166 04-04-2020 00:41:17 4.5 C 29 %
3167 04-04-2020 00:51:17 4 C 30 %
3168 04-04-2020 01:01:17 4.6 C 30 %
3169 04-04-2020 01:11:17 4.3 C 30 %
3170 04-04-2020 01:21:18 3.9 C 31 %
3171 04-04-2020 01:31:17 4 C 32 %
3172 04-04-2020 01:41:17 3.1 C 35 %
3173 04-04-2020 01:51:17 2.2 C 37 %
3174 04-04-2020 02:01:18 1.7 C 39 %
3175 04-04-2020 02:11:18 1.4 C 40 %
Sensor: Nr:Datum:Temp:Feuchte:
Aussen-T/F 3176 04-04-2020 02:21:17 1.2 C 40 %
3177 04-04-2020 02:31:17 0.9 C 41 %
3178 04-04-2020 02:41:17 0.8 C 41 %
3179 04-04-2020 02:51:17 0.8 C 42 %
3180 04-04-2020 03:01:18 0.6 C 42 %
3181 04-04-2020 03:11:18 0.4 C 42 %
3182 04-04-2020 03:21:17 0.3 C 43 %
3183 04-04-2020 03:31:18 0.6 C 43 %
3184 04-04-2020 03:41:18 0.5 C 42 %
3185 04-04-2020 03:51:17 -0.1 C 43 %
3186 04-04-2020 04:01:17 -0.4 C 43 %
3187 04-04-2020 04:11:17 -0.6 C 43 %
3188 04-04-2020 04:21:17 -0.7 C 44 %
3189 04-04-2020 04:31:17 -0.6 C 44 %
3190 04-04-2020 04:41:17 -0.9 C 44 %
3191 04-04-2020 04:51:17 -0.9 C 45 %
3192 04-04-2020 05:01:18 -0.9 C 45 %
3193 04-04-2020 05:11:18 -1.2 C 45 %
3194 04-04-2020 05:21:18 -1.2 C 45 %
3195 04-04-2020 05:31:17 -1 C 45 %
3196 04-04-2020 05:41:17 -1.2 C 45 %
3197 04-04-2020 05:51:17 -1.2 C 45 %
3198 04-04-2020 06:01:18 -1.5 C 45 %
3199 04-04-2020 06:11:18 -1.5 C 45 %
3200 04-04-2020 06:21:17 -1.5 C 45 %
Sensor: Nr:Datum:Temp:Feuchte:
Aussen-T/F 3201 04-04-2020 06:31:17 -1.8 C 45 %
3202 04-04-2020 06:41:17 -1.4 C 46 %
3203 04-04-2020 06:51:17 -1.5 C 45 %
3204 04-04-2020 07:01:18 -1.6 C 45 %
3205 04-04-2020 07:11:18 -1.8 C 45 %
3206 04-04-2020 07:21:17 -1.5 C 46 %
3207 04-04-2020 07:31:18 -1.8 C 45 %
3208 04-04-2020 07:41:18 -1.7 C 46 %
3209 04-04-2020 07:51:17 -1.8 C 45 %
3210 04-04-2020 08:01:17 -1.8 C 46 %
3211 04-04-2020 08:11:18 -1.7 C 46 %
3212 04-04-2020 08:21:17 -1.5 C 46 %
3213 04-04-2020 08:31:17 -1.1 C 46 %
3214 04-04-2020 08:41:18 -1 C 46 %
3215 04-04-2020 08:51:17 -0.7 C 45 %
3216 04-04-2020 09:01:17 -0.3 C 45 %
3217 04-04-2020 09:11:17 0 C 45 %
3218 04-04-2020 09:21:17 -0.2 C 45 %
3219 04-04-2020 09:31:18 0.2 C 45 %
3220 04-04-2020 09:41:18 0.8 C 44 %
3221 04-04-2020 09:51:17 1.1 C 43 %
3222 04-04-2020 10:01:17 1.5 C 43 %
3223 04-04-2020 10:11:18 1.8 C 43 %
3224 04-04-2020 10:21:17 2.2 C 41 %
3225 04-04-2020 10:31:17 2.9 C 41 %
Sensor: Nr:Datum:Temp:Feuchte:
Aussen-T/F 3226 04-04-2020 10:41:17 3.5 C 40 %
3227 04-04-2020 10:51:17 4.5 C 37 %
3228 04-04-2020 11:01:17 5.3 C 36 %
3229 04-04-2020 11:11:17 6.4 C 35 %
3230 04-04-2020 11:21:18 7.1 C 32 %
3231 04-04-2020 11:31:18 7.9 C 32 %
3232 04-04-2020 11:41:18 8.4 C 29 %
3233 04-04-2020 11:51:18 8.7 C 29 %
3234 04-04-2020 12:01:18 9.7 C 26 %
3235 04-04-2020 12:11:18 9.7 C 26 %
3236 04-04-2020 12:21:17 10.6 C 22 %
3237 04-04-2020 12:31:17 10.9 C 20 %
3238 04-04-2020 12:41:17 11.4 C 20 %
3239 04-04-2020 12:51:17 10.8 C 20 %
3240 04-04-2020 13:01:17 11.1 C 20 %
3241 04-04-2020 13:11:17 12.1 C 20 %
3242 04-04-2020 13:21:17 11.6 C 20 %
3243 04-04-2020 13:31:17 11.4 C 20 %
3244 04-04-2020 13:41:17 12.2 C 20 %
3245 04-04-2020 13:51:18 12.5 C 20 %
3246 04-04-2020 14:01:17 12.1 C 20 %
3247 04-04-2020 14:11:17 13.7 C 20 %
3248 04-04-2020 14:21:17 14.6 C 20 %
3249 04-04-2020 14:31:17 16.6 C 20 %
3250 04-04-2020 14:41:17 17 C 20 %
Sensor: Nr:Datum:Temp:Feuchte:
Aussen-T/F 3251 04-04-2020 14:51:17 16.3 C 20 %
3252 04-04-2020 15:01:18 18.1 C 20 %
3253 04-04-2020 15:11:18 18.9 C 20 %
3254 04-04-2020 15:21:17 16.9 C 20 %
3255 04-04-2020 15:31:17 19.1 C 20 %
3256 04-04-2020 15:41:17 19.8 C 20 %
3257 04-04-2020 15:51:17 17.4 C 20 %
3258 04-04-2020 16:01:17 19.9 C 20 %
3259 04-04-2020 16:11:17 19.3 C 20 %
3260 04-04-2020 16:21:17 18.7 C 20 %
3261 04-04-2020 16:31:17 19.3 C 20 %
3262 04-04-2020 16:41:17 20.5 C 20 %
3263 04-04-2020 16:51:17 20.4 C 20 %
3264 04-04-2020 17:01:17 20.3 C 20 %
3265 04-04-2020 17:11:17 20.1 C 20 %
3266 04-04-2020 17:21:17 20.5 C 20 %
3267 04-04-2020 17:31:17 19.2 C 20 %
3268 04-04-2020 17:41:17 18.7 C 20 %
3269 04-04-2020 17:51:18 17.8 C 20 %
3270 04-04-2020 18:01:17 16.8 C 20 %
3271 04-04-2020 18:11:17 16.2 C 20 %
3272 04-04-2020 18:21:17 15.4 C 20 %
3273 04-04-2020 18:31:17 15.4 C 20 %
3274 04-04-2020 18:41:17 15.6 C 20 %
3275 04-04-2020 18:51:17 15.1 C 20 %
Sensor: Nr:Datum:Temp:Feuchte:
Aussen-T/F 3276 04-04-2020 19:01:17 14.9 C 20 %
3277 04-04-2020 19:11:17 14.4 C 20 %
3278 04-04-2020 19:21:17 14 C 20 %
3279 04-04-2020 19:31:17 13.9 C 20 %
3280 04-04-2020 19:41:17 12.6 C 20 %
3281 04-04-2020 19:51:17 11.5 C 20 %
3282 04-04-2020 20:01:17 11.3 C 20 %
3283 04-04-2020 20:11:17 10.7 C 20 %
3284 04-04-2020 20:21:17 10.3 C 21 %
3285 04-04-2020 20:31:17 9.8 C 25 %
3286 04-04-2020 20:41:17 9.5 C 23 %
3287 04-04-2020 20:51:17 9.2 C 25 %
3288 04-04-2020 21:01:17 9.2 C 21 %
3289 04-04-2020 21:11:17 8.7 C 25 %
3290 04-04-2020 21:21:17 8.8 C 25 %
3291 04-04-2020 21:31:17 8.5 C 25 %
3292 04-04-2020 21:41:17 8.2 C 25 %
3293 04-04-2020 21:51:17 7.1 C 28 %
3294 04-04-2020 22:01:18 5.8 C 31 %
3295 04-04-2020 22:11:18 5.5 C 32 %
3296 04-04-2020 22:21:18 5.1 C 32 %
3297 04-04-2020 22:31:17 4.8 C 35 %
3298 04-04-2020 22:41:17 4.7 C 34 %
3299 04-04-2020 22:51:17 4.6 C 34 %
3300 04-04-2020 23:01:17 4.4 C 34 %
Sensor: Nr:Datum:Temp:Feuchte:
Aussen-T/F 3301 04-04-2020 23:11:17 4.1 C 34 %
3302 04-04-2020 23:21:17 3.9 C 35 %
3303 04-04-2020 23:31:17 3.6 C 36 %
3304 04-04-2020 23:41:17 3.5 C 36 %
3305 04-04-2020 23:51:17 3.4 C 37 %
3306 05-04-2020 00:01:17 3 C 37 %
3307 05-04-2020 00:11:17 2.9 C 38 %
3308 05-04-2020 00:21:17 2.8 C 39 %
3309 05-04-2020 00:31:17 2.5 C 39 %
3310 05-04-2020 00:41:17 2.5 C 40 %
3311 05-04-2020 00:51:18 2.4 C 40 %
3312 05-04-2020 01:01:18 2.3 C 40 %
3313 05-04-2020 01:11:18 2.3 C 40 %
3314 05-04-2020 01:21:17 2.2 C 40 %
3315 05-04-2020 01:31:18 2.1 C 41 %
3316 05-04-2020 01:41:18 1.9 C 42 %
3317 05-04-2020 01:51:17 1.8 C 42 %
3318 05-04-2020 02:01:18 1.6 C 42 %
3319 05-04-2020 02:11:18 1.3 C 42 %
3320 05-04-2020 02:21:17 1.4 C 43 %
3321 05-04-2020 02:31:18 1.4 C 43 %
3322 05-04-2020 02:41:18 1.1 C 43 %
3323 05-04-2020 02:51:17 1.1 C 43 %
3324 05-04-2020 03:01:18 1.3 C 43 %
3325 05-04-2020 03:11:18 1.1 C 43 %
Sensor: Nr:Datum:Temp:Feuchte:
Aussen-T/F 3326 05-04-2020 03:21:17 1 C 43 %
3327 05-04-2020 03:31:17 0.7 C 45 %
3328 05-04-2020 03:41:17 0.5 C 45 %
3329 05-04-2020 03:51:17 0.7 C 45 %
3330 05-04-2020 04:01:17 0.6 C 45 %
3331 05-04-2020 04:11:17 0.4 C 45 %
3332 05-04-2020 04:21:17 0.4 C 46 %
3333 05-04-2020 04:31:17 0.2 C 46 %
3334 05-04-2020 04:41:17 0.2 C 46 %
3335 05-04-2020 04:51:17 0.2 C 46 %
3336 05-04-2020 05:01:17 0 C 46 %
3337 05-04-2020 05:11:17 -0.3 C 46 %
3338 05-04-2020 05:21:17 -0.2 C 47 %
3339 05-04-2020 05:31:17 -0.3 C 46 %
3340 05-04-2020 05:41:17 -0.4 C 47 %
3341 05-04-2020 05:51:17 -0.5 C 47 %
3342 05-04-2020 06:01:17 -0.4 C 47 %
3343 05-04-2020 06:11:17 -0.5 C 47 %
3344 05-04-2020 06:21:17 -0.6 C 47 %
3345 05-04-2020 06:31:18 -0.8 C 48 %
3346 05-04-2020 06:41:18 -0.8 C 47 %
3347 05-04-2020 06:51:17 -0.8 C 47 %
3348 05-04-2020 07:01:18 -0.9 C 47 %
3349 05-04-2020 07:11:18 -0.7 C 48 %
3350 05-04-2020 07:21:18 -0.6 C 48 %
Sensor: Nr:Datum:Temp:Feuchte:
Aussen-T/F 3351 05-04-2020 07:31:17 -0.5 C 48 %
3352 05-04-2020 07:41:17 -0.5 C 48 %
3353 05-04-2020 07:51:17 -0.4 C 48 %
3354 05-04-2020 08:01:17 -0.3 C 48 %
3355 05-04-2020 08:11:17 0 C 49 %
3356 05-04-2020 08:21:17 0.1 C 48 %
3357 05-04-2020 08:31:17 0.4 C 48 %
3358 05-04-2020 08:41:17 0.5 C 49 %
3359 05-04-2020 08:51:18 0.8 C 49 %
3360 05-04-2020 09:01:17 1.1 C 47 %
3361 05-04-2020 09:11:17 1.4 C 47 %
3362 05-04-2020 09:21:17 1.8 C 47 %
3363 05-04-2020 09:31:17 2.4 C 46 %
3364 05-04-2020 09:41:17 2.8 C 46 %
3365 05-04-2020 09:51:18 3.4 C 44 %
3366 05-04-2020 10:01:18 3.9 C 43 %
3367 05-04-2020 10:11:18 4.5 C 41 %
3368 05-04-2020 10:21:17 5.4 C 40 %
3369 05-04-2020 10:31:17 5.9 C 40 %
3370 05-04-2020 10:41:17 7 C 38 %
3371 05-04-2020 10:51:17 7.9 C 37 %
3372 05-04-2020 11:01:17 8.6 C 36 %
3373 05-04-2020 11:11:17 10.7 C 32 %
3374 05-04-2020 11:21:17 11.2 C 30 %
3375 05-04-2020 11:31:17 13.1 C 21 %
Sensor: Nr:Datum:Temp:Feuchte:
Aussen-T/F 3376 05-04-2020 11:41:17 13.9 C 20 %
3377 05-04-2020 11:51:17 14.8 C 20 %
3378 05-04-2020 12:01:17 15.6 C 20 %
3379 05-04-2020 12:11:17 15.9 C 20 %
3380 05-04-2020 12:21:17 16.7 C 20 %
3381 05-04-2020 12:31:18 17.6 C 20 %
3382 05-04-2020 12:41:18 17.4 C 20 %
3383 05-04-2020 12:51:17 17.4 C 20 %
3384 05-04-2020 13:01:17 17.2 C 20 %
3385 05-04-2020 13:11:17 18.4 C 20 %
3386 05-04-2020 13:21:17 17.5 C 20 %
3387 05-04-2020 13:31:17 17.1 C 20 %
3388 05-04-2020 13:41:17 17.9 C 20 %
3389 05-04-2020 13:51:17 17.7 C 20 %
3390 05-04-2020 14:01:17 17.9 C 20 %
3391 05-04-2020 14:11:17 19 C 20 %
3392 05-04-2020 14:21:17 19.8 C 20 %
3393 05-04-2020 14:31:18 21.7 C 20 %
3394 05-04-2020 14:41:18 23.4 C 20 %
3395 05-04-2020 14:51:18 23.3 C 20 %
3396 05-04-2020 15:01:17 24.7 C 20 %
3397 05-04-2020 15:11:18 26.9 C 20 %
3398 05-04-2020 15:21:17 24.5 C 20 %
3399 05-04-2020 15:31:17 24.8 C 20 %
3400 05-04-2020 15:41:17 25.1 C 20 %
Sensor: Nr:Datum:Temp:Feuchte:
Aussen-T/F 3401 05-04-2020 15:51:18 26.6 C 20 %
3402 05-04-2020 16:01:17 25 C 20 %
3403 05-04-2020 16:11:17 23.3 C 20 %
3404 05-04-2020 16:21:17 25.5 C 20 %
3405 05-04-2020 16:31:17 24.8 C 20 %
3406 05-04-2020 16:41:17 23.1 C 20 %
3407 05-04-2020 16:51:17 23.4 C 20 %
3408 05-04-2020 17:01:17 23.5 C 20 %
3409 05-04-2020 17:11:17 26.4 C 20 %
3410 05-04-2020 17:21:17 25.9 C 20 %
3411 05-04-2020 17:31:17 24.4 C 20 %
3412 05-04-2020 17:41:17 24.2 C 20 %
3413 05-04-2020 17:51:17 23.6 C 20 %
3414 05-04-2020 18:01:17 20.8 C 20 %
3415 05-04-2020 18:11:17 19.7 C 20 %
3416 05-04-2020 18:21:17 20 C 20 %
3417 05-04-2020 18:31:17 19.7 C 20 %
3418 05-04-2020 18:41:17 19.4 C 20 %
3419 05-04-2020 18:51:17 18.9 C 20 %
3420 05-04-2020 19:01:17 18.8 C 20 %
3421 05-04-2020 19:11:17 18.4 C 20 %
3422 05-04-2020 19:21:17 18 C 20 %
3423 05-04-2020 19:31:18 17.5 C 20 %
3424 05-04-2020 19:41:18 16.3 C 20 %
3425 05-04-2020 19:51:17 15 C 20 %
Sensor: Nr:Datum:Temp:Feuchte:
Aussen-T/F 3426 05-04-2020 20:01:18 14.3 C 20 %
3427 05-04-2020 20:11:18 14.1 C 20 %
3428 05-04-2020 20:21:17 13.5 C 20 %
3429 05-04-2020 20:31:17 13.3 C 20 %
3430 05-04-2020 20:41:17 13 C 20 %
3431 05-04-2020 20:51:17 12.7 C 20 %
3432 05-04-2020 21:01:18 12.3 C 20 %
3433 05-04-2020 21:11:18 12 C 20 %
3434 05-04-2020 21:21:17 12.1 C 20 %
3435 05-04-2020 21:31:17 11.7 C 20 %
3436 05-04-2020 21:41:17 11.5 C 20 %
3437 05-04-2020 21:51:17 10.3 C 20 %
3438 05-04-2020 22:01:17 10.5 C 20 %
3439 05-04-2020 22:11:17 9.2 C 25 %
3440 05-04-2020 22:21:17 8.9 C 26 %
3441 05-04-2020 22:31:17 8.8 C 26 %
3442 05-04-2020 22:41:17 8.4 C 27 %
3443 05-04-2020 22:51:17 8.2 C 27 %
3444 05-04-2020 23:01:17 8 C 28 %
3445 05-04-2020 23:11:17 7.4 C 30 %
3446 05-04-2020 23:21:17 7.4 C 29 %
3447 05-04-2020 23:31:17 7 C 30 %
3448 05-04-2020 23:41:17 6.7 C 31 %
3449 05-04-2020 23:51:17 6.3 C 31 %
3450 06-04-2020 00:01:17 6.2 C 32 %
Sensor: Nr:Datum:Temp:Feuchte:
Aussen-T/F 3451 06-04-2020 00:11:17 6.3 C 32 %
3452 06-04-2020 00:21:17 6.3 C 32 %
3453 06-04-2020 00:31:18 6 C 32 %
3454 06-04-2020 00:41:18 5.6 C 33 %
3455 06-04-2020 00:51:17 5.6 C 34 %
3456 06-04-2020 01:01:18 5.4 C 35 %
3457 06-04-2020 01:11:18 5.3 C 35 %
3458 06-04-2020 01:21:17 5.1 C 35 %
3459 06-04-2020 01:31:17 4.8 C 36 %
3460 06-04-2020 01:41:17 4.7 C 36 %
3461 06-04-2020 01:51:17 4.6 C 36 %
3462 06-04-2020 02:01:17 4.5 C 37 %
3463 06-04-2020 02:11:17 4.1 C 37 %
3464 06-04-2020 02:21:17 4.2 C 37 %
3465 06-04-2020 02:31:17 4 C 37 %
3466 06-04-2020 02:41:17 4.1 C 37 %
3467 06-04-2020 02:51:17 3.8 C 38 %
3468 06-04-2020 03:01:17 3.9 C 39 %
3469 06-04-2020 03:11:17 3.6 C 39 %
3470 06-04-2020 03:21:17 3.3 C 39 %
3471 06-04-2020 03:31:18 3.3 C 40 %
3472 06-04-2020 03:41:18 3.2 C 40 %
3473 06-04-2020 03:51:17 3.3 C 40 %
3474 06-04-2020 04:01:17 3.2 C 40 %
3475 06-04-2020 04:11:17 3.3 C 40 %
Sensor: Nr:Datum:Temp:Feuchte:
Aussen-T/F 3476 06-04-2020 04:21:17 3.1 C 40 %
3477 06-04-2020 04:31:17 2.8 C 40 %
3478 06-04-2020 04:41:17 2.6 C 41 %
3479 06-04-2020 04:51:17 2.5 C 41 %
3480 06-04-2020 05:01:17 2.4 C 41 %
3481 06-04-2020 05:11:17 2.3 C 41 %
3482 06-04-2020 05:21:18 2.2 C 41 %
3483 06-04-2020 05:31:17 1.9 C 42 %
3484 06-04-2020 05:41:17 1.8 C 43 %
3485 06-04-2020 05:51:17 1.7 C 43 %
3486 06-04-2020 06:01:17 1.6 C 44 %
3487 06-04-2020 06:11:17 1.5 C 44 %
3488 06-04-2020 06:21:18 1.3 C 45 %
3489 06-04-2020 06:31:17 1.2 C 45 %
3490 06-04-2020 06:41:18 1.3 C 45 %
3491 06-04-2020 06:51:17 1.3 C 45 %
3492 06-04-2020 07:01:17 1.4 C 45 %
3493 06-04-2020 07:11:17 1.5 C 45 %
3494 06-04-2020 07:21:17 1.6 C 45 %
3495 06-04-2020 07:31:18 1.5 C 45 %
3496 06-04-2020 07:41:18 1.6 C 45 %
3497 06-04-2020 07:51:17 2 C 45 %
3498 06-04-2020 08:01:17 1.9 C 45 %
3499 06-04-2020 08:11:17 2.2 C 44 %
3500 06-04-2020 08:21:17 2.5 C 44 %
Sensor: Nr:Datum:Temp:Feuchte:
Aussen-T/F 3501 06-04-2020 08:31:17 3 C 42 %
3502 06-04-2020 08:41:17 3.2 C 42 %
3503 06-04-2020 08:51:17 3.4 C 41 %
3504 06-04-2020 09:01:18 3.5 C 41 %
3505 06-04-2020 09:11:18 3.4 C 41 %
3506 06-04-2020 09:21:17 3.9 C 41 %
3507 06-04-2020 09:31:17 4.3 C 40 %
3508 06-04-2020 09:41:17 4.8 C 40 %
3509 06-04-2020 09:51:18 5.2 C 40 %
3510 06-04-2020 10:01:18 6 C 38 %
3511 06-04-2020 10:11:18 6.5 C 37 %
3512 06-04-2020 10:21:17 7.2 C 36 %
3513 06-04-2020 10:31:17 7.9 C 36 %
3514 06-04-2020 10:41:17 8.8 C 35 %
3515 06-04-2020 10:51:17 9.8 C 34 %
3516 06-04-2020 11:01:17 11.1 C 31 %
3517 06-04-2020 11:11:18 12.2 C 29 %
3518 06-04-2020 11:21:17 13.3 C 26 %
3519 06-04-2020 11:31:17 16 C 20 %
3520 06-04-2020 11:41:17 17.1 C 20 %
3521 06-04-2020 11:51:18 17.6 C 20 %
3522 06-04-2020 12:01:18 18.1 C 20 %
3523 06-04-2020 12:11:18 18.6 C 20 %
3524 06-04-2020 12:21:17 20.3 C 20 %
3525 06-04-2020 12:31:17 21 C 20 %
Sensor: Nr:Datum:Temp:Feuchte:
Aussen-T/F 3526 06-04-2020 12:41:17 19.4 C 20 %
3527 06-04-2020 12:51:17 20.2 C 20 %
3528 06-04-2020 13:01:17 20.6 C 20 %
3529 06-04-2020 13:11:17 20.8 C 20 %
3530 06-04-2020 13:21:17 20.4 C 20 %
3531 06-04-2020 13:31:18 20.3 C 20 %
3532 06-04-2020 13:41:18 21.2 C 20 %
3533 06-04-2020 13:51:17 21.3 C 20 %
3534 06-04-2020 14:01:18 22.3 C 20 %
3535 06-04-2020 14:11:18 22.3 C 20 %
3536 06-04-2020 14:21:17 23.7 C 20 %
3537 06-04-2020 14:31:17 26.8 C 20 %
3538 06-04-2020 14:41:17 27.4 C 20 %
3539 06-04-2020 14:51:18 28.3 C 20 %
3540 06-04-2020 15:01:17 28 C 20 %
3541 06-04-2020 15:11:17 26.6 C 20 %
3542 06-04-2020 15:21:17 27.1 C 20 %
3543 06-04-2020 15:31:17 25.8 C 20 %
3544 06-04-2020 15:41:17 26.9 C 20 %
3545 06-04-2020 15:51:17 27.9 C 20 %
3546 06-04-2020 16:01:17 29.7 C 20 %
3547 06-04-2020 16:11:17 27.4 C 20 %
3548 06-04-2020 16:21:18 27.4 C 20 %
3549 06-04-2020 16:31:18 28.3 C 20 %
3550 06-04-2020 16:41:18 28.5 C 20 %
Sensor: Nr:Datum:Temp:Feuchte:
Aussen-T/F 3551 06-04-2020 16:51:17 27.1 C 20 %
3552 06-04-2020 17:01:17 27.6 C 20 %
3553 06-04-2020 17:11:17 26 C 20 %
3554 06-04-2020 17:21:17 26.7 C 20 %
3555 06-04-2020 17:31:17 25.7 C 20 %
3556 06-04-2020 17:41:17 25.5 C 20 %
3557 06-04-2020 17:51:17 24.2 C 20 %
3558 06-04-2020 18:01:17 23.3 C 20 %
3559 06-04-2020 18:11:17 23.1 C 20 %
3560 06-04-2020 18:21:17 22.6 C 20 %
3561 06-04-2020 18:31:18 22.6 C 20 %
3562 06-04-2020 18:41:18 22.3 C 20 %
3563 06-04-2020 18:51:17 22 C 20 %
3564 06-04-2020 19:01:17 21.7 C 20 %
3565 06-04-2020 19:11:17 21.1 C 20 %
3566 06-04-2020 19:21:17 20.5 C 20 %
3567 06-04-2020 19:31:17 20.2 C 20 %
3568 06-04-2020 19:41:17 19.1 C 20 %
3569 06-04-2020 19:51:17 18.3 C 20 %
3570 06-04-2020 20:01:18 16.4 C 20 %
3571 06-04-2020 20:11:18 16.3 C 20 %
3572 06-04-2020 20:21:17 15.8 C 20 %
3573 06-04-2020 20:31:17 15.3 C 20 %
3574 06-04-2020 20:41:18 15.1 C 20 %
3575 06-04-2020 20:51:17 13.7 C 20 %
Sensor: Nr:Datum:Temp:Feuchte:
Aussen-T/F 3576 06-04-2020 21:01:18 13.2 C 20 %
3577 06-04-2020 21:11:18 12.9 C 20 %
3578 06-04-2020 21:21:17 12 C 20 %
3579 06-04-2020 21:31:18 11.8 C 22 %
3580 06-04-2020 21:41:18 11.6 C 22 %
3581 06-04-2020 21:51:17 11.1 C 22 %
3582 06-04-2020 22:01:17 10.8 C 25 %
3583 06-04-2020 22:11:17 10.6 C 25 %
3584 06-04-2020 22:21:17 10.2 C 25 %
3585 06-04-2020 22:31:17 10 C 26 %
3586 06-04-2020 22:41:17 10 C 26 %
3587 06-04-2020 22:51:17 9.9 C 26 %
3588 06-04-2020 23:01:18 9.8 C 26 %
3589 06-04-2020 23:11:18 9.6 C 26 %
3590 06-04-2020 23:21:17 9.5 C 27 %
3591 06-04-2020 23:31:17 9.4 C 27 %
3592 06-04-2020 23:41:17 9.2 C 27 %
3593 06-04-2020 23:51:17 9.5 C 29 %
3594 07-04-2020 00:01:17 10.2 C 26 %
3595 07-04-2020 00:11:17 9.1 C 29 %
3596 07-04-2020 00:21:18 8.7 C 30 %
3597 07-04-2020 00:31:17 8.8 C 30 %
3598 07-04-2020 00:41:17 9 C 30 %
3599 07-04-2020 00:51:17 8.6 C 30 %
3600 07-04-2020 01:01:17 8.7 C 30 %
Sensor: Nr:Datum:Temp:Feuchte:
Aussen-T/F 3601 07-04-2020 01:11:17 9.1 C 30 %
3602 07-04-2020 01:21:17 9.4 C 30 %
3603 07-04-2020 01:31:17 9.8 C 30 %
3604 07-04-2020 01:41:17 10.1 C 30 %
3605 07-04-2020 01:51:18 10 C 29 %
3606 07-04-2020 02:01:18 9.2 C 30 %
3607 07-04-2020 02:11:18 8.8 C 31 %
3608 07-04-2020 02:21:17 8.2 C 33 %
3609 07-04-2020 02:31:17 7.9 C 34 %
3610 07-04-2020 02:41:17 7.5 C 34 %
3611 07-04-2020 02:51:17 7.2 C 35 %
3612 07-04-2020 03:01:17 7.3 C 35 %
3613 07-04-2020 03:11:17 7.6 C 35 %
3614 07-04-2020 03:21:17 7.9 C 35 %
3615 07-04-2020 03:31:17 8 C 35 %
3616 07-04-2020 03:41:17 7.7 C 36 %
3617 07-04-2020 03:51:17 7.8 C 35 %
3618 07-04-2020 04:01:17 7.8 C 36 %
3619 07-04-2020 04:11:17 7.6 C 36 %
3620 07-04-2020 04:21:17 7.4 C 36 %
3621 07-04-2020 04:31:17 7.2 C 36 %
3622 07-04-2020 04:41:18 6.9 C 37 %
3623 07-04-2020 04:51:17 6.8 C 37 %
3624 07-04-2020 05:01:17 6.3 C 38 %
3625 07-04-2020 05:11:17 6.1 C 38 %
Sensor: Nr:Datum:Temp:Feuchte:
Aussen-T/F 3626 07-04-2020 05:21:18 5.9 C 40 %
3627 07-04-2020 05:31:17 5.8 C 40 %
3628 07-04-2020 05:41:17 5.7 C 40 %
3629 07-04-2020 05:51:17 5.6 C 41 %
3630 07-04-2020 06:01:17 5.6 C 41 %
3631 07-04-2020 06:11:17 5.2 C 40 %
3632 07-04-2020 06:21:17 5.3 C 41 %
3633 07-04-2020 06:31:17 5.2 C 41 %
3634 07-04-2020 06:41:17 5 C 41 %
3635 07-04-2020 06:51:17 4.8 C 42 %
3636 07-04-2020 07:01:18 4.8 C 43 %
3637 07-04-2020 07:11:18 4.7 C 43 %
3638 07-04-2020 07:21:18 4.8 C 44 %
3639 07-04-2020 07:31:17 5 C 43 %
3640 07-04-2020 07:41:18 5.7 C 43 %
3641 07-04-2020 07:51:17 5.8 C 42 %
3642 07-04-2020 08:01:17 5.7 C 41 %
3643 07-04-2020 08:11:18 5.8 C 41 %
3644 07-04-2020 08:21:17 6 C 41 %
3645 07-04-2020 08:31:17 6 C 41 %
3646 07-04-2020 08:41:17 6.3 C 41 %
3647 07-04-2020 08:51:17 6.6 C 41 %
3648 07-04-2020 09:01:17 7.1 C 40 %
3649 07-04-2020 09:11:17 7.3 C 40 %
3650 07-04-2020 09:21:17 7.5 C 40 %
Sensor: Nr:Datum:Temp:Feuchte:
Aussen-T/F 3651 07-04-2020 09:31:17 8 C 39 %
3652 07-04-2020 09:41:18 8.9 C 39 %
3653 07-04-2020 09:51:17 9.3 C 37 %
3654 07-04-2020 10:01:17 9.4 C 38 %
3655 07-04-2020 10:11:18 10 C 37 %
3656 07-04-2020 10:21:17 10.7 C 37 %
3657 07-04-2020 10:31:18 11.4 C 36 %
3658 07-04-2020 10:41:18 12.3 C 35 %
3659 07-04-2020 10:51:17 13.1 C 33 %
3660 07-04-2020 11:01:17 14 C 31 %
3661 07-04-2020 11:11:17 14.6 C 31 %
3662 07-04-2020 11:21:17 15.2 C 30 %
3663 07-04-2020 11:31:17 16 C 28 %
3664 07-04-2020 11:41:17 16.5 C 27 %
3665 07-04-2020 11:51:17 16.9 C 27 %
3666 07-04-2020 12:01:17 17.2 C 26 %
3667 07-04-2020 12:11:17 17.7 C 25 %
3668 07-04-2020 12:21:18 18.7 C 23 %
3669 07-04-2020 12:31:17 20.9 C 21 %
3670 07-04-2020 12:41:17 19.6 C 20 %
3671 07-04-2020 12:51:18 19.6 C 20 %
3672 07-04-2020 13:01:17 20.7 C 20 %
3673 07-04-2020 13:11:17 21.3 C 20 %
3674 07-04-2020 13:21:17 20.8 C 20 %
3675 07-04-2020 13:31:17 19.8 C 20 %
Sensor: Nr:Datum:Temp:Feuchte:
Aussen-T/F 3676 07-04-2020 13:41:17 20.4 C 20 %
3677 07-04-2020 13:51:18 20.6 C 20 %
3678 07-04-2020 14:01:17 21.1 C 20 %
3679 07-04-2020 14:11:17 22 C 20 %
3680 07-04-2020 14:21:17 23.6 C 20 %
3681 07-04-2020 14:31:17 26.2 C 20 %
3682 07-04-2020 14:41:17 22.9 C 20 %
3683 07-04-2020 14:51:17 26.7 C 20 %
3684 07-04-2020 15:01:17 26.4 C 20 %
3685 07-04-2020 15:11:17 27.1 C 20 %
3686 07-04-2020 15:21:17 30.1 C 20 %
3687 07-04-2020 15:31:17 28.4 C 20 %
3688 07-04-2020 15:41:18 27.2 C 20 %
3689 07-04-2020 15:51:17 26.6 C 20 %
3690 07-04-2020 16:01:17 27.4 C 20 %
3691 07-04-2020 16:11:17 25.1 C 20 %
3692 07-04-2020 16:21:17 27.8 C 20 %
3693 07-04-2020 16:31:17 23.9 C 20 %
3694 07-04-2020 16:41:18 24.3 C 20 %
3695 07-04-2020 16:51:18 29.2 C 20 %
3696 07-04-2020 17:01:17 31 C 20 %
3697 07-04-2020 17:11:17 25 C 20 %
3698 07-04-2020 17:21:17 24.2 C 20 %
3699 07-04-2020 17:31:18 24.2 C 20 %
3700 07-04-2020 17:41:18 26.9 C 20 %
Sensor: Nr:Datum:Temp:Feuchte:
Aussen-T/F 3701 07-04-2020 17:51:18 24.6 C 20 %
3702 07-04-2020 18:01:17 23.7 C 20 %
3703 07-04-2020 18:11:17 23.7 C 20 %
3704 07-04-2020 18:21:17 22.9 C 20 %
3705 07-04-2020 18:31:17 22.7 C 20 %
3706 07-04-2020 18:41:17 22.3 C 20 %
3707 07-04-2020 18:51:17 22 C 20 %
3708 07-04-2020 19:01:17 21.8 C 20 %
3709 07-04-2020 19:11:18 21 C 20 %
3710 07-04-2020 19:21:17 20 C 20 %
3711 07-04-2020 19:31:17 19.1 C 20 %
3712 07-04-2020 19:41:17 18.4 C 20 %
3713 07-04-2020 19:51:17 18.3 C 20 %
3714 07-04-2020 20:01:18 17.6 C 20 %
3715 07-04-2020 20:11:18 17.3 C 20 %
3716 07-04-2020 20:21:17 17.1 C 20 %
3717 07-04-2020 20:31:17 16.8 C 20 %
3718 07-04-2020 20:41:17 16.5 C 20 %
3719 07-04-2020 20:51:17 16.3 C 20 %
3720 07-04-2020 21:01:17 16.1 C 20 %
3721 07-04-2020 21:11:17 15.9 C 20 %
3722 07-04-2020 21:21:18 15.8 C 20 %
3723 07-04-2020 21:31:17 15.4 C 21 %
3724 07-04-2020 21:41:17 15.2 C 21 %
3725 07-04-2020 21:51:17 15.1 C 22 %
Sensor: Nr:Datum:Temp:Feuchte:
Aussen-T/F 3726 07-04-2020 22:01:18 14.6 C 25 %
3727 07-04-2020 22:11:18 13.1 C 27 %
3728 07-04-2020 22:21:17 12.9 C 29 %
3729 07-04-2020 22:31:17 12.7 C 30 %
3730 07-04-2020 22:41:17 12.7 C 30 %
3731 07-04-2020 22:51:18 12.7 C 30 %
3732 07-04-2020 23:01:18 12.7 C 30 %
3733 07-04-2020 23:11:18 12.6 C 30 %
3734 07-04-2020 23:21:17 13.1 C 29 %
3735 07-04-2020 23:31:17 12.8 C 30 %
3736 07-04-2020 23:41:17 12.8 C 30 %
3737 07-04-2020 23:51:17 12.3 C 31 %
3738 08-04-2020 00:01:17 11.7 C 33 %
3739 08-04-2020 00:11:17 11.7 C 33 %
3740 08-04-2020 00:21:17 11.5 C 33 %
3741 08-04-2020 00:31:17 11.5 C 33 %
3742 08-04-2020 00:41:17 11.2 C 34 %
3743 08-04-2020 00:51:18 10.8 C 35 %
3744 08-04-2020 01:01:17 10.8 C 36 %
3745 08-04-2020 01:11:17 10.9 C 35 %
3746 08-04-2020 01:21:17 10.4 C 36 %
3747 08-04-2020 01:31:18 10.2 C 36 %
3748 08-04-2020 01:41:18 9.9 C 37 %
3749 08-04-2020 01:51:17 9.6 C 38 %
3750 08-04-2020 02:01:18 9.2 C 38 %
Sensor: Nr:Datum:Temp:Feuchte:
Aussen-T/F 3751 08-04-2020 02:11:18 8.7 C 39 %
3752 08-04-2020 02:21:17 8.5 C 40 %
3753 08-04-2020 02:31:17 8.2 C 40 %
3754 08-04-2020 02:41:18 8 C 40 %
3755 08-04-2020 02:51:17 7.7 C 41 %
3756 08-04-2020 03:01:18 7.4 C 41 %
3757 08-04-2020 03:11:18 7.1 C 41 %
3758 08-04-2020 03:21:17 7.1 C 42 %
3759 08-04-2020 03:31:17 7.1 C 42 %
3760 08-04-2020 03:41:17 6.8 C 43 %
3761 08-04-2020 03:51:17 6.7 C 43 %
3762 08-04-2020 04:01:17 6.6 C 44 %
3763 08-04-2020 04:11:18 6.7 C 44 %
3764 08-04-2020 04:21:17 6.3 C 44 %
3765 08-04-2020 04:31:17 6.3 C 45 %
3766 08-04-2020 04:41:17 6.4 C 45 %
3767 08-04-2020 04:51:17 6.3 C 45 %
3768 08-04-2020 05:01:18 6.1 C 44 %
3769 08-04-2020 05:11:18 5.9 C 45 %
3770 08-04-2020 05:21:17 5.6 C 45 %
3771 08-04-2020 05:31:17 5.4 C 45 %
3772 08-04-2020 05:41:18 5.4 C 45 %
3773 08-04-2020 05:51:17 5.4 C 46 %
3774 08-04-2020 06:01:17 5.3 C 46 %
3775 08-04-2020 06:11:17 5.4 C 46 %
Sensor: Nr:Datum:Temp:Feuchte:
Aussen-T/F 3776 08-04-2020 06:21:17 5.3 C 46 %
3777 08-04-2020 06:31:17 5.3 C 46 %
3778 08-04-2020 06:41:17 5.1 C 46 %
3779 08-04-2020 06:51:18 5 C 46 %
3780 08-04-2020 07:01:18 5 C 46 %
3781 08-04-2020 07:11:18 5.1 C 46 %
3782 08-04-2020 07:21:17 5.2 C 46 %
3783 08-04-2020 07:31:17 5.3 C 46 %
3784 08-04-2020 07:41:17 5.4 C 46 %
3785 08-04-2020 07:51:17 5.8 C 46 %
3786 08-04-2020 08:01:17 5.7 C 46 %
3787 08-04-2020 08:11:17 6 C 46 %
3788 08-04-2020 08:21:17 6.3 C 46 %
3789 08-04-2020 08:31:18 6.3 C 46 %
3790 08-04-2020 08:41:18 6.5 C 46 %
3791 08-04-2020 08:51:18 6.7 C 46 %
3792 08-04-2020 09:01:18 7 C 45 %
3793 08-04-2020 09:11:18 7.1 C 45 %
3794 08-04-2020 09:21:17 7.6 C 45 %
3795 08-04-2020 09:31:17 7.9 C 45 %
3796 08-04-2020 09:41:17 8.3 C 45 %
3797 08-04-2020 09:51:17 8.7 C 44 %
3798 08-04-2020 10:01:17 9.1 C 43 %
3799 08-04-2020 10:11:17 9.7 C 43 %
3800 08-04-2020 10:21:17 10.2 C 41 %
Sensor: Nr:Datum:Temp:Feuchte:
Aussen-T/F 3801 08-04-2020 10:31:18 11 C 40 %
3802 08-04-2020 10:41:18 11.8 C 39 %
3803 08-04-2020 10:51:18 12.6 C 38 %
3804 08-04-2020 11:01:18 13.7 C 36 %
3805 08-04-2020 11:11:18 14.5 C 35 %
3806 08-04-2020 11:21:17 15.5 C 34 %
3807 08-04-2020 11:31:18 16.2 C 32 %
3808 08-04-2020 11:41:18 17.6 C 27 %
3809 08-04-2020 11:51:17 18.6 C 25 %
3810 08-04-2020 12:01:18 19.2 C 22 %
3811 08-04-2020 12:11:18 20.1 C 21 %
3812 08-04-2020 12:21:17 21.2 C 20 %
3813 08-04-2020 12:31:17 22.4 C 20 %
3814 08-04-2020 12:41:17 22.9 C 20 %
3815 08-04-2020 12:51:17 21.8 C 20 %
3816 08-04-2020 13:01:18 22.9 C 20 %
3817 08-04-2020 13:11:18 22.4 C 20 %
3818 08-04-2020 13:21:17 22.1 C 20 %
3819 08-04-2020 13:31:18 22.3 C 20 %
3820 08-04-2020 13:41:18 23.3 C 20 %
3821 08-04-2020 13:51:17 22.6 C 20 %
3822 08-04-2020 14:01:18 23 C 20 %
3823 08-04-2020 14:11:18 23.7 C 20 %
3824 08-04-2020 14:21:17 24.8 C 20 %
3825 08-04-2020 14:31:18 28.3 C 20 %
Sensor: Nr:Datum:Temp:Feuchte:
Aussen-T/F 3826 08-04-2020 14:41:18 28.9 C 20 %
3827 08-04-2020 14:51:17 28.7 C 20 %
3828 08-04-2020 15:01:17 28.7 C 20 %
3829 08-04-2020 15:11:17 30.1 C 20 %
3830 08-04-2020 15:21:18 29.3 C 20 %
3831 08-04-2020 15:31:17 29.5 C 20 %
3832 08-04-2020 15:41:17 29.1 C 20 %
3833 08-04-2020 15:51:17 32.2 C 20 %
3834 08-04-2020 16:01:17 31.1 C 20 %
3835 08-04-2020 16:11:17 29.7 C 20 %
3836 08-04-2020 16:21:18 30.7 C 20 %
3837 08-04-2020 16:31:17 29 C 20 %
3838 08-04-2020 16:41:17 32.6 C 20 %
3839 08-04-2020 16:51:17 29.7 C 20 %
3840 08-04-2020 17:01:17 29.4 C 20 %
3841 08-04-2020 17:11:17 29.7 C 20 %
3842 08-04-2020 17:21:17 30.1 C 20 %
3843 08-04-2020 17:31:17 30.1 C 20 %
3844 08-04-2020 17:41:17 29 C 20 %
3845 08-04-2020 17:51:17 28.1 C 20 %
3846 08-04-2020 18:01:17 26.6 C 20 %
3847 08-04-2020 18:11:17 25.2 C 20 %
3848 08-04-2020 18:21:17 24.7 C 20 %
3849 08-04-2020 18:31:18 24.3 C 20 %
3850 08-04-2020 18:41:18 24.1 C 20 %
Sensor: Nr:Datum:Temp:Feuchte:
Aussen-T/F 3851 08-04-2020 18:51:17 23.8 C 20 %
3852 08-04-2020 19:01:17 23.2 C 20 %
3853 08-04-2020 19:11:17 22.6 C 20 %
3854 08-04-2020 19:21:17 21.4 C 20 %
3855 08-04-2020 19:31:17 20.1 C 20 %
3856 08-04-2020 19:41:17 19.7 C 20 %
3857 08-04-2020 19:51:17 19.2 C 20 %
3858 08-04-2020 20:01:17 18.5 C 20 %
3859 08-04-2020 20:11:17 18 C 20 %
3860 08-04-2020 20:21:18 17.5 C 20 %
3861 08-04-2020 20:31:17 17 C 20 %
3862 08-04-2020 20:41:18 16.2 C 20 %
3863 08-04-2020 20:51:17 15.6 C 20 %
3864 08-04-2020 21:01:18 14.6 C 20 %
3865 08-04-2020 21:11:18 13.9 C 20 %
3866 08-04-2020 21:21:17 14.2 C 20 %
3867 08-04-2020 21:31:17 13.7 C 20 %
3868 08-04-2020 21:41:17 13.5 C 20 %
3869 08-04-2020 21:51:17 13.4 C 20 %
3870 08-04-2020 22:01:17 12.9 C 21 %
3871 08-04-2020 22:11:18 12.7 C 21 %
3872 08-04-2020 22:21:17 12.5 C 24 %
3873 08-04-2020 22:31:17 12.2 C 25 %
3874 08-04-2020 22:41:17 11.8 C 26 %
3875 08-04-2020 22:51:18 11.6 C 26 %
Sensor: Nr:Datum:Temp:Feuchte:
Aussen-T/F 3876 08-04-2020 23:01:17 12 C 25 %
3877 08-04-2020 23:11:17 11.5 C 26 %
3878 08-04-2020 23:21:17 10.9 C 28 %
3879 08-04-2020 23:31:17 10.5 C 29 %
3880 08-04-2020 23:41:17 10.7 C 28 %
3881 08-04-2020 23:51:17 11.2 C 28 %
3882 09-04-2020 00:01:18 10.7 C 29 %
3883 09-04-2020 00:11:18 10.7 C 29 %
3884 09-04-2020 00:21:17 10.3 C 30 %
3885 09-04-2020 00:31:18 10 C 30 %
3886 09-04-2020 00:41:18 10.5 C 30 %
3887 09-04-2020 00:51:17 10.5 C 30 %
3888 09-04-2020 01:01:17 10 C 30 %
3889 09-04-2020 01:11:17 9.6 C 31 %
3890 09-04-2020 01:21:17 9.2 C 32 %
3891 09-04-2020 01:31:17 9.9 C 33 %
3892 09-04-2020 01:41:17 9.3 C 33 %
3893 09-04-2020 01:51:17 9.6 C 33 %
3894 09-04-2020 02:01:17 8.8 C 35 %
3895 09-04-2020 02:11:17 9.1 C 34 %
3896 09-04-2020 02:21:18 9 C 34 %
3897 09-04-2020 02:31:18 8.8 C 35 %
3898 09-04-2020 02:41:18 8.7 C 35 %
3899 09-04-2020 02:51:17 8.8 C 35 %
3900 09-04-2020 03:01:17 9.2 C 34 %
Sensor: Nr:Datum:Temp:Feuchte:
Aussen-T/F 3901 09-04-2020 03:11:17 9.7 C 33 %
3902 09-04-2020 03:21:17 9.5 C 33 %
3903 09-04-2020 03:31:17 9.4 C 34 %
3904 09-04-2020 03:41:17 9.5 C 34 %
3905 09-04-2020 03:51:17 10.2 C 32 %
3906 09-04-2020 04:01:17 9.9 C 34 %
3907 09-04-2020 04:11:17 10.1 C 33 %
3908 09-04-2020 04:21:17 10 C 33 %
3909 09-04-2020 04:31:18 9.4 C 34 %
3910 09-04-2020 04:41:18 9.3 C 35 %
3911 09-04-2020 04:51:17 8.9 C 35 %
3912 09-04-2020 05:01:17 8.7 C 36 %
3913 09-04-2020 05:11:17 8.6 C 35 %
3914 09-04-2020 05:21:17 8.5 C 36 %
3915 09-04-2020 05:31:18 8.2 C 36 %
3916 09-04-2020 05:41:18 8.1 C 36 %
3917 09-04-2020 05:51:17 8.1 C 37 %
3918 09-04-2020 06:01:18 8.1 C 37 %
3919 09-04-2020 06:11:18 7.7 C 38 %
3920 09-04-2020 06:21:17 7.1 C 38 %
3921 09-04-2020 06:31:17 7 C 38 %
3922 09-04-2020 06:41:17 6.6 C 39 %
3923 09-04-2020 06:51:17 6.8 C 40 %
3924 09-04-2020 07:01:17 6.9 C 40 %
3925 09-04-2020 07:11:17 7.3 C 39 %
Sensor: Nr:Datum:Temp:Feuchte:
Aussen-T/F 3926 09-04-2020 07:21:17 7.3 C 39 %
3927 09-04-2020 07:31:17 7 C 39 %
3928 09-04-2020 07:41:17 6.9 C 40 %
3929 09-04-2020 07:51:17 7 C 40 %
3930 09-04-2020 08:01:17 7 C 40 %
3931 09-04-2020 08:11:17 7.3 C 40 %
3932 09-04-2020 08:21:18 7.4 C 40 %
3933 09-04-2020 08:31:17 7.6 C 40 %
3934 09-04-2020 08:41:17 8 C 39 %
3935 09-04-2020 08:51:17 8.3 C 39 %
3936 09-04-2020 09:01:17 8.5 C 38 %
3937 09-04-2020 09:11:17 8.7 C 39 %
3938 09-04-2020 09:21:17 9 C 38 %
3939 09-04-2020 09:31:17 9.3 C 38 %
3940 09-04-2020 09:41:17 9.8 C 37 %
3941 09-04-2020 09:51:17 10.4 C 36 %
3942 09-04-2020 10:01:17 10.8 C 36 %
3943 09-04-2020 10:11:17 11.2 C 35 %
3944 09-04-2020 10:21:17 11.8 C 35 %
3945 09-04-2020 10:31:17 12.6 C 34 %
3946 09-04-2020 10:41:17 13.3 C 32 %
3947 09-04-2020 10:51:18 14.6 C 31 %
3948 09-04-2020 11:01:17 15.4 C 30 %
3949 09-04-2020 11:11:18 16.2 C 28 %
3950 09-04-2020 11:21:17 17 C 25 %
Sensor: Nr:Datum:Temp:Feuchte:
Aussen-T/F 3951 09-04-2020 11:31:17 17.9 C 23 %
3952 09-04-2020 11:41:17 18.5 C 21 %
3953 09-04-2020 11:51:18 19 C 20 %
3954 09-04-2020 12:01:17 19.3 C 20 %
3955 09-04-2020 12:11:17 19.8 C 20 %
3956 09-04-2020 12:21:17 20.7 C 20 %
3957 09-04-2020 12:31:17 22 C 20 %
3958 09-04-2020 12:41:17 23 C 20 %
3959 09-04-2020 12:51:18 22.3 C 20 %
3960 09-04-2020 13:01:17 23.2 C 20 %
3961 09-04-2020 13:11:17 23.3 C 20 %
3962 09-04-2020 13:21:17 22.9 C 20 %
3963 09-04-2020 13:31:17 22.4 C 20 %
3964 09-04-2020 13:41:18 22.6 C 20 %
3965 09-04-2020 13:51:17 22.8 C 20 %
3966 09-04-2020 14:01:17 24.1 C 20 %
3967 09-04-2020 14:11:17 23.8 C 20 %
3968 09-04-2020 14:21:17 24.3 C 20 %
3969 09-04-2020 14:31:17 26.8 C 20 %
3970 09-04-2020 14:41:17 28 C 20 %
3971 09-04-2020 14:51:17 29.2 C 20 %
3972 09-04-2020 15:01:17 28.6 C 20 %
3973 09-04-2020 15:11:17 31.7 C 20 %
3974 09-04-2020 15:21:17 28.2 C 20 %
3975 09-04-2020 15:31:18 28.7 C 20 %
Sensor: Nr:Datum:Temp:Feuchte:
Aussen-T/F 3976 09-04-2020 15:41:18 28.4 C 20 %
3977 09-04-2020 15:51:17 30.1 C 20 %
3978 09-04-2020 16:01:18 29.2 C 20 %
3979 09-04-2020 16:11:18 29.3 C 20 %
3980 09-04-2020 16:21:17 31.4 C 20 %
3981 09-04-2020 16:31:17 28.8 C 20 %
3982 09-04-2020 16:41:17 28.8 C 20 %
3983 09-04-2020 16:51:17 29.2 C 20 %
3984 09-04-2020 17:01:17 28.7 C 20 %
3985 09-04-2020 17:11:17 28.4 C 20 %
3986 09-04-2020 17:21:17 29.8 C 20 %
3987 09-04-2020 17:31:17 28 C 20 %
3988 09-04-2020 17:41:17 27.6 C 20 %
3989 09-04-2020 17:51:18 27.1 C 20 %
3990 09-04-2020 18:01:18 25.2 C 20 %
3991 09-04-2020 18:11:18 24 C 20 %
3992 09-04-2020 18:21:17 23.7 C 20 %
3993 09-04-2020 18:31:17 23.4 C 20 %
3994 09-04-2020 18:41:17 23.5 C 20 %
3995 09-04-2020 18:51:17 22.9 C 20 %
3996 09-04-2020 19:01:18 22.7 C 20 %
3997 09-04-2020 19:11:18 22.4 C 20 %
3998 09-04-2020 19:21:17 21.8 C 20 %
3999 09-04-2020 19:31:17 21.1 C 20 %
4000 09-04-2020 19:41:17 20.6 C 20 %
Sensor: Nr:Datum:Temp:Feuchte:
Aussen-T/F 4001 09-04-2020 19:51:17 20.1 C 20 %
4002 09-04-2020 20:01:17 19.7 C 20 %
4003 09-04-2020 20:11:17 17.9 C 20 %
4004 09-04-2020 20:21:17 16.6 C 20 %
4005 09-04-2020 20:31:17 16.6 C 20 %
4006 09-04-2020 20:41:17 16.1 C 21 %
4007 09-04-2020 20:51:17 16.4 C 20 %
4008 09-04-2020 21:01:17 16.2 C 20 %
4009 09-04-2020 21:11:17 16.4 C 20 %
4010 09-04-2020 21:21:17 16.5 C 20 %
4011 09-04-2020 21:31:17 15.9 C 21 %
4012 09-04-2020 21:41:17 15.4 C 22 %
4013 09-04-2020 21:51:17 15.5 C 22 %
4014 09-04-2020 22:01:17 15.5 C 22 %
4015 09-04-2020 22:11:17 15.2 C 22 %
4016 09-04-2020 22:21:17 15.1 C 22 %
4017 09-04-2020 22:31:18 14.8 C 24 %
4018 09-04-2020 22:41:18 14.6 C 25 %
4019 09-04-2020 22:51:17 14.3 C 25 %
4020 09-04-2020 23:01:18 14.2 C 25 %
4021 09-04-2020 23:11:18 14.2 C 25 %
4022 09-04-2020 23:21:17 13.6 C 26 %
4023 09-04-2020 23:31:17 13.8 C 26 %
4024 09-04-2020 23:41:18 13.7 C 26 %
4025 09-04-2020 23:51:17 12.7 C 28 %
Sensor: Nr:Datum:Temp:Feuchte:
Aussen-T/F 4026 10-04-2020 00:01:17 12.7 C 29 %
4027 10-04-2020 00:11:17 11.7 C 31 %
4028 10-04-2020 00:21:18 11.8 C 31 %
4029 10-04-2020 00:31:18 11.1 C 32 %
4030 10-04-2020 00:41:18 10.7 C 34 %
4031 10-04-2020 00:51:17 10.5 C 34 %
4032 10-04-2020 01:01:17 10.1 C 35 %
4033 10-04-2020 01:11:17 10 C 35 %
4034 10-04-2020 01:21:17 9.7 C 36 %
4035 10-04-2020 01:31:17 9.6 C 36 %
4036 10-04-2020 01:41:17 9.5 C 36 %
4037 10-04-2020 01:51:17 9 C 36 %
4038 10-04-2020 02:01:17 9.2 C 36 %
4039 10-04-2020 02:11:17 8.9 C 37 %
4040 10-04-2020 02:21:18 8.7 C 37 %
4041 10-04-2020 02:31:18 8.6 C 37 %
4042 10-04-2020 02:41:18 8.3 C 38 %
4043 10-04-2020 02:51:17 8.2 C 38 %
4044 10-04-2020 03:01:18 8.3 C 38 %
4045 10-04-2020 03:11:18 7.9 C 39 %
4046 10-04-2020 03:21:17 7.6 C 39 %
4047 10-04-2020 03:31:17 7.4 C 40 %
4048 10-04-2020 03:41:17 7.2 C 40 %
4049 10-04-2020 03:51:17 7.1 C 40 %
4050 10-04-2020 04:01:18 7 C 40 %
Sensor: Nr:Datum:Temp:Feuchte:
Aussen-T/F 4051 10-04-2020 04:11:18 6.8 C 41 %
4052 10-04-2020 04:21:17 6.9 C 41 %
4053 10-04-2020 04:31:17 6.6 C 41 %
4054 10-04-2020 04:41:17 6.6 C 41 %
4055 10-04-2020 04:51:18 6.6 C 41 %
4056 10-04-2020 05:01:17 6.3 C 41 %
4057 10-04-2020 05:11:17 6.3 C 42 %
4058 10-04-2020 05:21:18 6.4 C 42 %
4059 10-04-2020 05:31:17 6.2 C 42 %
4060 10-04-2020 05:41:17 5.9 C 43 %
4061 10-04-2020 05:51:17 5.7 C 43 %
4062 10-04-2020 06:01:17 5.8 C 44 %
4063 10-04-2020 06:11:17 5.8 C 44 %
4064 10-04-2020 06:21:17 5.6 C 44 %
4065 10-04-2020 06:31:18 5.4 C 44 %
4066 10-04-2020 06:41:18 5.4 C 44 %
4067 10-04-2020 06:51:17 5.4 C 44 %
4068 10-04-2020 07:01:18 5.3 C 44 %
4069 10-04-2020 07:11:18 5.3 C 45 %
4070 10-04-2020 07:21:17 5.3 C 45 %
4071 10-04-2020 07:31:18 5.3 C 45 %
4072 10-04-2020 07:41:18 5.3 C 45 %
4073 10-04-2020 07:51:17 5.9 C 46 %
4074 10-04-2020 08:01:17 5.8 C 45 %
4075 10-04-2020 08:11:17 5.8 C 45 %
Sensor: Nr:Datum:Temp:Feuchte:
Aussen-T/F 4076 10-04-2020 08:21:17 6 C 44 %
4077 10-04-2020 08:31:17 6.1 C 45 %
4078 10-04-2020 08:41:17 6.2 C 44 %
4079 10-04-2020 08:51:17 6.5 C 45 %
4080 10-04-2020 09:01:17 6.9 C 45 %
4081 10-04-2020 09:11:17 7.8 C 42 %
4082 10-04-2020 09:21:18 8.2 C 41 %
4083 10-04-2020 09:31:18 8.5 C 40 %
4084 10-04-2020 09:41:18 9.1 C 39 %
4085 10-04-2020 09:51:17 9.4 C 39 %
4086 10-04-2020 10:01:17 9.9 C 38 %
4087 10-04-2020 10:11:17 10.2 C 37 %
4088 10-04-2020 10:21:17 10.8 C 37 %
4089 10-04-2020 10:31:17 11.6 C 36 %
4090 10-04-2020 10:41:17 12.3 C 35 %
4091 10-04-2020 10:51:17 13.4 C 33 %
4092 10-04-2020 11:01:17 14 C 31 %
4093 10-04-2020 11:11:17 14.7 C 31 %
4094 10-04-2020 11:21:17 15.9 C 28 %
4095 10-04-2020 11:31:17 16.3 C 27 %
4096 10-04-2020 11:41:17 16.8 C 26 %
4097 10-04-2020 11:51:17 17.5 C 25 %
4098 10-04-2020 12:01:17 17.9 C 24 %
4099 10-04-2020 12:11:17 18.4 C 21 %
4100 10-04-2020 12:21:17 19.2 C 20 %
Sensor: Nr:Datum:Temp:Feuchte:
Aussen-T/F 4101 10-04-2020 12:31:17 19.7 C 20 %
4102 10-04-2020 12:41:17 20.6 C 20 %
4103 10-04-2020 12:51:17 20.4 C 20 %
4104 10-04-2020 13:01:17 20.8 C 20 %
4105 10-04-2020 13:11:17 20.2 C 20 %
4106 10-04-2020 13:21:17 20.4 C 20 %
4107 10-04-2020 13:31:17 20.2 C 20 %
4108 10-04-2020 13:41:17 20.4 C 20 %
4109 10-04-2020 13:51:17 20.7 C 20 %
4110 10-04-2020 14:01:17 21.7 C 20 %
4111 10-04-2020 14:11:17 21.6 C 20 %
4112 10-04-2020 14:21:18 22 C 20 %
4113 10-04-2020 14:31:18 25.1 C 20 %
4114 10-04-2020 14:41:18 29.1 C 20 %
4115 10-04-2020 14:51:17 27.6 C 20 %
4116 10-04-2020 15:01:17 27.9 C 20 %
4117 10-04-2020 15:11:17 31.6 C 20 %
4118 10-04-2020 15:21:17 30.1 C 20 %
4119 10-04-2020 15:31:17 30.5 C 20 %
4120 10-04-2020 15:41:17 30.2 C 20 %
4121 10-04-2020 15:51:17 29.1 C 20 %
4122 10-04-2020 16:01:17 29.8 C 20 %
4123 10-04-2020 16:11:17 30.3 C 20 %
4124 10-04-2020 16:21:17 28.8 C 20 %
4125 10-04-2020 16:31:17 29.1 C 20 %
Sensor: Nr:Datum:Temp:Feuchte:
Aussen-T/F 4126 10-04-2020 16:41:17 28.3 C 20 %
4127 10-04-2020 16:51:17 30.8 C 20 %
4128 10-04-2020 17:01:17 29.6 C 20 %
4129 10-04-2020 17:11:17 28.8 C 20 %
4130 10-04-2020 17:21:17 26.8 C 20 %
4131 10-04-2020 17:31:17 28.5 C 20 %
4132 10-04-2020 17:41:17 27.6 C 20 %
4133 10-04-2020 17:51:18 26.4 C 20 %
4134 10-04-2020 18:01:17 23.6 C 20 %
4135 10-04-2020 18:11:17 23 C 20 %
4136 10-04-2020 18:21:18 22.5 C 20 %
4137 10-04-2020 18:31:18 22.2 C 20 %
4138 10-04-2020 18:41:18 22.3 C 20 %
4139 10-04-2020 18:51:17 22 C 20 %
4140 10-04-2020 19:01:17 21.6 C 20 %
4141 10-04-2020 19:11:17 21.4 C 20 %
4142 10-04-2020 19:21:17 21.1 C 20 %
4143 10-04-2020 19:31:17 20.9 C 20 %
4144 10-04-2020 19:41:17 20.7 C 20 %
4145 10-04-2020 19:51:18 20.2 C 20 %
4146 10-04-2020 20:01:17 19.6 C 20 %
4147 10-04-2020 20:11:17 18.5 C 20 %
4148 10-04-2020 20:21:18 16 C 20 %
4149 10-04-2020 20:31:17 15.9 C 20 %
4150 10-04-2020 20:41:17 15.3 C 20 %
Sensor: Nr:Datum:Temp:Feuchte:
Aussen-T/F 4151 10-04-2020 20:51:17 15 C 20 %
4152 10-04-2020 21:01:17 15.3 C 20 %
4153 10-04-2020 21:11:17 14.7 C 20 %
4154 10-04-2020 21:21:17 14.3 C 21 %
4155 10-04-2020 21:31:17 13.8 C 21 %
4156 10-04-2020 21:41:17 14.2 C 21 %
4157 10-04-2020 21:51:17 14.3 C 21 %
4158 10-04-2020 22:01:18 14.5 C 21 %
4159 10-04-2020 22:11:18 14.9 C 20 %
4160 10-04-2020 22:21:18 14.5 C 22 %
4161 10-04-2020 22:31:17 14.5 C 22 %
4162 10-04-2020 22:41:17 13.9 C 24 %
4163 10-04-2020 22:51:17 13.1 C 25 %
4164 10-04-2020 23:01:17 12.7 C 25 %
4165 10-04-2020 23:11:17 12.8 C 25 %
4166 10-04-2020 23:21:17 12 C 26 %
4167 10-04-2020 23:31:17 12.2 C 26 %
4168 10-04-2020 23:41:17 11.2 C 28 %
4169 10-04-2020 23:51:17 11.1 C 29 %
Sensor: Nr:Datum:Temp:Feuchte:
G-T/H 1 13-03-2020 00:09:17 11.9 C 68 %
2 13-03-2020 00:19:17 11.8 C 68 %
3 13-03-2020 00:29:17 11.8 C 67 %
4 13-03-2020 00:39:17 11.8 C 67 %
5 13-03-2020 00:49:17 11.8 C 67 %
6 13-03-2020 00:59:17 11.8 C 67 %
7 13-03-2020 01:09:17 11.7 C 67 %
8 13-03-2020 01:19:17 11.7 C 66 %
9 13-03-2020 01:29:17 11.7 C 66 %
10 13-03-2020 01:39:17 11.7 C 66 %
11 13-03-2020 01:49:17 11.7 C 66 %
12 13-03-2020 01:59:17 11.7 C 66 %
13 13-03-2020 02:09:17 11.6 C 66 %
14 13-03-2020 02:19:17 11.6 C 66 %
15 13-03-2020 02:29:17 11.6 C 66 %
16 13-03-2020 02:39:18 11.5 C 66 %
17 13-03-2020 02:49:17 11.5 C 65 %
18 13-03-2020 02:59:17 11.5 C 65 %
19 13-03-2020 03:09:17 11.5 C 65 %
20 13-03-2020 03:19:17 11.5 C 65 %
21 13-03-2020 03:29:17 11.4 C 65 %
22 13-03-2020 03:39:18 11.4 C 65 %
23 13-03-2020 03:49:17 11.4 C 65 %
24 13-03-2020 03:59:17 11.4 C 65 %
25 13-03-2020 04:09:17 11.4 C 65 %
Sensor: Nr:Datum:Temp:Feuchte:
G-T/H 26 13-03-2020 04:19:17 11.4 C 65 %
27 13-03-2020 04:29:17 11.3 C 65 %
28 13-03-2020 04:39:17 11.3 C 65 %
29 13-03-2020 04:49:17 11.3 C 65 %
30 13-03-2020 04:59:17 11.3 C 65 %
31 13-03-2020 05:09:17 11.2 C 65 %
32 13-03-2020 05:19:17 11.2 C 65 %
33 13-03-2020 05:29:17 11.2 C 65 %
34 13-03-2020 05:39:17 11.2 C 65 %
35 13-03-2020 05:49:18 11.1 C 65 %
36 13-03-2020 05:59:18 11.1 C 65 %
37 13-03-2020 06:09:18 11.1 C 65 %
38 13-03-2020 06:19:17 11.1 C 65 %
39 13-03-2020 06:29:17 11.1 C 65 %
40 13-03-2020 06:39:17 11.1 C 65 %
41 13-03-2020 06:49:17 11 C 65 %
42 13-03-2020 06:59:17 11 C 65 %
43 13-03-2020 07:09:17 11 C 65 %
44 13-03-2020 07:19:17 11 C 65 %
45 13-03-2020 07:29:17 11 C 65 %
46 13-03-2020 07:39:17 11 C 65 %
47 13-03-2020 07:49:18 10.9 C 66 %
48 13-03-2020 07:59:18 10.9 C 66 %
49 13-03-2020 08:09:17 10.9 C 66 %
50 13-03-2020 08:19:17 11 C 66 %
Sensor: Nr:Datum:Temp:Feuchte:
G-T/H 51 13-03-2020 08:29:17 11 C 66 %
52 13-03-2020 08:39:18 10.9 C 67 %
53 13-03-2020 08:49:17 10.9 C 67 %
54 13-03-2020 08:59:17 10.9 C 67 %
55 13-03-2020 09:09:17 10.9 C 68 %
56 13-03-2020 09:19:17 10.9 C 68 %
57 13-03-2020 09:29:17 10.9 C 68 %
58 13-03-2020 09:39:18 10.9 C 68 %
59 13-03-2020 09:49:17 10.9 C 68 %
60 13-03-2020 09:59:17 10.9 C 68 %
61 13-03-2020 10:09:18 10.9 C 68 %
62 13-03-2020 10:19:17 10.8 C 69 %
63 13-03-2020 10:29:17 10.9 C 69 %
64 13-03-2020 10:39:18 10.8 C 69 %
65 13-03-2020 10:49:17 10.9 C 69 %
66 13-03-2020 10:59:17 10.8 C 69 %
67 13-03-2020 11:09:17 10.8 C 69 %
68 13-03-2020 11:19:17 10.8 C 69 %
69 13-03-2020 11:29:17 10.8 C 69 %
70 13-03-2020 11:39:17 10.9 C 69 %
71 13-03-2020 11:49:18 10.8 C 69 %
72 13-03-2020 11:59:18 10.9 C 69 %
73 13-03-2020 12:09:18 10.9 C 69 %
74 13-03-2020 12:19:18 10.9 C 69 %
75 13-03-2020 12:29:18 10.8 C 69 %
Sensor: Nr:Datum:Temp:Feuchte:
G-T/H 76 13-03-2020 12:39:18 10.9 C 70 %
77 13-03-2020 12:49:18 10.9 C 70 %
78 13-03-2020 12:59:18 10.8 C 70 %
79 13-03-2020 13:09:18 10.9 C 70 %
80 13-03-2020 13:19:18 10.9 C 70 %
81 13-03-2020 13:29:18 10.9 C 70 %
82 13-03-2020 13:39:18 10.9 C 70 %
83 13-03-2020 13:49:17 10.9 C 70 %
84 13-03-2020 13:59:17 10.9 C 70 %
85 13-03-2020 14:09:18 10.9 C 70 %
86 13-03-2020 14:19:18 10.9 C 70 %
87 13-03-2020 14:29:18 10.9 C 70 %
88 13-03-2020 14:39:18 10.9 C 70 %
89 13-03-2020 14:49:18 10.9 C 70 %
90 13-03-2020 14:59:18 10.9 C 70 %
91 13-03-2020 15:09:18 10.9 C 70 %
92 13-03-2020 15:19:17 10.9 C 70 %
93 13-03-2020 15:29:17 11 C 70 %
94 13-03-2020 15:39:18 10.9 C 70 %
95 13-03-2020 15:49:18 11 C 70 %
96 13-03-2020 15:59:18 11 C 70 %
97 13-03-2020 16:09:18 11 C 70 %
98 13-03-2020 16:19:17 11 C 70 %
99 13-03-2020 16:29:17 11 C 70 %
100 13-03-2020 16:39:17 11 C 69 %
Sensor: Nr:Datum:Temp:Feuchte:
G-T/H 101 13-03-2020 16:49:17 11 C 69 %
102 13-03-2020 16:59:17 11 C 69 %
103 13-03-2020 17:09:17 11 C 69 %
104 13-03-2020 17:19:18 11 C 69 %
105 13-03-2020 17:29:18 11 C 69 %
106 13-03-2020 17:39:17 11 C 69 %
107 13-03-2020 17:49:18 11 C 70 %
108 13-03-2020 17:59:18 11 C 70 %
109 13-03-2020 18:09:18 11 C 70 %
110 13-03-2020 18:19:17 11 C 70 %
111 13-03-2020 18:29:17 11 C 70 %
112 13-03-2020 18:39:17 11 C 70 %
113 13-03-2020 18:49:17 11 C 70 %
114 13-03-2020 18:59:17 11 C 70 %
115 13-03-2020 19:09:17 11 C 70 %
116 13-03-2020 19:19:17 11 C 70 %
117 13-03-2020 19:29:17 11 C 70 %
118 13-03-2020 19:39:18 11 C 70 %
119 13-03-2020 19:49:17 11 C 70 %
120 13-03-2020 19:59:18 11 C 70 %
121 13-03-2020 20:09:18 11 C 70 %
122 13-03-2020 20:19:17 11 C 70 %
123 13-03-2020 20:29:17 11 C 70 %
124 13-03-2020 20:39:17 11 C 70 %
125 13-03-2020 20:49:17 11 C 70 %
Sensor: Nr:Datum:Temp:Feuchte:
G-T/H 126 13-03-2020 20:59:17 11 C 70 %
127 13-03-2020 21:09:18 11 C 70 %
128 13-03-2020 21:19:18 11 C 70 %
129 13-03-2020 21:29:18 11 C 70 %
130 13-03-2020 21:39:18 11 C 70 %
131 13-03-2020 21:49:17 11 C 70 %
132 13-03-2020 21:59:17 10.9 C 71 %
133 13-03-2020 22:09:18 11 C 70 %
134 13-03-2020 22:19:17 11 C 70 %
135 13-03-2020 22:29:18 11 C 70 %
136 13-03-2020 22:39:18 10.9 C 71 %
137 13-03-2020 22:49:17 10.9 C 71 %
138 13-03-2020 22:59:17 10.9 C 71 %
139 13-03-2020 23:09:18 10.9 C 71 %
140 13-03-2020 23:19:17 10.9 C 71 %
141 13-03-2020 23:29:17 10.9 C 71 %
142 13-03-2020 23:39:17 10.9 C 71 %
143 13-03-2020 23:49:17 10.9 C 71 %
144 13-03-2020 23:59:17 10.9 C 71 %
145 14-03-2020 00:09:17 10.9 C 71 %
146 14-03-2020 00:19:18 10.9 C 71 %
147 14-03-2020 00:29:18 10.9 C 71 %
148 14-03-2020 00:39:18 10.8 C 71 %
149 14-03-2020 00:49:17 10.9 C 71 %
150 14-03-2020 00:59:17 10.8 C 71 %
Sensor: Nr:Datum:Temp:Feuchte:
G-T/H 151 14-03-2020 01:09:18 10.8 C 71 %
152 14-03-2020 01:19:17 10.8 C 71 %
153 14-03-2020 01:29:18 10.8 C 71 %
154 14-03-2020 01:39:18 10.8 C 71 %
155 14-03-2020 01:49:17 10.8 C 71 %
156 14-03-2020 01:59:18 10.7 C 71 %
157 14-03-2020 02:09:18 10.7 C 71 %
158 14-03-2020 02:19:18 10.8 C 71 %
159 14-03-2020 02:29:18 10.7 C 71 %
160 14-03-2020 02:39:18 10.7 C 71 %
161 14-03-2020 02:49:18 10.7 C 71 %
162 14-03-2020 02:59:18 10.7 C 71 %
163 14-03-2020 03:09:18 10.7 C 71 %
164 14-03-2020 03:19:17 10.7 C 71 %
165 14-03-2020 03:29:17 10.7 C 71 %
166 14-03-2020 03:39:17 10.7 C 71 %
167 14-03-2020 03:49:18 10.6 C 70 %
168 14-03-2020 03:59:18 10.6 C 70 %
169 14-03-2020 04:09:17 10.6 C 70 %
170 14-03-2020 04:19:17 10.6 C 70 %
171 14-03-2020 04:29:17 10.5 C 70 %
172 14-03-2020 04:39:17 10.5 C 70 %
173 14-03-2020 04:49:17 10.5 C 70 %
174 14-03-2020 04:59:17 10.4 C 69 %
175 14-03-2020 05:09:17 10.4 C 69 %
Sensor: Nr:Datum:Temp:Feuchte:
G-T/H 176 14-03-2020 05:19:17 10.4 C 69 %
177 14-03-2020 05:29:17 10.4 C 69 %
178 14-03-2020 05:39:18 10.3 C 69 %
179 14-03-2020 05:49:17 10.3 C 69 %
180 14-03-2020 05:59:17 10.3 C 68 %
181 14-03-2020 06:09:18 10.2 C 68 %
182 14-03-2020 06:19:18 10.2 C 68 %
183 14-03-2020 06:29:18 10.2 C 68 %
184 14-03-2020 06:39:18 10.2 C 68 %
185 14-03-2020 06:49:17 10.2 C 68 %
186 14-03-2020 06:59:17 10.2 C 68 %
187 14-03-2020 07:09:17 10.1 C 68 %
188 14-03-2020 07:19:17 10.1 C 68 %
189 14-03-2020 07:29:17 10.1 C 68 %
190 14-03-2020 07:39:18 10.1 C 68 %
191 14-03-2020 07:49:17 10.1 C 67 %
192 14-03-2020 07:59:17 10.1 C 67 %
193 14-03-2020 08:09:17 10 C 67 %
194 14-03-2020 08:19:17 10 C 67 %
195 14-03-2020 08:29:17 10 C 67 %
196 14-03-2020 08:39:18 10 C 67 %
197 14-03-2020 08:49:17 10 C 68 %
198 14-03-2020 08:59:17 10 C 68 %
199 14-03-2020 09:09:17 10 C 68 %
200 14-03-2020 09:19:17 10 C 68 %
Sensor: Nr:Datum:Temp:Feuchte:
G-T/H 201 14-03-2020 09:29:17 10 C 68 %
202 14-03-2020 09:39:18 10 C 68 %
203 14-03-2020 09:49:17 10 C 68 %
204 14-03-2020 09:59:17 10 C 69 %
205 14-03-2020 10:09:18 9.9 C 70 %
206 14-03-2020 10:19:18 10 C 69 %
207 14-03-2020 10:29:18 9.9 C 70 %
208 14-03-2020 10:39:18 10 C 69 %
209 14-03-2020 10:49:17 10 C 69 %
210 14-03-2020 10:59:17 10 C 69 %
211 14-03-2020 11:09:18 9.9 C 71 %
212 14-03-2020 11:19:18 10 C 70 %
213 14-03-2020 11:29:18 9.9 C 71 %
214 14-03-2020 11:39:18 10 C 70 %
215 14-03-2020 11:49:17 10 C 70 %
216 14-03-2020 11:59:17 10.1 C 70 %
217 14-03-2020 12:09:18 10.1 C 70 %
218 14-03-2020 12:19:17 10.1 C 70 %
219 14-03-2020 12:29:18 10.1 C 70 %
220 14-03-2020 12:39:18 10.1 C 70 %
221 14-03-2020 12:49:17 10.1 C 70 %
222 14-03-2020 12:59:17 10.1 C 70 %
223 14-03-2020 13:09:18 10.1 C 70 %
224 14-03-2020 13:19:17 10 C 70 %
225 14-03-2020 13:29:17 10.1 C 70 %
Sensor: Nr:Datum:Temp:Feuchte:
G-T/H 226 14-03-2020 13:39:17 10.1 C 70 %
227 14-03-2020 13:49:17 10.1 C 70 %
228 14-03-2020 13:59:17 10.1 C 70 %
229 14-03-2020 14:09:18 10.1 C 70 %
230 14-03-2020 14:19:17 10.2 C 71 %
231 14-03-2020 14:29:17 10.1 C 71 %
232 14-03-2020 14:39:17 10.2 C 71 %
233 14-03-2020 14:49:18 10.2 C 71 %
234 14-03-2020 14:59:18 10.2 C 71 %
235 14-03-2020 15:09:18 10.2 C 71 %
236 14-03-2020 15:19:17 10.2 C 71 %
237 14-03-2020 15:29:17 10.2 C 71 %
238 14-03-2020 15:39:18 10.2 C 71 %
239 14-03-2020 15:49:17 10.2 C 71 %
240 14-03-2020 15:59:17 10.2 C 71 %
241 14-03-2020 16:09:18 10.3 C 71 %
242 14-03-2020 16:19:17 10.3 C 71 %
243 14-03-2020 16:29:17 10.3 C 71 %
244 14-03-2020 16:39:18 10.3 C 71 %
245 14-03-2020 16:49:18 10.3 C 71 %
246 14-03-2020 16:59:18 10.3 C 71 %
247 14-03-2020 17:09:18 10.3 C 71 %
248 14-03-2020 17:19:17 10.3 C 71 %
249 14-03-2020 17:29:17 10.4 C 71 %
250 14-03-2020 17:39:17 10.4 C 71 %
Sensor: Nr:Datum:Temp:Feuchte:
G-T/H 251 14-03-2020 17:49:17 10.4 C 71 %
252 14-03-2020 17:59:17 10.4 C 71 %
253 14-03-2020 18:09:17 10.4 C 71 %
254 14-03-2020 18:19:17 10.4 C 71 %
255 14-03-2020 18:29:17 10.4 C 71 %
256 14-03-2020 18:39:17 10.4 C 71 %
257 14-03-2020 18:49:17 10.4 C 71 %
258 14-03-2020 18:59:17 10.4 C 71 %
259 14-03-2020 19:09:17 10.4 C 71 %
260 14-03-2020 19:19:17 10.4 C 71 %
261 14-03-2020 19:29:17 10.4 C 71 %
262 14-03-2020 19:39:17 10.4 C 71 %
263 14-03-2020 19:49:17 10.4 C 71 %
264 14-03-2020 19:59:17 10.4 C 71 %
265 14-03-2020 20:09:18 10.4 C 71 %
266 14-03-2020 20:19:18 10.4 C 71 %
267 14-03-2020 20:29:18 10.4 C 71 %
268 14-03-2020 20:39:18 10.4 C 71 %
269 14-03-2020 20:49:17 10.4 C 71 %
270 14-03-2020 20:59:18 10.4 C 71 %
271 14-03-2020 21:09:18 10.4 C 71 %
272 14-03-2020 21:19:18 10.4 C 71 %
273 14-03-2020 21:29:18 10.4 C 71 %
274 14-03-2020 21:39:17 10.4 C 71 %
275 14-03-2020 21:49:18 10.4 C 71 %
Sensor: Nr:Datum:Temp:Feuchte:
G-T/H 276 14-03-2020 21:59:18 10.4 C 71 %
277 14-03-2020 22:09:18 10.4 C 71 %
278 14-03-2020 22:19:17 10.4 C 71 %
279 14-03-2020 22:29:17 10.4 C 71 %
280 14-03-2020 22:39:18 10.4 C 71 %
281 14-03-2020 22:49:18 10.4 C 71 %
282 14-03-2020 22:59:18 10.4 C 71 %
283 14-03-2020 23:09:17 10.4 C 71 %
284 14-03-2020 23:19:17 10.4 C 71 %
285 14-03-2020 23:29:17 10.4 C 71 %
286 14-03-2020 23:39:17 10.4 C 71 %
287 14-03-2020 23:49:18 10.4 C 71 %
288 14-03-2020 23:59:18 10.4 C 71 %
289 15-03-2020 00:09:18 10.4 C 71 %
290 15-03-2020 00:19:17 10.4 C 71 %
291 15-03-2020 00:29:17 10.4 C 71 %
292 15-03-2020 00:39:18 10.4 C 71 %
293 15-03-2020 00:49:18 10.4 C 71 %
294 15-03-2020 00:59:18 10.4 C 71 %
295 15-03-2020 01:09:17 10.4 C 71 %
296 15-03-2020 01:19:18 10.4 C 71 %
297 15-03-2020 01:29:18 10.4 C 71 %
298 15-03-2020 01:39:17 10.3 C 71 %
299 15-03-2020 01:49:17 10.3 C 71 %
300 15-03-2020 01:59:17 10.3 C 71 %
Sensor: Nr:Datum:Temp:Feuchte:
G-T/H 301 15-03-2020 02:09:17 10.3 C 71 %
302 15-03-2020 02:19:17 10.3 C 71 %
303 15-03-2020 02:29:17 10.4 C 71 %
304 15-03-2020 02:39:18 10.3 C 71 %
305 15-03-2020 02:49:17 10.3 C 71 %
306 15-03-2020 02:59:17 10.3 C 71 %
307 15-03-2020 03:09:17 10.3 C 71 %
308 15-03-2020 03:19:17 10.3 C 71 %
309 15-03-2020 03:29:17 10.3 C 71 %
310 15-03-2020 03:39:18 10.2 C 71 %
311 15-03-2020 03:49:17 10.2 C 71 %
312 15-03-2020 03:59:17 10.2 C 71 %
313 15-03-2020 04:09:18 10.2 C 71 %
314 15-03-2020 04:19:18 10.2 C 71 %
315 15-03-2020 04:29:18 10.2 C 71 %
316 15-03-2020 04:39:18 10.2 C 70 %
317 15-03-2020 04:49:17 10.1 C 70 %
318 15-03-2020 04:59:18 10.1 C 70 %
319 15-03-2020 05:09:18 10.1 C 70 %
320 15-03-2020 05:19:17 10.1 C 70 %
321 15-03-2020 05:29:18 10.1 C 70 %
322 15-03-2020 05:39:18 10.1 C 69 %
323 15-03-2020 05:49:17 10.1 C 69 %
324 15-03-2020 05:59:17 10.1 C 69 %
325 15-03-2020 06:09:18 10 C 69 %
Sensor: Nr:Datum:Temp:Feuchte:
G-T/H 326 15-03-2020 06:19:17 10 C 69 %
327 15-03-2020 06:29:17 10 C 69 %
328 15-03-2020 06:39:18 10 C 69 %
329 15-03-2020 06:49:18 10 C 69 %
330 15-03-2020 06:59:18 10 C 69 %
331 15-03-2020 07:09:18 10 C 69 %
332 15-03-2020 07:19:18 10 C 69 %
333 15-03-2020 07:29:18 10 C 69 %
334 15-03-2020 07:39:18 10 C 69 %
335 15-03-2020 07:49:18 10 C 69 %
336 15-03-2020 07:59:18 10 C 69 %
337 15-03-2020 08:09:18 10 C 70 %
338 15-03-2020 08:19:18 10 C 70 %
339 15-03-2020 08:29:18 10 C 70 %
340 15-03-2020 08:39:18 10 C 70 %
341 15-03-2020 08:49:17 10 C 70 %
342 15-03-2020 08:59:17 10 C 70 %
343 15-03-2020 09:09:18 10 C 70 %
344 15-03-2020 09:19:18 9.9 C 71 %
345 15-03-2020 09:29:18 9.9 C 71 %
346 15-03-2020 09:39:18 10 C 70 %
347 15-03-2020 09:49:18 9.9 C 71 %
348 15-03-2020 09:59:18 9.9 C 72 %
349 15-03-2020 10:09:18 10 C 71 %
350 15-03-2020 10:19:18 9.9 C 72 %
Sensor: Nr:Datum:Temp:Feuchte:
G-T/H 351 15-03-2020 10:29:18 10 C 71 %
352 15-03-2020 10:39:18 9.9 C 72 %
353 15-03-2020 10:49:17 10 C 71 %
354 15-03-2020 10:59:17 10 C 71 %
355 15-03-2020 11:09:17 10 C 71 %
356 15-03-2020 11:19:17 10 C 71 %
357 15-03-2020 11:29:17 10 C 71 %
358 15-03-2020 11:39:18 10 C 71 %
359 15-03-2020 11:49:17 10.3 C 71 %
360 15-03-2020 11:59:18 10.5 C 69 %
361 15-03-2020 12:09:18 10.5 C 68 %
362 15-03-2020 12:19:18 10.7 C 66 %
363 15-03-2020 12:29:18 10.7 C 65 %
364 15-03-2020 12:39:18 10.8 C 64 %
365 15-03-2020 12:49:17 10.9 C 64 %
366 15-03-2020 12:59:17 11 C 62 %
367 15-03-2020 13:09:18 11 C 61 %
368 15-03-2020 13:19:17 11.1 C 61 %
369 15-03-2020 13:29:17 11.3 C 60 %
370 15-03-2020 13:39:18 11.3 C 60 %
371 15-03-2020 13:49:17 11.4 C 59 %
372 15-03-2020 13:59:17 11.5 C 58 %
373 15-03-2020 14:09:17 11.5 C 58 %
374 15-03-2020 14:19:17 11.6 C 57 %
375 15-03-2020 14:29:17 11.7 C 57 %
Sensor: Nr:Datum:Temp:Feuchte:
G-T/H 376 15-03-2020 14:39:18 11.7 C 56 %
377 15-03-2020 14:49:17 11.8 C 56 %
378 15-03-2020 14:59:17 11.9 C 55 %
379 15-03-2020 15:09:17 11.9 C 55 %
380 15-03-2020 15:19:17 12 C 53 %
381 15-03-2020 15:29:18 12.1 C 53 %
382 15-03-2020 15:39:18 12.2 C 53 %
383 15-03-2020 15:49:17 12.2 C 52 %
384 15-03-2020 15:59:17 12.2 C 52 %
385 15-03-2020 16:09:17 12.2 C 51 %
386 15-03-2020 16:19:17 12.3 C 51 %
387 15-03-2020 16:29:17 12.4 C 51 %
388 15-03-2020 16:39:17 12.4 C 51 %
389 15-03-2020 16:49:18 12.3 C 51 %
390 15-03-2020 16:59:18 12.1 C 52 %
391 15-03-2020 17:09:18 12.1 C 53 %
392 15-03-2020 17:19:18 12 C 54 %
393 15-03-2020 17:29:18 11.9 C 56 %
394 15-03-2020 17:39:18 11.9 C 56 %
395 15-03-2020 17:49:18 11.9 C 57 %
396 15-03-2020 17:59:18 11.8 C 58 %
397 15-03-2020 18:09:18 11.8 C 58 %
398 15-03-2020 18:19:18 11.8 C 59 %
399 15-03-2020 18:29:18 11.7 C 60 %
400 15-03-2020 18:39:18 11.7 C 60 %
Sensor: Nr:Datum:Temp:Feuchte:
G-T/H 401 15-03-2020 18:49:17 11.7 C 60 %
402 15-03-2020 18:59:17 11.7 C 61 %
403 15-03-2020 19:09:18 11.7 C 61 %
404 15-03-2020 19:19:18 11.7 C 61 %
405 15-03-2020 19:29:18 11.6 C 62 %
406 15-03-2020 19:39:18 11.6 C 62 %
407 15-03-2020 19:49:17 11.6 C 62 %
408 15-03-2020 19:59:17 11.6 C 62 %
409 15-03-2020 20:09:18 11.6 C 63 %
410 15-03-2020 20:19:17 11.5 C 63 %
411 15-03-2020 20:29:17 11.6 C 63 %
412 15-03-2020 20:39:18 11.6 C 63 %
413 15-03-2020 20:49:18 11.5 C 63 %
414 15-03-2020 20:59:18 11.5 C 64 %
415 15-03-2020 21:09:18 11.5 C 64 %
416 15-03-2020 21:19:17 11.5 C 64 %
417 15-03-2020 21:29:17 11.5 C 64 %
418 15-03-2020 21:39:17 11.5 C 64 %
419 15-03-2020 21:49:17 11.5 C 64 %
420 15-03-2020 21:59:17 11.5 C 64 %
421 15-03-2020 22:09:17 11.5 C 64 %
422 15-03-2020 22:19:17 11.5 C 64 %
423 15-03-2020 22:29:18 11.5 C 65 %
424 15-03-2020 22:39:17 11.4 C 65 %
425 15-03-2020 22:49:17 11.4 C 65 %
Sensor: Nr:Datum:Temp:Feuchte:
G-T/H 426 15-03-2020 22:59:17 11.4 C 65 %
427 15-03-2020 23:09:17 11.4 C 65 %
428 15-03-2020 23:19:17 11.4 C 65 %
429 15-03-2020 23:29:17 11.4 C 65 %
430 15-03-2020 23:39:17 11.4 C 65 %
431 15-03-2020 23:49:17 11.4 C 65 %
432 15-03-2020 23:59:17 11.3 C 65 %
433 16-03-2020 00:09:17 11.3 C 65 %
434 16-03-2020 00:19:17 11.3 C 65 %
435 16-03-2020 00:29:17 11.3 C 65 %
436 16-03-2020 00:39:17 11.2 C 64 %
437 16-03-2020 00:49:17 11.2 C 64 %
438 16-03-2020 00:59:17 11.2 C 64 %
439 16-03-2020 01:09:18 11.2 C 64 %
440 16-03-2020 01:19:17 11.2 C 64 %
441 16-03-2020 01:29:17 11.1 C 64 %
442 16-03-2020 01:39:17 11.1 C 64 %
443 16-03-2020 01:49:18 11.1 C 64 %
444 16-03-2020 01:59:18 11.1 C 64 %
445 16-03-2020 02:09:17 11.1 C 63 %
446 16-03-2020 02:19:17 11.1 C 63 %
447 16-03-2020 02:29:17 11 C 63 %
448 16-03-2020 02:39:17 11 C 63 %
449 16-03-2020 02:49:17 11 C 63 %
450 16-03-2020 02:59:17 11 C 63 %
Sensor: Nr:Datum:Temp:Feuchte:
G-T/H 451 16-03-2020 03:09:18 10.9 C 64 %
452 16-03-2020 03:19:17 10.9 C 64 %
453 16-03-2020 03:29:17 10.9 C 64 %
454 16-03-2020 03:39:17 10.9 C 64 %
455 16-03-2020 03:49:18 10.9 C 64 %
456 16-03-2020 03:59:18 10.8 C 64 %
457 16-03-2020 04:09:18 10.8 C 64 %
458 16-03-2020 04:19:18 10.8 C 64 %
459 16-03-2020 04:29:18 10.8 C 64 %
460 16-03-2020 04:39:18 10.7 C 64 %
461 16-03-2020 04:49:17 10.7 C 64 %
462 16-03-2020 04:59:18 10.7 C 63 %
463 16-03-2020 05:09:18 10.7 C 63 %
464 16-03-2020 05:19:18 10.7 C 63 %
465 16-03-2020 05:29:18 10.6 C 63 %
466 16-03-2020 05:39:18 10.6 C 63 %
467 16-03-2020 05:49:17 10.6 C 63 %
468 16-03-2020 05:59:17 10.6 C 63 %
469 16-03-2020 06:09:18 10.5 C 63 %
470 16-03-2020 06:19:17 10.5 C 63 %
471 16-03-2020 06:29:17 10.5 C 63 %
472 16-03-2020 06:39:17 10.5 C 63 %
473 16-03-2020 06:49:17 10.4 C 63 %
474 16-03-2020 06:59:17 10.4 C 63 %
475 16-03-2020 07:09:17 10.4 C 63 %
Sensor: Nr:Datum:Temp:Feuchte:
G-T/H 476 16-03-2020 07:19:17 10.4 C 63 %
477 16-03-2020 07:29:17 10.4 C 63 %
478 16-03-2020 07:39:17 10.3 C 63 %
479 16-03-2020 07:49:17 10.3 C 63 %
480 16-03-2020 07:59:17 10.3 C 63 %
481 16-03-2020 08:09:18 10.3 C 63 %
482 16-03-2020 08:19:17 10.2 C 63 %
483 16-03-2020 08:29:18 10.2 C 63 %
484 16-03-2020 08:39:18 10.2 C 63 %
485 16-03-2020 08:49:17 10.2 C 64 %
486 16-03-2020 08:59:17 10.2 C 64 %
487 16-03-2020 09:09:18 10.2 C 64 %
488 16-03-2020 09:19:18 10.2 C 64 %
489 16-03-2020 09:29:18 10.2 C 64 %
490 16-03-2020 09:39:18 10.2 C 65 %
491 16-03-2020 09:49:18 10.2 C 65 %
492 16-03-2020 09:59:18 10.2 C 65 %
493 16-03-2020 10:09:18 10.2 C 65 %
494